Provisional Data: South Branch Codorus Creek near Leader Heights, PA


Please select a monitoring station.
Please select start date.
Please select start date.

Toggle Unit: C/F Toggle Unit: C/F
Sample Time Temperature (C) Temperature (F) Specific Conductivity (mS/cm) pH   Turbidity (NTU+) DO (mg/L)
3/23/2021 12:00:00 AM 8.3 46.94 0.244 7.54 3.72 11.26
3/23/2021 12:15:00 AM 8.24 46.832 0.244 7.51 4.23 11.25
3/23/2021 12:30:00 AM 8.27 46.886 0.243 7.49 4.43 11.23
3/23/2021 12:45:00 AM 8.21 46.778 0.243 7.46 3.84 11.22
3/23/2021 1:00:00 AM 8.18 46.724 0.242 7.46 7.48 11.24
3/23/2021 1:15:00 AM 8.07 46.526 0.243 7.44 3.81 11.25
3/23/2021 1:30:00 AM 8.06 46.508 0.244 7.42 3.94 11.25
3/23/2021 1:45:00 AM 8.03 46.454 0.244 7.42 5.54 11.26
3/23/2021 2:00:00 AM 7.98 46.364 0.244 7.41 4.13 11.26
3/23/2021 2:15:00 AM 7.94 46.292 0.244 7.4 4.24 11.26
3/23/2021 2:30:00 AM 7.9 46.22 0.244 7.4 3.89 11.28
3/23/2021 2:45:00 AM 7.82 46.076 0.245 7.37 3.64 11.29
3/23/2021 3:00:00 AM 7.8 46.04 0.244 7.37 4.15 11.27
3/23/2021 3:15:00 AM 7.73 45.914 0.244 7.36 4.07 11.27
3/23/2021 3:30:00 AM 7.68 45.824 0.243 7.34 4.32 11.28
3/23/2021 3:45:00 AM 7.59 45.662 0.244 7.33 4.99 11.28
3/23/2021 4:00:00 AM 7.57 45.626 0.244 7.33 5.45 11.28
3/23/2021 4:15:00 AM 7.52 45.536 0.244 7.3 4.71 11.32
3/23/2021 4:30:00 AM 7.47 45.446 0.244 7.3 4.35 11.32
3/23/2021 4:45:00 AM 7.42 45.356 0.245 7.3 4.66 11.33
3/23/2021 5:00:00 AM 7.41 45.338 0.244 7.27 5.93 11.3
3/23/2021 5:15:00 AM 7.35 45.23 0.244 7.27 5.08 11.32
3/23/2021 5:30:00 AM 7.28 45.104 0.244 7.26 4.78 11.32
3/23/2021 5:45:00 AM 7.25 45.05 0.243 7.28 6.81 11.35
3/23/2021 6:00:00 AM 7.18 44.924 0.243 7.24 4.24 11.36
3/23/2021 6:15:00 AM 7.14 44.852 0.244 7.24 4.42 11.34
3/23/2021 6:30:00 AM 7.1 44.78 0.244 7.22 5.1 11.35
3/23/2021 6:45:00 AM 7.06 44.708 0.244 7.21 4.61 11.35
3/23/2021 7:00:00 AM 7 44.6 0.244 7.22 4.44 11.36
3/23/2021 7:15:00 AM 6.97 44.546 0.243 7.19 3.98 11.37
3/23/2021 7:30:00 AM 6.93 44.474 0.243 7.18 4.43 11.44
3/23/2021 7:45:00 AM 6.89 44.402 0.243 7.19 15.3 11.54
3/23/2021 8:00:00 AM 6.91 44.438 0.242 7.18 4.26 11.66
3/23/2021 8:15:00 AM 6.91 44.438 0.242 7.19 4.31 11.83
3/23/2021 8:30:00 AM 6.91 44.438 0.243 7.21 4.3 12.02
3/23/2021 8:45:00 AM 6.95 44.51 0.243 7.21 3.91 12.18
3/23/2021 9:00:00 AM 7.04 44.672 0.241 7.25 4.51 12.34
3/23/2021 9:15:00 AM 7.08 44.744 0.242 7.25 4.41 12.5
3/23/2021 9:30:00 AM 7.17 44.906 0.241 7.29 4.09 12.64
3/23/2021 9:45:00 AM 7.27 45.086 0.241 7.3 3.93 12.76
3/23/2021 10:00:00 AM 7.38 45.284 0.241 7.33 4.43 12.85
3/23/2021 10:15:00 AM 7.52 45.536 0.241 7.36 3.76 12.99
3/23/2021 10:30:00 AM 7.65 45.77 0.24 7.4 3.68 13.08
3/23/2021 10:45:00 AM 7.78 46.004 0.24 7.43 4.06 13.17
3/23/2021 11:00:00 AM 7.93 46.274 0.241 7.46 3.91 13.25
3/23/2021 11:15:00 AM 8.11 46.598 0.24 7.51 4.29 13.31
3/23/2021 11:30:00 AM 8.28 46.904 0.241 7.55 3.86 13.36
3/23/2021 11:45:00 AM 8.48 47.264 0.24 7.61 3.9 13.39
3/23/2021 12:00:00 PM 8.66 47.588 0.239 7.63 3.56 13.44
3/23/2021 12:15:00 PM 8.82 47.876 0.239 7.67 3.94 13.45
3/23/2021 12:30:00 PM 8.96 48.128 0.239 7.7 3.73 13.51
3/23/2021 12:45:00 PM 9.06 48.308 0.239 7.77 3.67 13.54
3/23/2021 1:00:00 PM 9.21 48.578 0.239 7.81 4.15 13.57
3/23/2021 1:15:00 PM 9.37 48.866 0.239 7.88 4.03 13.6
3/23/2021 1:30:00 PM 9.56 49.208 0.239 7.92 3.96 13.6
3/23/2021 1:45:00 PM 9.69 49.442 0.24 7.97 4.2 13.62
3/23/2021 2:00:00 PM 9.81 49.658 0.24 8.03 3.97 13.61
3/23/2021 2:15:00 PM 9.89 49.802 0.24 8.06 3.88 13.61
3/23/2021 2:30:00 PM 9.91 49.838 0.241 8.12 4.27 13.61
3/23/2021 2:45:00 PM 10.05 50.09 0.239 8.15 3.57 13.58
3/23/2021 3:00:00 PM 10.07 50.126 0.24 8.22 4.46 13.6
3/23/2021 3:15:00 PM 10.09 50.162 0.24 8.23 3.63 13.57
3/23/2021 3:30:00 PM 10.06 50.108 0.24 8.27 3.98 13.51
3/23/2021 3:45:00 PM 10.04 50.072 0.241 8.3 3.85 13.5
3/23/2021 4:00:00 PM 10.11 50.198 0.241 8.34 4.2 13.51
3/23/2021 4:15:00 PM 10.13 50.234 0.241 8.35 4.02 13.43
3/23/2021 4:30:00 PM 10.1 50.18 0.241 8.41 7.1 13.41
3/23/2021 4:45:00 PM 10.09 50.162 0.241 8.43 4.19 13.38
3/23/2021 5:00:00 PM 10.02 50.036 0.241 8.43 3.92 13.22
3/23/2021 5:15:00 PM 9.98 49.964 0.241 8.43 4.27 13.15
3/23/2021 5:30:00 PM 9.88 49.784 0.241 8.44 4.52 13.07
3/23/2021 5:45:00 PM 9.8 49.64 0.241 8.43 4.01 13
3/23/2021 6:00:00 PM 9.71 49.478 0.242 8.41 3.85 12.91
3/23/2021 6:15:00 PM 9.72 49.496 0.241 8.41 4.29 12.81
3/23/2021 6:30:00 PM 9.68 49.424 0.242 8.4 4 12.71
3/23/2021 6:45:00 PM 9.6 49.28 0.242 8.35 4.06 12.59
3/23/2021 7:00:00 PM 9.54 49.172 0.243 8.34 3.73 12.47
3/23/2021 7:15:00 PM 9.49 49.082 0.243 8.3 3.6 12.3
3/23/2021 7:30:00 PM 9.43 48.974 0.243 8.28 3.94 12.12
3/23/2021 7:45:00 PM 9.39 48.902 0.243 8.22 4.74 11.96
3/23/2021 8:00:00 PM 9.3 48.74 0.243 8.17 4.25 11.84
3/23/2021 8:15:00 PM 9.31 48.758 0.242 8.11 3.82 11.72
3/23/2021 8:30:00 PM 9.26 48.668 0.242 8.07 3.77 11.63
3/23/2021 8:45:00 PM 9.24 48.632 0.243 8.02 5.17 11.55
3/23/2021 9:00:00 PM 9.16 48.488 0.244 7.96 3.84 11.48
3/23/2021 9:15:00 PM 9.19 48.542 0.243 7.89 3.9 11.4
3/23/2021 9:30:00 PM 9.11 48.398 0.244 7.85 5.24 11.38
3/23/2021 9:45:00 PM 9.16 48.488 0.243 7.81 4.46 11.31
3/23/2021 10:00:00 PM 9.17 48.506 0.243 7.79 3.93 11.27
3/23/2021 10:15:00 PM 9.04 48.272 0.244 7.75 4.69 11.26
3/23/2021 10:30:00 PM 9.06 48.308 0.243 7.71 4.3 11.23
3/23/2021 10:45:00 PM 9.1 48.38 0.242 7.69 4.04 11.18
3/23/2021 11:00:00 PM 9.04 48.272 0.244 7.68 4.18 11.15
3/23/2021 11:15:00 PM 9.06 48.308 0.244 7.63 6.29 11.12
3/23/2021 11:30:00 PM 9.05 48.29 0.244 7.64 4.49 11.11
3/23/2021 11:45:00 PM 9.04 48.272 0.244 7.58 4.27 11.09
3/24/2021 12:00:00 AM 9.06 48.308 0.243 7.56 4.41 11.06
3/24/2021 12:15:00 AM 8.97 48.146 0.243 7.56 4.43 11.05
3/24/2021 12:30:00 AM 9.04 48.272 0.242 7.55 4.46 11.04
3/24/2021 12:45:00 AM 9.01 48.218 0.242 7.53 3.92 11.03
3/24/2021 1:00:00 AM 9.03 48.254 0.242 7.51 3.92 11.03
3/24/2021 1:15:00 AM 9.09 48.362 0.242 7.51 4.32 11.01
3/24/2021 1:30:00 AM 9.08 48.344 0.243 7.49 5.04 11
3/24/2021 1:45:00 AM 9.06 48.308 0.243 7.5 3.87 11
3/24/2021 2:00:00 AM 9.08 48.344 0.243 7.47 3.94 10.98
3/24/2021 2:15:00 AM 9 48.2 0.244 7.45 4.77 11
3/24/2021 2:30:00 AM 9.02 48.236 0.244 7.43 4.33 10.98
3/24/2021 2:45:00 AM 9.03 48.254 0.243 7.44 4.18 10.97
3/24/2021 3:00:00 AM 8.97 48.146 0.244 7.43 4.33 10.96
3/24/2021 3:15:00 AM 8.97 48.146 0.243 7.42 4.49 10.95
3/24/2021 3:30:00 AM 8.99 48.182 0.243 7.39 4.4 10.94
3/24/2021 3:45:00 AM 8.99 48.182 0.243 7.4 4.31 10.94
3/24/2021 4:00:00 AM 9.01 48.218 0.243 7.37 4.71 10.92
3/24/2021 4:15:00 AM 8.98 48.164 0.244 7.38 4.58 10.9
3/24/2021 4:30:00 AM 8.98 48.164 0.244 7.35 4.57 10.84
3/24/2021 4:45:00 AM 8.95 48.11 0.244 7.34 4.94 10.81
3/24/2021 5:00:00 AM 8.96 48.128 0.243 7.33 5.08 10.78
3/24/2021 5:15:00 AM 8.88 47.984 0.244 7.31 4.51 10.78
3/24/2021 5:30:00 AM 8.9 48.02 0.243 7.29 4.56 10.77
3/24/2021 5:45:00 AM 8.88 47.984 0.243 7.29 5.15 10.76
3/24/2021 6:00:00 AM 8.93 48.074 0.242 7.28 4.58 10.75
3/24/2021 6:15:00 AM 8.9 48.02 0.243 7.28 5.99 10.73
3/24/2021 6:30:00 AM 8.86 47.948 0.243 7.27 4.92 10.72
3/24/2021 6:45:00 AM 8.88 47.984 0.243 7.27 5.54 10.71
3/24/2021 7:00:00 AM 8.9 48.02 0.243 7.27 4.75 10.73
3/24/2021 7:15:00 AM 8.86 47.948 0.243 7.24 4.59 10.72
3/24/2021 7:30:00 AM 8.83 47.894 0.243 7.24 4.69 10.76
3/24/2021 7:45:00 AM 8.89 48.002 0.242 7.25 4.67 10.75
3/24/2021 8:00:00 AM 8.93 48.074 0.241 7.23 4.39 10.79
3/24/2021 8:15:00 AM 8.87 47.966 0.241 7.25 4.79 10.85
3/24/2021 8:30:00 AM 8.93 48.074 0.241 7.25 4.79 10.87
3/24/2021 8:45:00 AM 8.94 48.092 0.241 7.27 4.55 10.87
3/24/2021 9:00:00 AM 8.97 48.146 0.24 7.25 4.63 10.9
3/24/2021 9:15:00 AM 8.95 48.11 0.241 7.25 5.06 10.92
3/24/2021 9:30:00 AM 8.97 48.146 0.24 7.25 4.43 10.97
3/24/2021 9:45:00 AM 9 48.2 0.239 7.25 4.49 11.05
3/24/2021 10:00:00 AM 8.99 48.182 0.24 7.26 4.37 11.14
3/24/2021 10:15:00 AM 9.01 48.218 0.239 7.27 3.83 11.25
3/24/2021 10:30:00 AM 9.05 48.29 0.239 7.29 4.26 11.42
3/24/2021 10:45:00 AM 9.03 48.254 0.239 7.31 4.21 11.51
3/24/2021 11:00:00 AM 9.06 48.308 0.24 7.31 4.09 11.52
3/24/2021 11:15:00 AM 9.09 48.362 0.239 7.33 4.16 11.64
3/24/2021 11:30:00 AM 9.15 48.47 0.239 7.35 4.24 11.8
3/24/2021 11:45:00 AM 9.18 48.524 0.238 7.36 4.07 11.79
3/24/2021 12:00:00 PM 9.14 48.452 0.239 7.36 5.1 11.75
3/24/2021 12:15:00 PM 9.14 48.452 0.239 7.37 4.06 11.73
3/24/2021 12:30:00 PM 9.19 48.542 0.238 7.37 4.3 11.75
3/24/2021 12:45:00 PM 9.21 48.578 0.238 7.39 4.15 11.77
3/24/2021 1:00:00 PM 9.19 48.542 0.238 7.4 4.62 11.81
3/24/2021 1:15:00 PM 9.27 48.686 0.238 7.42 4.64 11.82
3/24/2021 1:30:00 PM 9.25 48.65 0.239 7.46 5.6 11.84
3/24/2021 1:45:00 PM 9.27 48.686 0.239 7.43 4.32 11.85
3/24/2021 2:00:00 PM 9.28 48.704 0.239 7.46 5.22 11.84
3/24/2021 2:15:00 PM 9.31 48.758 0.239 7.47 5.85 11.83
3/24/2021 2:30:00 PM 9.28 48.704 0.24 7.48 7.02 11.82
3/24/2021 2:45:00 PM 9.31 48.758 0.242 7.49 5.69 11.8
3/24/2021 3:00:00 PM 9.41 48.938 0.243 7.49 6.18 11.78
3/24/2021 3:15:00 PM 9.45 49.01 0.246 7.5 6.96 11.77
3/24/2021 3:30:00 PM 9.54 49.172 0.247 7.51 8.54 11.81
3/24/2021 3:45:00 PM 9.59 49.262 0.247 7.5 8.22 11.86
3/24/2021 4:00:00 PM 9.62 49.316 0.247 7.55 7.2 11.88
3/24/2021 4:15:00 PM 9.66 49.388 0.246 7.54 10.23 11.89
3/24/2021 4:30:00 PM 9.66 49.388 0.245 7.56 8.39 11.83
3/24/2021 4:45:00 PM 9.69 49.442 0.243 7.57 8.67 11.75
3/24/2021 5:00:00 PM 9.75 49.55 0.241 7.57 7.04 11.72
3/24/2021 5:15:00 PM 9.8 49.64 0.239 7.56 7.23 11.72
3/24/2021 5:30:00 PM 9.77 49.586 0.238 7.55 8.03 11.63
3/24/2021 5:45:00 PM 9.76 49.568 0.237 7.56 6.89 11.51
3/24/2021 6:00:00 PM 9.76 49.568 0.237 7.56 7.49 11.38
3/24/2021 6:15:00 PM 9.79 49.622 0.236 7.54 6.76 11.28
3/24/2021 6:30:00 PM 9.84 49.712 0.236 7.53 9.77 11.24
3/24/2021 6:45:00 PM 9.89 49.802 0.235 7.51 16.61 11.19
3/24/2021 7:00:00 PM 9.91 49.838 0.235 7.51 16.82 11.14
3/24/2021 7:15:00 PM 10.05 50.09 0.233 7.49 27.72 11.09
3/24/2021 7:30:00 PM 10.1 50.18 0.232 7.49 30.13 11
3/24/2021 7:45:00 PM 10.14 50.252 0.231 7.48 36.98 10.97
3/24/2021 8:00:00 PM 10.15 50.27 0.231 7.48 73.16 10.92
3/24/2021 8:15:00 PM 10.17 50.306 0.231 7.47 53.16 10.88
3/24/2021 8:30:00 PM 10.19 50.342 0.231 7.46 65.56 10.85
3/24/2021 8:45:00 PM 10.19 50.342 0.23 7.44 55.7 10.82
3/24/2021 9:00:00 PM 10.18 50.324 0.23 7.43 63.08 10.78
3/24/2021 9:15:00 PM 10.11 50.198 0.23 7.42 102.2 10.75
3/24/2021 9:30:00 PM 10.09 50.162 0.23 7.41 44.61 10.73
3/24/2021 9:45:00 PM 10.12 50.216 0.228 7.4 51.05 10.69
3/24/2021 10:00:00 PM 10.06 50.108 0.229 7.39 45.31 10.67
3/24/2021 10:15:00 PM 10.08 50.144 0.229 7.39 48.45 10.63
3/24/2021 10:30:00 PM 10.09 50.162 0.229 7.36 33.15 10.63
3/24/2021 10:45:00 PM 10.12 50.216 0.228 7.36 39.42 10.61
3/24/2021 11:00:00 PM 10.14 50.252 0.229 7.34 40.68 10.59
3/24/2021 11:15:00 PM 10.13 50.234 0.23 7.33 38.62 10.6
3/24/2021 11:30:00 PM 10.13 50.234 0.231 7.33 35.75 10.58
3/24/2021 11:45:00 PM 10.12 50.216 0.231 7.32 28.48 10.58
3/25/2021 12:00:00 AM 10.08 50.144 0.233 7.3 27.11 10.59
3/25/2021 12:15:00 AM 10.07 50.126 0.233 7.3 33.13 10.6
3/25/2021 12:30:00 AM 10.05 50.09 0.233 7.3 30.85 10.6
3/25/2021 12:45:00 AM 10.07 50.126 0.231 7.3 29.61 10.59
3/25/2021 1:00:00 AM 10.05 50.09 0.23 7.27 31.65 10.6
3/25/2021 1:15:00 AM 10.08 50.144 0.228 7.29 27.88 10.57
3/25/2021 1:30:00 AM 10.03 50.054 0.228 7.29 32 10.6
3/25/2021 1:45:00 AM 10.05 50.09 0.226 7.27 27.53 10.6
3/25/2021 2:00:00 AM 10.03 50.054 0.226 7.28 30.09 10.6
3/25/2021 2:15:00 AM 10.02 50.036 0.225 7.27 27.18 10.59
3/25/2021 2:30:00 AM 10 50 0.225 7.27 31.68 10.59
3/25/2021 2:45:00 AM 10.01 50.018 0.223 7.25 28.1 10.6
3/25/2021 3:00:00 AM 10.02 50.036 0.222 7.25 31.87 10.59
3/25/2021 3:15:00 AM 9.97 49.946 0.224 7.25 35.59 10.6
3/25/2021 3:30:00 AM 9.97 49.946 0.223 7.25 33.66 10.6
3/25/2021 3:45:00 AM 9.97 49.946 0.223 7.23 25.97 10.6
3/25/2021 4:00:00 AM 9.97 49.946 0.222 7.24 31.63 10.62
3/25/2021 4:15:00 AM 9.93 49.874 0.224 7.21 32.02 10.62
3/25/2021 4:30:00 AM 9.92 49.856 0.223 7.23 30.6 10.64
3/25/2021 4:45:00 AM 9.91 49.838 0.223 7.23 29.87 10.64
3/25/2021 5:00:00 AM 9.9 49.82 0.222 7.22 26.58 10.65
3/25/2021 5:15:00 AM 9.84 49.712 0.224 7.23 26.34 10.65
3/25/2021 5:30:00 AM 9.84 49.712 0.224 7.22 24.73 10.66
3/25/2021 5:45:00 AM 9.84 49.712 0.223 7.22 20.34 10.64
3/25/2021 6:00:00 AM 9.81 49.658 0.225 7.21 26.59 10.67
3/25/2021 6:15:00 AM 9.8 49.64 0.225 7.21 22.08 10.67
3/25/2021 6:30:00 AM 9.78 49.604 0.225 7.21 21.01 10.67
3/25/2021 6:45:00 AM 9.77 49.586 0.225 7.2 25.88 10.67
3/25/2021 7:00:00 AM 9.71 49.478 0.226 7.21 21.94 10.67
3/25/2021 7:15:00 AM 9.69 49.442 0.226 7.2 19.07 10.69
3/25/2021 7:30:00 AM 9.72 49.496 0.225 7.19 18.4 10.68
3/25/2021 7:45:00 AM 9.72 49.496 0.226 7.2 19.77 10.71
3/25/2021 8:00:00 AM 9.74 49.532 0.226 7.2 21.22 10.76
3/25/2021 8:15:00 AM 9.71 49.478 0.227 7.22 18.52 10.81
3/25/2021 8:30:00 AM 9.69 49.442 0.228 7.2 30.42 10.9
3/25/2021 8:45:00 AM 9.75 49.55 0.227 7.21 18.95 10.96
3/25/2021 9:00:00 AM 9.77 49.586 0.227 7.22 18.94 11.03
3/25/2021 9:15:00 AM 9.76 49.568 0.228 7.25 17.93 11.12
3/25/2021 9:30:00 AM 9.8 49.64 0.229 7.24 22.22 11.18
3/25/2021 9:45:00 AM 9.82 49.676 0.229 7.27 23.83 11.21
3/25/2021 10:00:00 AM 9.86 49.748 0.228 7.27 15.19 11.26
3/25/2021 10:15:00 AM 9.84 49.712 0.23 7.28 21.18 11.33
3/25/2021 10:30:00 AM 9.95 49.91 0.229 7.29 16.31 11.36
3/25/2021 10:45:00 AM 9.94 49.892 0.231 7.3 12.61 11.44
3/25/2021 11:00:00 AM 10.01 50.018 0.231 7.33 12.25 11.51
3/25/2021 11:15:00 AM 10.08 50.144 0.23 7.34 16.69 11.55
3/25/2021 11:30:00 AM 10.09 50.162 0.231 7.35 13.02 11.62
3/25/2021 11:45:00 AM 10.16 50.288 0.23 7.37 13.02 11.64
3/25/2021 12:00:00 PM 10.21 50.378 0.231 7.4 11.41 11.66
3/25/2021 12:15:00 PM 10.19 50.342 0.232 7.43 10.74 11.72
3/25/2021 12:30:00 PM 10.25 50.45 0.232 7.43 9.92 11.78
3/25/2021 12:45:00 PM 10.29 50.522 0.233 7.43 13.09 11.81
3/25/2021 1:00:00 PM 10.42 50.756 0.233 7.48 9.33 11.86
3/25/2021 1:15:00 PM 10.47 50.846 0.234 7.52 15.57 11.93
3/25/2021 1:30:00 PM 10.55 50.99 0.235 7.53 9.82 11.96
3/25/2021 1:45:00 PM 10.67 51.206 0.235 7.56 11.02 11.98
3/25/2021 2:00:00 PM 10.79 51.422 0.234 7.58 9.23 12.01
3/25/2021 2:15:00 PM 10.85 51.53 0.234 7.59 8.52 12.03
3/25/2021 2:30:00 PM 10.94 51.692 0.234 7.63 8.36 12.06
3/25/2021 2:45:00 PM 11.06 51.908 0.234 7.65 7.99 12.1
3/25/2021 3:00:00 PM 11.09 51.962 0.235 7.68 10.57 12.11
3/25/2021 3:15:00 PM 11.15 52.07 0.235 7.7 9.07 12.1
3/25/2021 3:30:00 PM 11.24 52.232 0.236 7.73 7.5 12.13
3/25/2021 3:45:00 PM 11.3 52.34 0.236 7.76 8.72 12.11
3/25/2021 4:00:00 PM 11.31 52.358 0.236 7.78 7.3 12.09
3/25/2021 4:15:00 PM 11.27 52.286 0.238 7.81 7.15 12.06
3/25/2021 4:30:00 PM 11.39 52.502 0.236 7.82 9.39 11.98
3/25/2021 4:45:00 PM 11.33 52.394 0.238 7.83 8.11 11.95
3/25/2021 5:00:00 PM 11.43 52.574 0.237 7.83 6.56 11.93
3/25/2021 5:15:00 PM 11.44 52.592 0.237 7.85 11.06 11.88
3/25/2021 5:30:00 PM 11.48 52.664 0.237 7.85 7.27 11.82
3/25/2021 5:45:00 PM 11.48 52.664 0.237 7.85 6.69 11.72
3/25/2021 6:00:00 PM 11.5 52.7 0.237 7.85 7.67 11.67
3/25/2021 6:15:00 PM 11.45 52.61 0.238 7.85 6.69 11.56
3/25/2021 6:30:00 PM 11.44 52.592 0.238 7.83 6.66 11.41
3/25/2021 6:45:00 PM 11.33 52.394 0.239 7.8 5.59 11.27
3/25/2021 7:00:00 PM 11.28 52.304 0.239 7.78 6.36 11.17
3/25/2021 7:15:00 PM 11.25 52.25 0.239 7.75 5.87 11.08
3/25/2021 7:30:00 PM 11.16 52.088 0.239 7.72 5.82 10.98
3/25/2021 7:45:00 PM 11.15 52.07 0.239 7.7 6.4 10.91
3/25/2021 8:00:00 PM 11.14 52.052 0.239 7.67 6.56 10.83
3/25/2021 8:15:00 PM 11.13 52.034 0.24 7.64 6.69 10.75
3/25/2021 8:30:00 PM 11.12 52.016 0.24 7.61 7.49 10.66
3/25/2021 8:45:00 PM 11.08 51.944 0.241 7.58 7.61 10.62
3/25/2021 9:00:00 PM 11.16 52.088 0.24 7.56 7.28 10.54
3/25/2021 9:15:00 PM 11.05 51.89 0.241 7.54 7.05 10.52
3/25/2021 9:30:00 PM 11.11 51.998 0.241 7.52 7.42 10.5
3/25/2021 9:45:00 PM 11.02 51.836 0.241 7.5 7.64 10.51
3/25/2021 10:00:00 PM 11.08 51.944 0.24 7.49 8.52 10.49
3/25/2021 10:15:00 PM 11.02 51.836 0.24 7.47 12.36 10.49
3/25/2021 10:30:00 PM 11.08 51.944 0.24 7.46 8.21 10.45
3/25/2021 10:45:00 PM 11.03 51.854 0.241 7.46 7.24 10.43
3/25/2021 11:00:00 PM 11.02 51.836 0.241 7.44 7.85 10.43
3/25/2021 11:15:00 PM 11.03 51.854 0.241 7.43 7.04 10.42
3/25/2021 11:30:00 PM 11.06 51.908 0.241 7.43 7.25 10.42
3/25/2021 11:45:00 PM 11.03 51.854 0.241 7.41 8.14 10.42
3/26/2021 12:00:00 AM 10.91 51.638 0.242 7.41 7.39 10.44
3/26/2021 12:15:00 AM 11.07 51.926 0.24 7.4 7.26 10.4
3/26/2021 12:30:00 AM 11.14 52.052 0.24 7.4 6.71 10.36
3/26/2021 12:45:00 AM 11.07 51.926 0.24 7.4 8.08 10.39
3/26/2021 1:00:00 AM 11.06 51.908 0.241 7.4 6.8 10.37
3/26/2021 1:15:00 AM 11.03 51.854 0.241 7.39 7.79 10.36
3/26/2021 1:30:00 AM 10.97 51.746 0.242 7.37 7.92 10.34
3/26/2021 1:45:00 AM 10.99 51.782 0.242 7.39 7.42 10.34
3/26/2021 2:00:00 AM 11.13 52.034 0.241 7.37 6.81 10.29
3/26/2021 2:15:00 AM 11.03 51.854 0.242 7.36 8.81 10.3
3/26/2021 2:30:00 AM 10.99 51.782 0.242 7.35 7.91 10.28
3/26/2021 2:45:00 AM 10.98 51.764 0.241 7.34 7.28 10.3
3/26/2021 3:00:00 AM 10.99 51.782 0.241 7.34 6.79 10.3
3/26/2021 3:15:00 AM 10.95 51.71 0.241 7.33 7.42 10.29
3/26/2021 3:30:00 AM 10.95 51.71 0.242 7.35 7.61 10.23
3/26/2021 3:45:00 AM 10.88 51.584 0.242 7.33 6.31 10.22
3/26/2021 4:00:00 AM 11.02 51.836 0.241 7.32 7.64 10.18
3/26/2021 4:15:00 AM 10.93 51.674 0.242 7.33 6.59 10.19
3/26/2021 4:30:00 AM 10.94 51.692 0.242 7.3 9.14 10.17
3/26/2021 4:45:00 AM 10.9 51.62 0.242 7.31 7.29 10.19
3/26/2021 5:00:00 AM 10.95 51.71 0.241 7.31 8.16 10.16
3/26/2021 5:15:00 AM 10.81 51.458 0.241 7.28 9.37 10.15
3/26/2021 5:30:00 AM 10.79 51.422 0.241 7.28 7.93 10.14
3/26/2021 5:45:00 AM 10.8 51.44 0.241 7.27 6.78 10.1
3/26/2021 6:00:00 AM 10.82 51.476 0.241 7.26 7.07 10.1
3/26/2021 6:15:00 AM 10.79 51.422 0.242 7.25 6.63 10.1
3/26/2021 6:30:00 AM 10.75 51.35 0.242 7.25 6.79 10.11
3/26/2021 6:45:00 AM 10.76 51.368 0.242 7.24 7.35 10.1
3/26/2021 7:00:00 AM 10.78 51.404 0.242 7.25 6.92 10.12
3/26/2021 7:15:00 AM 10.79 51.422 0.242 7.25 9.31 10.13
3/26/2021 7:30:00 AM 10.8 51.44 0.242 7.25 6.71 10.15
3/26/2021 7:45:00 AM 10.93 51.674 0.241 7.24 9.77 10.18
3/26/2021 8:00:00 AM 10.89 51.602 0.241 7.25 6.21 10.27
3/26/2021 8:15:00 AM 10.98 51.764 0.241 7.26 6.59 10.29
3/26/2021 8:30:00 AM 11.01 51.818 0.242 7.26 5.4 10.36
3/26/2021 8:45:00 AM 11.1 51.98 0.241 7.28 7.9 10.51
3/26/2021 9:00:00 AM 11.14 52.052 0.241 7.29 5.93 10.63
3/26/2021 9:15:00 AM 11.13 52.034 0.242 7.31 6.23 10.8
3/26/2021 9:30:00 AM 11.33 52.394 0.241 7.33 6.08 10.91
3/26/2021 9:45:00 AM 11.45 52.61 0.241 7.35 6.41 11.01
3/26/2021 10:00:00 AM 11.57 52.826 0.241 7.37 6.18 11.1
3/26/2021 10:15:00 AM 11.76 53.168 0.24 7.39 5.82 11.16
3/26/2021 10:30:00 AM 11.83 53.294 0.241 7.41 5.52 11.23
3/26/2021 10:45:00 AM 12 53.6 0.242 7.43 6.84 11.26
3/26/2021 11:00:00 AM 12.17 53.906 0.242 7.45 5.41 11.34
3/26/2021 11:15:00 AM 12.18 53.924 0.243 7.48 7.44 11.41
3/26/2021 11:30:00 AM 12.36 54.248 0.242 7.51 5.26 11.44
3/26/2021 11:45:00 AM 12.5 54.5 0.242 7.53 5.37 11.53
3/26/2021 12:00:00 PM 12.7 54.86 0.242 7.56 5.74 11.57
3/26/2021 12:15:00 PM 12.81 55.058 0.242 7.59 5.58 11.62
3/26/2021 12:30:00 PM 12.87 55.166 0.242 7.61 5.8 11.63
3/26/2021 12:45:00 PM 12.95 55.31 0.242 7.66 7.01 11.67
3/26/2021 1:00:00 PM 12.99 55.382 0.243 7.67 9.37 11.68
3/26/2021 1:15:00 PM 13.05 55.49 0.243 7.7 9.05 11.67
3/26/2021 1:30:00 PM 13.15 55.67 0.243 7.72 6.07 11.69
3/26/2021 1:45:00 PM 13.19 55.742 0.243 7.75 6.18 11.72
3/26/2021 2:00:00 PM 13.26 55.868 0.243 7.78 8.01 11.73
3/26/2021 2:15:00 PM 13.24 55.832 0.243 7.83 6.09 11.76
3/26/2021 2:30:00 PM 13.18 55.724 0.243 7.83 5.28 11.77
3/26/2021 2:45:00 PM 13.4 56.12 0.242 7.85 6.49 11.79
3/26/2021 3:00:00 PM 13.13 55.634 0.243 7.88 5.15 11.82
3/26/2021 3:15:00 PM 13.23 55.814 0.242 7.89 5.31 11.83
3/26/2021 3:30:00 PM 13.22 55.796 0.243 7.94 5.88 11.79
3/26/2021 3:45:00 PM 13.29 55.922 0.243 7.96 6.54 11.77
3/26/2021 4:00:00 PM 13.15 55.67 0.243 7.98 4.58 11.72
3/26/2021 4:15:00 PM 13.12 55.616 0.243 8 5.68 11.69
3/26/2021 4:30:00 PM 13.03 55.454 0.243 8.01 5.91 11.65
3/26/2021 4:45:00 PM 13.01 55.418 0.243 8.01 5.92 11.58
3/26/2021 5:00:00 PM 13.08 55.544 0.241 8 5.03 11.44
3/26/2021 5:15:00 PM 12.77 54.986 0.242 8 4.96 11.48
3/26/2021 5:30:00 PM 12.69 54.842 0.242 7.98 6.14 11.4
3/26/2021 5:45:00 PM 12.68 54.824 0.242 7.97 5.2 11.34
3/26/2021 6:00:00 PM 12.77 54.986 0.242 7.97 5.67 11.24
3/26/2021 6:15:00 PM 12.4 54.32 0.243 7.94 5.6 11.16
3/26/2021 6:30:00 PM 12.35 54.23 0.243 7.92 5.63 11.04
3/26/2021 6:45:00 PM 12.41 54.338 0.242 7.91 5.32 10.98
3/26/2021 7:00:00 PM 12.35 54.23 0.242 7.89 5.26 10.95
3/26/2021 7:15:00 PM 12.35 54.23 0.242 7.87 5.31 10.89
3/26/2021 7:30:00 PM 12.36 54.248 0.241 7.85 5.14 10.77
3/26/2021 7:45:00 PM 12.11 53.798 0.242 7.82 5.33 10.74
3/26/2021 8:00:00 PM 12.09 53.762 0.242 7.81 5.14 10.64
3/26/2021 8:15:00 PM 11.97 53.546 0.242 7.78 5.6 10.6
3/26/2021 8:30:00 PM 12.07 53.726 0.242 7.75 5.36 10.48
3/26/2021 8:45:00 PM 12.1 53.78 0.243 7.72 6.84 10.4
3/26/2021 9:00:00 PM 12.08 53.744 0.243 7.69 6.1 10.36
3/26/2021 9:15:00 PM 12.03 53.654 0.243 7.68 7.34 10.31
3/26/2021 9:30:00 PM 11.97 53.546 0.243 7.65 6.03 10.29
3/26/2021 9:45:00 PM 11.93 53.474 0.243 7.63 6.11 10.26
3/26/2021 10:00:00 PM 11.92 53.456 0.243 7.62 6.28 10.25
3/26/2021 10:15:00 PM 11.92 53.456 0.242 7.6 9.73 10.21
3/26/2021 10:30:00 PM 11.87 53.366 0.242 7.59 13.7 10.19
3/26/2021 10:45:00 PM 11.93 53.474 0.243 7.56 5.94 10.13
3/26/2021 11:00:00 PM 12.1 53.78 0.242 7.54 6.81 10.1
3/26/2021 11:15:00 PM 11.8 53.24 0.244 7.53 7.24 10.12
3/26/2021 11:30:00 PM 11.86 53.348 0.243 7.52 6.85 10.09
3/26/2021 11:45:00 PM 11.78 53.204 0.243 7.5 10.43 10.09
3/27/2021 12:00:00 AM 11.61 52.898 0.243 7.49 5.96 10.14
3/27/2021 12:15:00 AM 11.73 53.114 0.242 7.47 11.86 10.12
3/27/2021 12:30:00 AM 11.63 52.934 0.242 7.45 7.82 10.13
3/27/2021 12:45:00 AM 11.56 52.808 0.242 7.45 7.12 10.12
3/27/2021 1:00:00 AM 11.47 52.646 0.242 7.44 6.39 10.14
3/27/2021 1:15:00 AM 11.4 52.52 0.243 7.42 7.42 10.12
3/27/2021 1:30:00 AM 11.45 52.61 0.243 7.41 6.91 10.12
3/27/2021 1:45:00 AM 11.28 52.304 0.244 7.41 7.02 10.14
3/27/2021 2:00:00 AM 11.38 52.484 0.243 7.4 7.44 10.13
3/27/2021 2:15:00 AM 11.31 52.358 0.243 7.39 7.69 10.15
3/27/2021 2:30:00 AM 11.19 52.142 0.243 7.38 7.27 10.15
3/27/2021 2:45:00 AM 11.18 52.124 0.242 7.36 6.76 10.11
3/27/2021 3:00:00 AM 11.1 51.98 0.242 7.35 6.53 10.14
3/27/2021 3:15:00 AM 10.92 51.656 0.242 7.33 6.59 10.19
3/27/2021 3:30:00 AM 10.87 51.566 0.243 7.33 9.53 10.17
3/27/2021 3:45:00 AM 10.92 51.656 0.243 7.32 8.58 10.16
3/27/2021 4:00:00 AM 10.75 51.35 0.243 7.31 6.1 10.15
3/27/2021 4:15:00 AM 10.68 51.224 0.244 7.3 6.35 10.16
3/27/2021 4:30:00 AM 10.71 51.278 0.243 7.3 6.66 10.14
3/27/2021 4:45:00 AM 10.72 51.296 0.243 7.29 6.5 10.15
3/27/2021 5:00:00 AM 10.57 51.026 0.243 7.27 7.23 10.17
3/27/2021 5:15:00 AM 10.55 50.99 0.242 7.27 6.42 10.16
3/27/2021 5:30:00 AM 10.44 50.792 0.242 7.26 7.33 10.19
3/27/2021 5:45:00 AM 10.46 50.828 0.242 7.26 6.54 10.19
3/27/2021 6:00:00 AM 10.28 50.504 0.243 7.25 7.35 10.21
3/27/2021 6:15:00 AM 10.24 50.432 0.243 7.24 7.95 10.23
3/27/2021 6:30:00 AM 10.25 50.45 0.243 7.24 7.23 10.24
3/27/2021 6:45:00 AM 10.21 50.378 0.243 7.23 9.19 10.25
3/27/2021 7:00:00 AM 10.15 50.27 0.243 7.23 6.9 10.27
3/27/2021 7:15:00 AM 10.15 50.27 0.242 7.22 6.66 10.33
3/27/2021 7:30:00 AM 10.06 50.108 0.242 7.23 5.88 10.38
3/27/2021 7:45:00 AM 10 50 0.242 7.23 6.14 10.48
3/27/2021 8:00:00 AM 9.96 49.928 0.242 7.22 6.11 10.58
3/27/2021 8:15:00 AM 10.01 50.018 0.242 7.24 5.35 10.7
3/27/2021 8:30:00 AM 10.03 50.054 0.242 7.23 5.51 10.81
3/27/2021 8:45:00 AM 10.04 50.072 0.242 7.26 5.43 10.95
3/27/2021 9:00:00 AM 10.12 50.216 0.242 7.27 5.53 11.08
3/27/2021 9:15:00 AM 10.17 50.306 0.242 7.28 5.57 11.21
3/27/2021 9:30:00 AM 10.29 50.522 0.241 7.3 5.51 11.35
3/27/2021 9:45:00 AM 10.35 50.63 0.241 7.32 5.27 11.47
3/27/2021 10:00:00 AM 10.45 50.81 0.242 7.34 5.04 11.57
3/27/2021 10:15:00 AM 10.73 51.314 0.24 7.37 5.83 11.62
3/27/2021 10:30:00 AM 10.79 51.422 0.241 7.39 5.03 11.69
3/27/2021 10:45:00 AM 10.87 51.566 0.241 7.42 4.86 11.77
3/27/2021 11:00:00 AM 11.06 51.908 0.242 7.44 6.13 11.79
3/27/2021 11:15:00 AM 11.18 52.124 0.242 7.46 5.03 11.83
3/27/2021 11:30:00 AM 11.35 52.43 0.242 7.49 4.72 11.87
3/27/2021 11:45:00 AM 11.51 52.718 0.241 7.53 5.09 11.89
3/27/2021 12:00:00 PM 11.65 52.97 0.241 7.55 4.91 11.95
3/27/2021 12:15:00 PM 11.79 53.222 0.241 7.57 4.66 11.98
3/27/2021 12:30:00 PM 11.96 53.528 0.242 7.6 5.32 12.02
3/27/2021 12:45:00 PM 12.13 53.834 0.241 7.61 5.44 12.02
3/27/2021 1:00:00 PM 12.19 53.942 0.242 7.66 5.03 12.09
3/27/2021 1:15:00 PM 12.38 54.284 0.242 7.68 4.89 12.1
3/27/2021 1:30:00 PM 12.44 54.392 0.242 7.7 5.04 12.13
3/27/2021 1:45:00 PM 12.47 54.446 0.243 7.75 5.81 12.16
3/27/2021 2:00:00 PM 12.56 54.608 0.242 7.78 4.92 12.19
3/27/2021 2:15:00 PM 12.49 54.482 0.242 7.81 5.93 12.24
3/27/2021 2:30:00 PM 12.54 54.572 0.242 7.84 5.64 12.23
3/27/2021 2:45:00 PM 12.59 54.662 0.242 7.88 5.48 12.22
3/27/2021 3:00:00 PM 12.48 54.464 0.242 7.9 5.02 12.25
3/27/2021 3:15:00 PM 12.53 54.554 0.242 7.93 5.22 12.21
3/27/2021 3:30:00 PM 12.44 54.392 0.242 7.96 4.74 12.22
3/27/2021 3:45:00 PM 12.46 54.428 0.243 7.99 5.13 12.17
3/27/2021 4:00:00 PM 12.45 54.41 0.243 8.01 6.15 12.14
3/27/2021 4:15:00 PM 12.34 54.212 0.243 8.04 5.83 12.1
3/27/2021 4:30:00 PM 12.22 53.996 0.244 8.05 5.18 12.06
3/27/2021 4:45:00 PM 12.29 54.122 0.243 8.06 5.48 11.99
3/27/2021 5:00:00 PM 12.17 53.906 0.244 8.05 7.32 11.93
3/27/2021 5:15:00 PM 12.15 53.87 0.243 8.05 6.08 11.87
3/27/2021 5:30:00 PM 12.08 53.744 0.243 8.06 4.68 11.81
3/27/2021 5:45:00 PM 11.93 53.474 0.243 8.04 5.06 11.74
3/27/2021 6:00:00 PM 11.89 53.402 0.243 8.03 4.66 11.64
3/27/2021 6:15:00 PM 11.92 53.456 0.243 8.01 5.04 11.5
3/27/2021 6:30:00 PM 11.76 53.168 0.244 7.99 5.72 11.43
3/27/2021 6:45:00 PM 11.81 53.258 0.243 7.95 4.77 11.31
3/27/2021 7:00:00 PM 11.82 53.276 0.243 7.92 4.81 11.15
3/27/2021 7:15:00 PM 11.83 53.294 0.243 7.89 5.56 11.01
3/27/2021 7:30:00 PM 11.63 52.934 0.244 7.84 5.16 10.9
3/27/2021 7:45:00 PM 11.7 53.06 0.243 7.8 5.68 10.76
3/27/2021 8:00:00 PM 11.61 52.898 0.243 7.76 5.41 10.67
3/27/2021 8:15:00 PM 11.49 52.682 0.243 7.72 5.29 10.6
3/27/2021 8:30:00 PM 11.4 52.52 0.244 7.67 9 10.5
3/27/2021 8:45:00 PM 11.44 52.592 0.244 7.66 5.95 10.44
3/27/2021 9:00:00 PM 11.46 52.628 0.244 7.63 6.31 10.41
3/27/2021 9:15:00 PM 11.43 52.574 0.244 7.61 6.41 10.37
3/27/2021 9:30:00 PM 11.35 52.43 0.244 7.58 5.35 10.38
3/27/2021 9:45:00 PM 11.37 52.466 0.244 7.56 6.5 10.36
3/27/2021 10:00:00 PM 11.37 52.466 0.243 7.53 5.93 10.36
3/27/2021 10:15:00 PM 11.33 52.394 0.243 7.52 5.78 10.31
3/27/2021 10:30:00 PM 11.22 52.196 0.243 7.5 7.2 10.35
3/27/2021 10:45:00 PM 11.32 52.376 0.243 7.49 5.95 10.32
3/27/2021 11:00:00 PM 11.34 52.412 0.243 7.48 6.23 10.3
3/27/2021 11:15:00 PM 11.36 52.448 0.243 7.47 9.47 10.29
3/27/2021 11:30:00 PM 11.21 52.178 0.244 7.46 5.69 10.3
3/27/2021 11:45:00 PM 11.33 52.394 0.243 7.44 6.17 10.28
3/28/2021 12:00:00 AM 11.2 52.16 0.243 7.43 6.33 10.3
3/28/2021 12:15:00 AM 11.19 52.142 0.243 7.43 6.69 10.3
3/28/2021 12:30:00 AM 11.14 52.052 0.243 7.42 6.05 10.3
3/28/2021 12:45:00 AM 11.18 52.124 0.242 7.41 6.55 10.29
3/28/2021 1:00:00 AM 11.07 51.926 0.242 7.4 7.61 10.26
3/28/2021 1:15:00 AM 11.04 51.872 0.243 7.39 5.5 10.27
3/28/2021 1:30:00 AM 11.02 51.836 0.243 7.39 6.8 10.27
3/28/2021 1:45:00 AM 10.95 51.71 0.243 7.37 6.14 10.24
3/28/2021 2:00:00 AM 10.87 51.566 0.244 7.35 6.69 10.26
3/28/2021 2:15:00 AM 10.85 51.53 0.243 7.34 6.5 10.24
3/28/2021 2:30:00 AM 10.88 51.584 0.243 7.34 6.62 10.23
3/28/2021 2:45:00 AM 10.84 51.512 0.242 7.33 7.15 10.23
3/28/2021 3:00:00 AM 10.75 51.35 0.242 7.32 5.72 10.24
3/28/2021 3:15:00 AM 10.73 51.314 0.242 7.3 6.96 10.22
3/28/2021 3:30:00 AM 10.67 51.206 0.243 7.31 6.76 10.22
3/28/2021 3:45:00 AM 10.61 51.098 0.243 7.3 10.62 10.18
3/28/2021 4:00:00 AM 10.57 51.026 0.244 7.29 6.84 10.17
3/28/2021 4:15:00 AM 10.69 51.242 0.243 7.29 8.1 10.15
3/28/2021 4:30:00 AM 10.67 51.206 0.243 7.27 8.42 10.14
3/28/2021 4:45:00 AM 10.59 51.062 0.243 7.27 10 10.13
3/28/2021 5:00:00 AM 10.62 51.116 0.243 7.25 7.26 10.11
3/28/2021 5:15:00 AM 10.52 50.936 0.243 7.24 6.25 10.14
3/28/2021 5:30:00 AM 10.55 50.99 0.242 7.23 6.52 10.12
3/28/2021 5:45:00 AM 10.55 50.99 0.242 7.22 6.65 10.14
3/28/2021 6:00:00 AM 10.54 50.972 0.243 7.23 7.57 10.14
3/28/2021 6:15:00 AM 10.56 51.008 0.243 7.22 8.6 10.12
3/28/2021 6:30:00 AM 10.55 50.99 0.243 7.22 7.56 10.1
3/28/2021 6:45:00 AM 10.51 50.918 0.243 7.21 7.4 10.12
3/28/2021 7:00:00 AM 10.56 51.008 0.242 7.22 8.57 10.14
3/28/2021 7:15:00 AM 10.65 51.17 0.241 7.22 6.71 10.14
3/28/2021 7:30:00 AM 10.57 51.026 0.241 7.22 7.81 10.17
3/28/2021 7:45:00 AM 10.59 51.062 0.24 7.23 6.59 10.22
3/28/2021 8:00:00 AM 10.58 51.044 0.24 7.23 7.83 10.23
3/28/2021 8:15:00 AM 10.54 50.972 0.24 7.23 7.79 10.28
3/28/2021 8:30:00 AM 10.56 51.008 0.24 7.24 6.34 10.29
3/28/2021 8:45:00 AM 10.57 51.026 0.24 7.23 6.36 10.31
3/28/2021 9:00:00 AM 10.55 50.99 0.239 7.23 6.5 10.29
3/28/2021 9:15:00 AM 10.53 50.954 0.239 7.24 9.56 10.27
3/28/2021 9:30:00 AM 10.57 51.026 0.239 7.24 5.62 10.26
3/28/2021 9:45:00 AM 10.56 51.008 0.239 7.22 6.27 10.25
3/28/2021 10:00:00 AM 10.51 50.918 0.24 7.22 5.31 10.21
3/28/2021 10:15:00 AM 10.48 50.864 0.24 7.22 6.16 10.24
3/28/2021 10:30:00 AM 10.55 50.99 0.239 7.21 6.46 10.23
3/28/2021 10:45:00 AM 10.54 50.972 0.24 7.21 6.2 10.3
3/28/2021 11:00:00 AM 10.61 51.098 0.24 7.21 6.31 10.35
3/28/2021 11:15:00 AM 10.58 51.044 0.24 7.22 6.34 10.48
3/28/2021 11:30:00 AM 10.6 51.08 0.24 7.24 6.44 10.57
3/28/2021 11:45:00 AM 10.66 51.188 0.24 7.26 5.75 10.64
3/28/2021 12:00:00 PM 10.69 51.242 0.24 7.25 5.76 10.73
3/28/2021 12:15:00 PM 10.82 51.476 0.239 7.27 6.87 10.75
3/28/2021 12:30:00 PM 10.72 51.296 0.24 7.29 6.07 10.83
3/28/2021 12:45:00 PM 10.76 51.368 0.24 7.3 6.43 10.85
3/28/2021 1:00:00 PM 10.8 51.44 0.241 7.3 6.08 10.88
3/28/2021 1:15:00 PM 10.86 51.548 0.241 7.33 7.93 10.94
3/28/2021 1:30:00 PM 10.9 51.62 0.241 7.33 6.53 11.02
3/28/2021 1:45:00 PM 11.01 51.818 0.24 7.36 5.79 11.14
3/28/2021 2:00:00 PM 11.07 51.926 0.24 7.38 5.39 11.23
3/28/2021 2:15:00 PM 11.11 51.998 0.24 7.4 5.22 11.25
3/28/2021 2:30:00 PM 11.18 52.124 0.24 7.43 5.68 11.31
3/28/2021 2:45:00 PM 11.26 52.268 0.24 7.45 6.33 11.37
3/28/2021 3:00:00 PM 11.34 52.412 0.24 7.46 6.53 11.41
3/28/2021 3:15:00 PM 11.41 52.538 0.241 7.49 6.34 11.41
3/28/2021 3:30:00 PM 11.44 52.592 0.241 7.51 8.36 11.34
3/28/2021 3:45:00 PM 11.47 52.646 0.241 7.52 5.48 11.37
3/28/2021 4:00:00 PM 11.47 52.646 0.242 7.54 5.99 11.4
3/28/2021 4:15:00 PM 11.58 52.844 0.241 7.56 6.48 11.45
3/28/2021 4:30:00 PM 11.64 52.952 0.241 7.57 8.51 11.42
3/28/2021 4:45:00 PM 11.65 52.97 0.241 7.59 6.64 11.37
3/28/2021 5:00:00 PM 11.62 52.916 0.241 7.59 9.7 11.26
3/28/2021 5:15:00 PM 11.66 52.988 0.24 7.59 5.79 11.14
3/28/2021 5:30:00 PM 11.53 52.754 0.24 7.58 6.74 10.99
3/28/2021 5:45:00 PM 11.5 52.7 0.239 7.56 6.9 10.82
3/28/2021 6:00:00 PM 11.56 52.808 0.238 7.54 7.89 10.72
3/28/2021 6:15:00 PM 11.48 52.664 0.239 7.52 7.88 10.67
3/28/2021 6:30:00 PM 11.47 52.646 0.239 7.52 7.8 10.66
3/28/2021 6:45:00 PM 11.49 52.682 0.239 7.51 8.09 10.61
3/28/2021 7:00:00 PM 11.38 52.484 0.239 7.5 9.48 10.59
3/28/2021 7:15:00 PM 11.27 52.286 0.24 7.5 7.74 10.61
3/28/2021 7:30:00 PM 11.3 52.34 0.24 7.47 9.3 10.54
3/28/2021 7:45:00 PM 11.25 52.25 0.242 7.45 10.7 10.46
3/28/2021 8:00:00 PM 11.3 52.34 0.242 7.45 8.5 10.41
3/28/2021 8:15:00 PM 11.18 52.124 0.244 7.44 9.14 10.38
3/28/2021 8:30:00 PM 11.11 51.998 0.244 7.42 9.06 10.34
3/28/2021 8:45:00 PM 11.05 51.89 0.243 7.4 9.9 10.34
3/28/2021 9:00:00 PM 11.02 51.836 0.241 7.41 9.35 10.32
3/28/2021 9:15:00 PM 10.91 51.638 0.241 7.39 9.53 10.32
3/28/2021 9:30:00 PM 10.9 51.62 0.24 7.39 8.65 10.33
3/28/2021 9:45:00 PM 10.88 51.584 0.239 7.38 8.22 10.35
3/28/2021 10:00:00 PM 10.78 51.404 0.24 7.37 9.83 10.35
3/28/2021 10:15:00 PM 10.67 51.206 0.24 7.37 10.96 10.4
3/28/2021 10:30:00 PM 10.66 51.188 0.238 7.36 13.9 10.36
3/28/2021 10:45:00 PM 10.45 50.81 0.24 7.33 8.53 10.37
3/28/2021 11:00:00 PM 10.35 50.63 0.24 7.33 9.15 10.35
3/28/2021 11:15:00 PM 10.31 50.558 0.239 7.33 18.4 10.32
3/28/2021 11:30:00 PM 10.25 50.45 0.239 7.33 8.34 10.35
3/28/2021 11:45:00 PM 10.15 50.27 0.239 7.3 8.3 10.38
3/29/2021 12:00:00 AM 10.03 50.054 0.24 7.3 8.75 10.37
3/29/2021 12:15:00 AM 10.15 50.27 0.238 7.3 9.66 10.39
3/29/2021 12:30:00 AM 10.25 50.45 0.237 7.31 10 10.35
3/29/2021 12:45:00 AM 10.24 50.432 0.238 7.28 9.32 10.36
3/29/2021 1:00:00 AM 10.2 50.36 0.239 7.31 9.49 10.38
3/29/2021 1:15:00 AM 10.1 50.18 0.239 7.3 14.82 10.42
3/29/2021 1:30:00 AM 10 50 0.24 7.29 9.31 10.41
3/29/2021 1:45:00 AM 10.01 50.018 0.239 7.29 12.21 10.4
3/29/2021 2:00:00 AM 9.99 49.982 0.239 7.28 10.77 10.41
3/29/2021 2:15:00 AM 10.08 50.144 0.237 7.28 26.74 10.41
3/29/2021 2:30:00 AM 9.9 49.82 0.239 7.28 10.28 10.42
3/29/2021 2:45:00 AM 9.86 49.748 0.238 7.27 10.3 10.43
3/29/2021 3:00:00 AM 9.85 49.73 0.237 7.26 13.02 10.44
3/29/2021 3:15:00 AM 9.85 49.73 0.237 7.25 9.79 10.45
3/29/2021 3:30:00 AM 9.78 49.604 0.237 7.24 11.38 10.43
3/29/2021 3:45:00 AM 9.71 49.478 0.237 7.26 12.52 10.44
3/29/2021 4:00:00 AM 9.66 49.388 0.238 7.25 9.52 10.45
3/29/2021 4:15:00 AM 9.69 49.442 0.237 7.24 12.48 10.44
3/29/2021 4:30:00 AM 9.65 49.37 0.238 7.23 13.37 10.45
3/29/2021 4:45:00 AM 9.61 49.298 0.237 7.24 9.69 10.48
3/29/2021 5:00:00 AM 9.57 49.226 0.238 7.22 11.3 10.51
3/29/2021 5:15:00 AM 9.46 49.028 0.239 7.23 8.91 10.52
3/29/2021 5:30:00 AM 9.45 49.01 0.238 7.22 11.52 10.53
3/29/2021 5:45:00 AM 9.42 48.956 0.239 7.21 10.33 10.54
3/29/2021 6:00:00 AM 9.38 48.884 0.239 7.22 10.04 10.56
3/29/2021 6:15:00 AM 9.36 48.848 0.239 7.21 11.4 10.58
3/29/2021 6:30:00 AM 9.35 48.83 0.239 7.21 9.72 10.6
3/29/2021 6:45:00 AM 9.27 48.686 0.239 7.19 13.69 10.62
3/29/2021 7:00:00 AM 9.25 48.65 0.239 7.2 9.36 10.62
3/29/2021 7:15:00 AM 9.22 48.596 0.238 7.2 16.3 10.64
3/29/2021 7:30:00 AM 9.17 48.506 0.239 7.2 9.51 10.68
3/29/2021 7:45:00 AM 9.14 48.452 0.239 7.21 10.04 10.7
3/29/2021 8:00:00 AM 9.13 48.434 0.238 7.19 9.67 10.77
3/29/2021 8:15:00 AM 9.09 48.362 0.239 7.2 8.72 10.83
3/29/2021 8:30:00 AM 9.08 48.344 0.239 7.21 9.03 10.98
3/29/2021 8:45:00 AM 9.04 48.272 0.24 7.22 9.9 11.13
3/29/2021 9:00:00 AM 9.15 48.47 0.238 7.23 8.51 11.22
3/29/2021 9:15:00 AM 9.16 48.488 0.239 7.23 7.94 11.33
3/29/2021 9:30:00 AM 9.25 48.65 0.239 7.25 9.27 11.43
3/29/2021 9:45:00 AM 9.25 48.65 0.24 7.26 9.35 11.5
3/29/2021 10:00:00 AM 9.27 48.686 0.239 7.28 8.23 11.53
3/29/2021 10:15:00 AM 9.26 48.668 0.239 7.28 8.61 11.59
3/29/2021 10:30:00 AM 9.34 48.812 0.239 7.29 17.13 11.68
3/29/2021 10:45:00 AM 9.36 48.848 0.24 7.32 7.68 11.75
3/29/2021 11:00:00 AM 9.4 48.92 0.241 7.33 7.77 11.83
3/29/2021 11:15:00 AM 9.48 49.064 0.241 7.35 16.5 11.89
3/29/2021 11:30:00 AM 9.64 49.352 0.24 7.37 11.07 11.94
3/29/2021 11:45:00 AM 9.76 49.568 0.241 7.39 8.19 11.96
3/29/2021 12:00:00 PM 9.89 49.802 0.241 7.41 7.17 12.02
3/29/2021 12:15:00 PM 10.04 50.072 0.241 7.44 8.86 12.06
3/29/2021 12:30:00 PM 10.17 50.306 0.241 7.44 6.23 12.09
3/29/2021 12:45:00 PM 10.28 50.504 0.241 7.47 6.92 12.15
3/29/2021 1:00:00 PM 10.42 50.756 0.241 7.48 6.67 12.19
3/29/2021 1:15:00 PM 10.53 50.954 0.242 7.52 6.54 12.24
3/29/2021 1:30:00 PM 10.64 51.152 0.242 7.53 6.94 12.26
3/29/2021 1:45:00 PM 10.74 51.332 0.243 7.58 6.16 12.25
3/29/2021 2:00:00 PM 10.85 51.53 0.243 7.6 6.44 12.27
3/29/2021 2:15:00 PM 10.9 51.62 0.243 7.62 6.31 12.3
3/29/2021 2:30:00 PM 10.93 51.674 0.242 7.64 6.14 12.32
3/29/2021 2:45:00 PM 11.09 51.962 0.241 7.67 6.21 12.32
3/29/2021 3:00:00 PM 11.07 51.926 0.241 7.68 6.18 12.31
3/29/2021 3:15:00 PM 11.15 52.07 0.24 7.71 6.58 12.28
3/29/2021 3:30:00 PM 11.17 52.106 0.24 7.72 6.34 12.25
3/29/2021 3:45:00 PM 11.13 52.034 0.241 7.74 7.43 12.25
3/29/2021 4:00:00 PM 11.14 52.052 0.24 7.76 6.65 12.23
3/29/2021 4:15:00 PM 11.05 51.89 0.241 7.76 6.2 12.2
3/29/2021 4:30:00 PM 11.1 51.98 0.24 7.78 5.57 12.18
3/29/2021 4:45:00 PM 11 51.8 0.24 7.8 6.69 12.15
3/29/2021 5:00:00 PM 10.99 51.782 0.239 7.8 6.41 12.08
3/29/2021 5:15:00 PM 10.86 51.548 0.239 7.8 6.54 12.06
3/29/2021 5:30:00 PM 10.81 51.458 0.239 7.79 6.77 11.99
3/29/2021 5:45:00 PM 10.74 51.332 0.239 7.78 5.76 11.91
3/29/2021 6:00:00 PM 10.71 51.278 0.239 7.78 5.84 11.82
3/29/2021 6:15:00 PM 10.55 50.99 0.24 7.78 6.28 11.77
3/29/2021 6:30:00 PM 10.6 51.08 0.239 7.76 6.27 11.63
3/29/2021 6:45:00 PM 10.53 50.954 0.24 7.75 6.4 11.59
3/29/2021 7:00:00 PM 10.48 50.864 0.24 7.73 5.89 11.52
3/29/2021 7:15:00 PM 10.43 50.774 0.239 7.71 6.79 11.42
3/29/2021 7:30:00 PM 10.28 50.504 0.24 7.68 6.87 11.33
3/29/2021 7:45:00 PM 10.23 50.414 0.24 7.66 5.79 11.27
3/29/2021 8:00:00 PM 10.24 50.432 0.239 7.62 7.87 11.18
3/29/2021 8:15:00 PM 10.19 50.342 0.24 7.61 6.02 11.09
3/29/2021 8:30:00 PM 10.17 50.306 0.24 7.58 7.33 11.01
3/29/2021 8:45:00 PM 10.11 50.198 0.241 7.55 9.49 10.92
3/29/2021 9:00:00 PM 10.1 50.18 0.241 7.51 6.71 10.88
3/29/2021 9:15:00 PM 9.96 49.928 0.242 7.5 6.61 10.84
3/29/2021 9:30:00 PM 10.06 50.108 0.241 7.48 7.56 10.79
3/29/2021 9:45:00 PM 10.03 50.054 0.241 7.46 6.68 10.75
3/29/2021 10:00:00 PM 9.87 49.766 0.242 7.44 6.92 10.73
3/29/2021 10:15:00 PM 9.88 49.784 0.241 7.41 8.21 10.7
3/29/2021 10:30:00 PM 9.86 49.748 0.241 7.4 7.33 10.64
3/29/2021 10:45:00 PM 9.81 49.658 0.242 7.4 6.92 10.63
3/29/2021 11:00:00 PM 9.76 49.568 0.242 7.37 7.86 10.62
3/29/2021 11:15:00 PM 9.72 49.496 0.242 7.36 6.99 10.63
3/29/2021 11:30:00 PM 9.68 49.424 0.242 7.34 7.25 10.6
3/29/2021 11:45:00 PM 9.64 49.352 0.242 7.33 8.82 10.6
3/30/2021 12:00:00 AM 9.56 49.208 0.243 7.33 10.35 10.59
3/30/2021 12:15:00 AM 9.55 49.19 0.242 7.32 7.91 10.58
3/30/2021 12:30:00 AM 9.44 48.992 0.242 7.29 7.06 10.59
3/30/2021 12:45:00 AM 9.46 49.028 0.241 7.3 8.64 10.6
3/30/2021 1:00:00 AM 9.37 48.866 0.242 7.27 8.7 10.61
3/30/2021 1:15:00 AM 9.31 48.758 0.242 7.27 6.86 10.62
3/30/2021 1:30:00 AM 9.26 48.668 0.242 7.26 7.01 10.61
3/30/2021 1:45:00 AM 9.23 48.614 0.242 7.25 10.59 10.6
3/30/2021 2:00:00 AM 9.16 48.488 0.243 7.24 7.5 10.6
3/30/2021 2:15:00 AM 9.11 48.398 0.243 7.23 7.55 10.58
3/30/2021 2:30:00 AM 9.07 48.326 0.243 7.23 7.78 10.6
3/30/2021 2:45:00 AM 8.97 48.146 0.243 7.22 8.07 10.65
3/30/2021 3:00:00 AM 8.99 48.182 0.242 7.21 7.56 10.65
3/30/2021 3:15:00 AM 8.9 48.02 0.242 7.21 8.66 10.68
3/30/2021 3:30:00 AM 8.88 47.984 0.242 7.19 8.19 10.68
3/30/2021 3:45:00 AM 8.82 47.876 0.243 7.19 9.57 10.68
3/30/2021 4:00:00 AM 8.78 47.804 0.243 7.18 8.83 10.68
3/30/2021 4:15:00 AM 8.7 47.66 0.243 7.18 9.58 10.69
3/30/2021 4:30:00 AM 8.66 47.588 0.243 7.17 8.17 10.7
3/30/2021 4:45:00 AM 8.66 47.588 0.243 7.16 7.98 10.7
3/30/2021 5:00:00 AM 8.59 47.462 0.243 7.17 8.33 10.71
3/30/2021 5:15:00 AM 8.53 47.354 0.243 7.16 7.85 10.73
3/30/2021 5:30:00 AM 8.48 47.264 0.243 7.15 8.62 10.76
3/30/2021 5:45:00 AM 8.46 47.228 0.243 7.14 8.25 10.78
3/30/2021 6:00:00 AM 8.45 47.21 0.243 7.15 9.41 10.8
3/30/2021 6:15:00 AM 8.39 47.102 0.244 7.15 9.13 10.83
3/30/2021 6:30:00 AM 8.38 47.084 0.243 7.14 8.18 10.86
3/30/2021 6:45:00 AM 8.36 47.048 0.243 7.13 7.66 10.87
3/30/2021 7:00:00 AM 8.34 47.012 0.243 7.14 6.64 10.9
3/30/2021 7:15:00 AM 8.3 46.94 0.243 7.13 11.37 10.93
3/30/2021 7:30:00 AM 8.31 46.958 0.242 7.14 7.33 10.99
3/30/2021 7:45:00 AM 8.28 46.904 0.242 7.13 8.32 11.06
3/30/2021 8:00:00 AM 8.26 46.868 0.242 7.14 7.36 11.14
3/30/2021 8:15:00 AM 8.26 46.868 0.242 7.14 6.78 11.23
3/30/2021 8:30:00 AM 8.27 46.886 0.243 7.14 7.5 11.33
3/30/2021 8:45:00 AM 8.32 46.976 0.242 7.16 6.18 11.41
3/30/2021 9:00:00 AM 8.39 47.102 0.242 7.16 7.04 11.51
3/30/2021 9:15:00 AM 8.48 47.264 0.242 7.17 6.77 11.58
3/30/2021 9:30:00 AM 8.58 47.444 0.241 7.19 6.55 11.64
3/30/2021 9:45:00 AM 8.68 47.624 0.242 7.2 5.87 11.72
3/30/2021 10:00:00 AM 8.84 47.912 0.24 7.21 6.75 11.79
3/30/2021 10:15:00 AM 8.97 48.146 0.241 7.22 6.04 11.87
3/30/2021 10:30:00 AM 9.12 48.416 0.241 7.25 9.49 11.93
3/30/2021 10:45:00 AM 9.28 48.704 0.241 7.27 5.61 11.99
3/30/2021 11:00:00 AM 9.46 49.028 0.241 7.28 8.6 12.06
3/30/2021 11:15:00 AM 9.62 49.316 0.242 7.3 6.89 12.08
3/30/2021 11:30:00 AM 9.78 49.604 0.242 7.32 7.31 12.13
3/30/2021 11:45:00 AM 9.96 49.928 0.241 7.34 6.69 12.17
3/30/2021 12:00:00 PM 10.12 50.216 0.241 7.35 6.4 12.21
3/30/2021 12:15:00 PM 10.28 50.504 0.241 7.38 6.69 12.21
3/30/2021 12:30:00 PM 10.42 50.756 0.241 7.4 6.13 12.21
3/30/2021 12:45:00 PM 10.56 51.008 0.241 7.41 5.84 12.2
3/30/2021 1:00:00 PM 10.71 51.278 0.242 7.43 6.1 12.23
3/30/2021 1:15:00 PM 10.86 51.548 0.242 7.46 6.27 12.22
3/30/2021 1:30:00 PM 11.05 51.89 0.242 7.47 5.87 12.25
3/30/2021 1:45:00 PM 11.2 52.16 0.242 7.49 5.77 12.26
3/30/2021 2:00:00 PM 11.32 52.376 0.243 7.51 6.53 12.27
3/30/2021 2:15:00 PM 11.39 52.502 0.243 7.54 5.68 12.28
3/30/2021 2:30:00 PM 11.49 52.682 0.242 7.56 8.46 12.28
3/30/2021 2:45:00 PM 11.56 52.808 0.242 7.59 5.28 12.26
3/30/2021 3:00:00 PM 11.65 52.97 0.242 7.61 5.68 12.26
3/30/2021 3:15:00 PM 11.7 53.06 0.242 7.62 11.84 12.25
3/30/2021 3:30:00 PM 11.71 53.078 0.242 7.63 5.72 12.22
3/30/2021 3:45:00 PM 11.67 53.006 0.243 7.64 6.01 12.17
3/30/2021 4:00:00 PM 11.67 53.006 0.243 7.66 7.03 12.07
3/30/2021 4:15:00 PM 11.69 53.042 0.243 7.66 5.88 12.03
3/30/2021 4:30:00 PM 11.68 53.024 0.243 7.66 5.48 11.98
3/30/2021 4:45:00 PM 11.61 52.898 0.244 7.67 5.45 11.93
3/30/2021 5:00:00 PM 11.57 52.826 0.243 7.67 5.81 11.89
3/30/2021 5:15:00 PM 11.49 52.682 0.243 7.67 5.69 11.85
3/30/2021 5:30:00 PM 11.41 52.538 0.243 7.67 5.67 11.82
3/30/2021 5:45:00 PM 11.39 52.502 0.242 7.67 8.64 11.79
3/30/2021 6:00:00 PM 11.38 52.484 0.243 7.67 5.85 11.72
3/30/2021 6:15:00 PM 11.34 52.412 0.243 7.66 5.23 11.6
3/30/2021 6:30:00 PM 11.18 52.124 0.244 7.64 6.2 11.5
3/30/2021 6:45:00 PM 11.23 52.214 0.243 7.64 5.96 11.39
3/30/2021 7:00:00 PM 11.1 51.98 0.243 7.64 6.04 11.33
3/30/2021 7:15:00 PM 11.03 51.854 0.243 7.61 6.15 11.26
3/30/2021 7:30:00 PM 10.98 51.764 0.243 7.59 5.74 11.16
3/30/2021 7:45:00 PM 10.95 51.71 0.243 7.58 6.19 11.05
3/30/2021 8:00:00 PM 10.88 51.584 0.243 7.56 5.97 10.97
3/30/2021 8:15:00 PM 10.84 51.512 0.243 7.53 6.63 10.91
3/30/2021 8:30:00 PM 10.9 51.62 0.243 7.51 6.26 10.83
3/30/2021 8:45:00 PM 10.83 51.494 0.243 7.5 6.19 10.78
3/30/2021 9:00:00 PM 10.82 51.476 0.244 7.48 6.58 10.73
3/30/2021 9:15:00 PM 10.79 51.422 0.244 7.46 6.43 10.68
3/30/2021 9:30:00 PM 10.68 51.224 0.244 7.45 7.8 10.61
3/30/2021 9:45:00 PM 10.61 51.098 0.244 7.42 7.37 10.58
3/30/2021 10:00:00 PM 10.64 51.152 0.243 7.39 7.48 10.47
3/30/2021 10:15:00 PM 10.5 50.9 0.243 7.37 6.44 10.42
3/30/2021 10:30:00 PM 10.47 50.846 0.243 7.36 7.58 10.37
3/30/2021 10:45:00 PM 10.55 50.99 0.243 7.34 8.05 10.33
3/30/2021 11:00:00 PM 10.48 50.864 0.244 7.33 11.8 10.31
3/30/2021 11:15:00 PM 10.46 50.828 0.244 7.31 7.12 10.29
3/30/2021 11:30:00 PM 10.48 50.864 0.244 7.31 7.94 10.26
3/30/2021 11:45:00 PM 10.48 50.864 0.243 7.28 8.8 10.24
3/31/2021 12:00:00 AM 10.4 50.72 0.244 7.28 6.73 10.23
3/31/2021 12:15:00 AM 10.38 50.684 0.243 7.26 8.68 10.24
3/31/2021 12:30:00 AM 10.42 50.756 0.243 7.25 8.64 10.21
3/31/2021 12:45:00 AM 10.4 50.72 0.242 7.24 9.12 10.23
3/31/2021 1:00:00 AM 10.37 50.666 0.242 7.23 7.35 10.22
3/31/2021 1:15:00 AM 10.33 50.594 0.243 7.22 8.1 10.27
3/31/2021 1:30:00 AM 10.35 50.63 0.243 7.21 9.23 10.27
3/31/2021 1:45:00 AM 10.29 50.522 0.244 7.21 6.96 10.28
3/31/2021 2:00:00 AM 10.24 50.432 0.244 7.21 7.13 10.31
3/31/2021 2:15:00 AM 10.23 50.414 0.244 7.21 7.3 10.31
3/31/2021 2:30:00 AM 10.21 50.378 0.244 7.2 8.53 10.32
3/31/2021 2:45:00 AM 10.2 50.36 0.243 7.2 7.55 10.33
3/31/2021 3:00:00 AM 10.14 50.252 0.243 7.19 7.35 10.33
3/31/2021 3:15:00 AM 10.05 50.09 0.243 7.18 7.83 10.31
3/31/2021 3:30:00 AM 10.01 50.018 0.243 7.17 7.41 10.28
3/31/2021 3:45:00 AM 9.95 49.91 0.244 7.16 7.49 10.24
3/31/2021 4:00:00 AM 9.92 49.856 0.244 7.16 7.13 10.2
3/31/2021 4:15:00 AM 9.9 49.82 0.244 7.15 10.26 10.19
3/31/2021 4:30:00 AM 9.86 49.748 0.244 7.14 7.28 10.15
3/31/2021 4:45:00 AM 9.86 49.748 0.244 7.13 9.51 10.13
3/31/2021 5:00:00 AM 9.87 49.766 0.243 7.12 8.45 10.12
3/31/2021 5:15:00 AM 9.79 49.622 0.243 7.14 7.99 10.13
3/31/2021 5:30:00 AM 9.8 49.64 0.242 7.11 9.02 10.13
3/31/2021 5:45:00 AM 9.71 49.478 0.243 7.11 9.35 10.14
3/31/2021 6:00:00 AM 9.71 49.478 0.243 7.1 9.04 10.15
3/31/2021 6:15:00 AM 9.73 49.514 0.243 7.09 8.72 10.18
3/31/2021 6:30:00 AM 9.73 49.514 0.243 7.09 7.61 10.18
3/31/2021 6:45:00 AM 9.75 49.55 0.243 7.1 8.39 10.19
3/31/2021 7:00:00 AM 9.71 49.478 0.243 7.1 8.09 10.23
3/31/2021 7:15:00 AM 9.71 49.478 0.243 7.1 7.92 10.27
3/31/2021 7:30:00 AM 9.79 49.622 0.242 7.09 8.59 10.33
3/31/2021 7:45:00 AM 9.81 49.658 0.242 7.1 6.57 10.41
3/31/2021 8:00:00 AM 9.78 49.604 0.242 7.1 7.83 10.51
3/31/2021 8:15:00 AM 9.81 49.658 0.242 7.11 6.82 10.57
3/31/2021 8:30:00 AM 9.92 49.856 0.242 7.11 6.87 10.67
3/31/2021 8:45:00 AM 10 50 0.241 7.13 7.4 10.75
3/31/2021 9:00:00 AM 10.05 50.09 0.241 7.13 6.31 10.88
3/31/2021 9:15:00 AM 10.09 50.162 0.241 7.17 6.22 10.98
3/31/2021 9:30:00 AM 10.16 50.288 0.241 7.17 7.6 11.08
3/31/2021 9:45:00 AM 10.24 50.432 0.24 7.19 5.8 11.13
3/31/2021 10:00:00 AM 10.29 50.522 0.24 7.2 6.99 11.15
3/31/2021 10:15:00 AM 10.36 50.648 0.24 7.21 7.3 11.23
3/31/2021 10:30:00 AM 10.45 50.81 0.24 7.21 7.63 11.3
3/31/2021 10:45:00 AM 10.48 50.864 0.241 7.24 6.78 11.35
3/31/2021 11:00:00 AM 10.54 50.972 0.241 7.24 7.56 11.39
3/31/2021 11:15:00 AM 10.6 51.08 0.241 7.26 8.2 11.39
3/31/2021 11:30:00 AM 10.7 51.26 0.241 7.27 8.24 11.43
3/31/2021 11:45:00 AM 10.72 51.296 0.242 7.28 8.22 11.44
3/31/2021 12:00:00 PM 10.73 51.314 0.242 7.29 7.71 11.36
3/31/2021 12:15:00 PM 10.76 51.368 0.241 7.3 7.13 11.34
3/31/2021 12:30:00 PM 10.82 51.476 0.241 7.3 8.03 11.34
3/31/2021 12:45:00 PM 10.85 51.53 0.241 7.31 10.19 11.4
3/31/2021 1:00:00 PM 10.85 51.53 0.242 7.33 8.72 11.48
3/31/2021 1:15:00 PM 10.91 51.638 0.242 7.35 8.27 11.51
3/31/2021 1:30:00 PM 10.95 51.71 0.242 7.36 6.75 11.54
3/31/2021 1:45:00 PM 10.97 51.746 0.243 7.37 6.73 11.55
3/31/2021 2:00:00 PM 10.94 51.692 0.243 7.37 6.56 11.55
3/31/2021 2:15:00 PM 10.94 51.692 0.243 7.39 6.18 11.54
3/31/2021 2:30:00 PM 10.95 51.71 0.242 7.39 10.73 11.52
3/31/2021 2:45:00 PM 10.98 51.764 0.242 7.4 6.19 11.52
3/31/2021 3:00:00 PM 10.98 51.764 0.242 7.42 5.92 11.5
3/31/2021 3:15:00 PM 10.98 51.764 0.242 7.43 6.18 11.49
3/31/2021 3:30:00 PM 11 51.8 0.242 7.44 5.86 11.5
3/31/2021 3:45:00 PM 11.01 51.818 0.243 7.45 6.35 11.4
3/31/2021 4:00:00 PM 11 51.8 0.243 7.44 5.71 11.32
3/31/2021 4:15:00 PM 11.04 51.872 0.243 7.44 9.54 11.29
3/31/2021 4:30:00 PM 11.08 51.944 0.243 7.45 5.97 11.26
3/31/2021 4:45:00 PM 11.06 51.908 0.244 7.44 6.04 11.24
3/31/2021 5:00:00 PM 11.07 51.926 0.243 7.44 6.53 11.21
3/31/2021 5:15:00 PM 11.05 51.89 0.243 7.44 8.8 11.14
3/31/2021 5:30:00 PM 11.02 51.836 0.243 7.43 6.28 11.05
3/31/2021 5:45:00 PM 10.97 51.746 0.243 7.42 6.22 10.96
3/31/2021 6:00:00 PM 11.01 51.818 0.243 7.41 5.91 10.91
3/31/2021 6:15:00 PM 10.95 51.71 0.244 7.41 6.29 10.86
3/31/2021 6:30:00 PM 10.99 51.782 0.244 7.39 5.94 10.85
3/31/2021 6:45:00 PM 10.98 51.764 0.244 7.38 5.85 10.79
3/31/2021 7:00:00 PM 11.01 51.818 0.244 7.38 6 10.7
3/31/2021 7:15:00 PM 11.01 51.818 0.243 7.36 6.49 10.62
3/31/2021 7:30:00 PM 10.91 51.638 0.244 7.34 6.38 10.54
3/31/2021 7:45:00 PM 10.91 51.638 0.243 7.32 5.77 10.44
3/31/2021 8:00:00 PM 10.93 51.674 0.242 7.31 6.1 10.34
3/31/2021 8:15:00 PM 10.85 51.53 0.243 7.29 6.44 10.29
3/31/2021 8:30:00 PM 10.83 51.494 0.244 7.26 6.92 10.23
3/31/2021 8:45:00 PM 10.81 51.458 0.244 7.27 7.08 10.21
3/31/2021 9:00:00 PM 10.89 51.602 0.243 7.25 8.66 10.18
3/31/2021 9:15:00 PM 10.86 51.548 0.243 7.22 23.4 10.13
3/31/2021 9:30:00 PM 10.86 51.548 0.243 7.22 10.21 10.12
3/31/2021 9:45:00 PM 10.81 51.458 0.243 7.23 6.86 10.09
3/31/2021 10:00:00 PM 10.81 51.458 0.242 7.2 7.72 10.07
3/31/2021 10:15:00 PM 10.84 51.512 0.242 7.19 10.07 10.08
3/31/2021 10:30:00 PM 10.82 51.476 0.242 7.19 7.45 10.11
3/31/2021 10:45:00 PM 10.86 51.548 0.242 7.19 8.52 10.14
3/31/2021 11:00:00 PM 10.87 51.566 0.243 7.2 12.61 10.15
3/31/2021 11:15:00 PM 10.94 51.692 0.242 7.18 8.39 10.15
3/31/2021 11:30:00 PM 10.96 51.728 0.242 7.19 7.79 10.15
3/31/2021 11:45:00 PM 10.94 51.692 0.242 7.19 11.48 10.14
4/1/2021 12:00:00 AM 10.93 51.674 0.242 7.18 8.13 10.14
4/1/2021 12:15:00 AM 10.91 51.638 0.241 7.19 8.19 10.14
4/1/2021 12:30:00 AM 10.88 51.584 0.241 7.17 9.79 10.14
4/1/2021 12:45:00 AM 10.83 51.494 0.241 7.17 7.54 10.17
4/1/2021 1:00:00 AM 10.81 51.458 0.241 7.18 8.79 10.14
4/1/2021 1:15:00 AM 10.74 51.332 0.241 7.18 10.97 10.15
4/1/2021 1:30:00 AM 10.68 51.224 0.241 7.18 8.4 10.14
4/1/2021 1:45:00 AM 10.58 51.044 0.242 7.16 7.94 10.13
4/1/2021 2:00:00 AM 10.49 50.882 0.242 7.16 7.58 10.14
4/1/2021 2:15:00 AM 10.45 50.81 0.242 7.16 8.1 10.1
4/1/2021 2:30:00 AM 10.39 50.702 0.241 7.15 8.65 10.11
4/1/2021 2:45:00 AM 10.36 50.648 0.24 7.13 8.59 10.09
4/1/2021 3:00:00 AM 10.32 50.576 0.24 7.14 8.95 10.11
4/1/2021 3:15:00 AM 10.35 50.63 0.238 7.13 9.35 10.06
4/1/2021 3:30:00 AM 10.12 50.216 0.24 7.13 9.57 10.09
4/1/2021 3:45:00 AM 10.08 50.144 0.24 7.11 11.21 10.1
4/1/2021 4:00:00 AM 10.06 50.108 0.24 7.12 8.49 10.08
4/1/2021 4:15:00 AM 9.99 49.982 0.24 7.11 9.78 10.13
4/1/2021 4:30:00 AM 10.01 50.018 0.24 7.1 9.11 10.14
4/1/2021 4:45:00 AM 9.95 49.91 0.239 7.11 9.29 10.16
4/1/2021 5:00:00 AM 9.91 49.838 0.239 7.11 9.45 10.2
4/1/2021 5:15:00 AM 9.9 49.82 0.238 7.13 11.08 10.23
4/1/2021 5:30:00 AM 9.84 49.712 0.238 7.1 10.64 10.26
4/1/2021 5:45:00 AM 9.83 49.694 0.238 7.11 11.89 10.27
4/1/2021 6:00:00 AM 9.81 49.658 0.239 7.12 9.44 10.28
4/1/2021 6:15:00 AM 9.85 49.73 0.238 7.11 11.21 10.26
4/1/2021 6:30:00 AM 9.74 49.532 0.239 7.11 9.73 10.25
4/1/2021 6:45:00 AM 9.66 49.388 0.24 7.1 13.02 10.23
4/1/2021 7:00:00 AM 9.61 49.298 0.241 7.09 8.86 10.24
4/1/2021 7:15:00 AM 9.63 49.334 0.24 7.08 9.73 10.24
4/1/2021 7:30:00 AM 9.62 49.316 0.24 7.07 11.98 10.23
4/1/2021 7:45:00 AM 9.64 49.352 0.239 7.08 9.98 10.21
4/1/2021 8:00:00 AM 9.52 49.136 0.241 7.07 10.06 10.24
4/1/2021 8:15:00 AM 9.53 49.154 0.24 7.08 8.41 10.33
4/1/2021 8:30:00 AM 9.54 49.172 0.239 7.07 9.54 10.41
4/1/2021 8:45:00 AM 9.57 49.226 0.238 7.08 9.28 10.52
4/1/2021 9:00:00 AM 9.55 49.19 0.239 7.08 9.8 10.62
4/1/2021 9:15:00 AM 9.59 49.262 0.238 7.1 8.51 10.7
4/1/2021 9:30:00 AM 9.6 49.28 0.238 7.11 8.72 10.85
4/1/2021 9:45:00 AM 9.62 49.316 0.238 7.13 8.19 10.98
4/1/2021 10:00:00 AM 9.69 49.442 0.238 7.14 8.02 11.12
4/1/2021 10:15:00 AM 9.76 49.568 0.238 7.16 8.33 11.27
4/1/2021 10:30:00 AM 9.86 49.748 0.238 7.19 8.06 11.35
4/1/2021 10:45:00 AM 10.04 50.072 0.236 7.22 9.17 11.37
4/1/2021 11:00:00 AM 10.13 50.234 0.236 7.22 8.94 11.45
4/1/2021 11:15:00 AM 10.27 50.486 0.236 7.25 14.36 11.49
4/1/2021 11:30:00 AM 10.36 50.648 0.236 7.28 8.69 11.53
4/1/2021 11:45:00 AM 10.4 50.72 0.236 7.29 7.61 11.53
4/1/2021 12:00:00 PM 10.46 50.828 0.236 7.29 11.88 11.55
4/1/2021 12:15:00 PM 10.51 50.918 0.235 7.3 10.04 11.6
4/1/2021 12:30:00 PM 10.45 50.81 0.235 7.32 8.51 11.6
4/1/2021 12:45:00 PM 10.39 50.702 0.235 7.33 9.4 11.58
4/1/2021 1:00:00 PM 10.35 50.63 0.235 7.33 10.16 11.6
4/1/2021 1:15:00 PM 10.29 50.522 0.236 7.36 9.88 11.66
4/1/2021 1:30:00 PM 10.28 50.504 0.236 7.38 10.85 11.7
4/1/2021 1:45:00 PM 10.25 50.45 0.237 7.39 10.17 11.74
4/1/2021 2:00:00 PM 10.23 50.414 0.236 7.4 11.83 11.74
4/1/2021 2:15:00 PM 10.25 50.45 0.236 7.43 9.71 11.78
4/1/2021 2:30:00 PM 10.28 50.504 0.235 7.45 10 11.81
4/1/2021 2:45:00 PM 10.28 50.504 0.235 7.46 9.93 11.81
4/1/2021 3:00:00 PM 10.22 50.396 0.235 7.47 9.52 11.75
4/1/2021 3:15:00 PM 10.18 50.324 0.234 7.46 12.46 11.65
4/1/2021 3:30:00 PM 10.09 50.162 0.236 7.46 10.62 11.56
4/1/2021 3:45:00 PM 10.09 50.162 0.235 7.46 10.4 11.57
4/1/2021 4:00:00 PM 10.04 50.072 0.236 7.47 11.22 11.58
4/1/2021 4:15:00 PM 9.99 49.982 0.237 7.46 10.63 11.52
4/1/2021 4:30:00 PM 9.92 49.856 0.236 7.45 9.48 11.52
4/1/2021 4:45:00 PM 9.88 49.784 0.236 7.46 10.09 11.49
4/1/2021 5:00:00 PM 9.86 49.748 0.236 7.45 9.04 11.52
4/1/2021 5:15:00 PM 9.85 49.73 0.235 7.44 13.68 11.54
4/1/2021 5:30:00 PM 9.77 49.586 0.236 7.44 9.45 11.52
4/1/2021 5:45:00 PM 9.69 49.442 0.237 7.43 11.94 11.48
4/1/2021 6:00:00 PM 9.64 49.352 0.236 7.4 10.74 11.42
4/1/2021 6:15:00 PM 9.54 49.172 0.237 7.39 10.82 11.38
4/1/2021 6:30:00 PM 9.45 49.01 0.237 7.37 10.54 11.3
4/1/2021 6:45:00 PM 9.39 48.902 0.237 7.35 12.08 11.24
4/1/2021 7:00:00 PM 9.37 48.866 0.236 7.34 9.22 11.21
4/1/2021 7:15:00 PM 9.29 48.722 0.236 7.33 8.46 11.15
4/1/2021 7:30:00 PM 9.22 48.596 0.236 7.31 8.4 11.09
4/1/2021 7:45:00 PM 9.19 48.542 0.235 7.3 8.39 11.02
4/1/2021 8:00:00 PM 9.05 48.29 0.237 7.28 8.33 10.95
4/1/2021 8:15:00 PM 9.05 48.29 0.236 7.28 13.78 10.93
4/1/2021 8:30:00 PM 8.98 48.164 0.237 7.26 9.94 10.89
4/1/2021 8:45:00 PM 8.94 48.092 0.237 7.25 8.75 10.87
4/1/2021 9:00:00 PM 8.89 48.002 0.236 7.24 10.37 10.86
4/1/2021 9:15:00 PM 8.83 47.894 0.237 7.23 10.97 10.86
4/1/2021 9:30:00 PM 8.75 47.75 0.237 7.21 10.06 10.84
4/1/2021 9:45:00 PM 8.69 47.642 0.238 7.2 10.24 10.82
4/1/2021 10:00:00 PM 8.65 47.57 0.237 7.17 13.24 10.79
4/1/2021 10:15:00 PM 8.59 47.462 0.237 7.18 9.14 10.78
4/1/2021 10:30:00 PM 8.57 47.426 0.237 7.15 11.56 10.8
4/1/2021 10:45:00 PM 8.54 47.372 0.237 7.15 12.1 10.82
4/1/2021 11:00:00 PM 8.52 47.336 0.237 7.15 10.61 10.86
4/1/2021 11:15:00 PM 8.49 47.282 0.238 7.15 12.6 10.88
4/1/2021 11:30:00 PM 8.48 47.264 0.237 7.13 10.88 10.91
4/1/2021 11:45:00 PM 8.46 47.228 0.237 7.14 10.11 10.92
4/2/2021 12:00:00 AM 8.43 47.174 0.237 7.14 11 10.94
4/2/2021 12:15:00 AM 8.39 47.102 0.236 7.13 10.85 10.93
4/2/2021 12:30:00 AM 8.34 47.012 0.235 7.12 11.52 10.93
4/2/2021 12:45:00 AM 8.29 46.922 0.236 7.11 11.7 10.92
4/2/2021 1:00:00 AM 8.24 46.832 0.235 7.11 13.33 10.94
4/2/2021 1:15:00 AM 8.22 46.796 0.237 7.11 10.56 10.96
4/2/2021 1:30:00 AM 8.19 46.742 0.237 7.1 11.11 10.98
4/2/2021 1:45:00 AM 8.17 46.706 0.236 7.11 10.75 10.98
4/2/2021 2:00:00 AM 8.16 46.688 0.237 7.11 11.54 10.99
4/2/2021 2:15:00 AM 8.14 46.652 0.237 7.1 12.46 11.01
4/2/2021 2:30:00 AM 8.11 46.598 0.236 7.11 11.22 11.01
4/2/2021 2:45:00 AM 8.09 46.562 0.236 7.11 11.76 11
4/2/2021 3:00:00 AM 8.05 46.49 0.235 7.09 12.74 11.01
4/2/2021 3:15:00 AM 8.03 46.454 0.237 7.09 12.14 11.01
4/2/2021 3:30:00 AM 7.97 46.346 0.236 7.09 12.58 11.02
4/2/2021 3:45:00 AM 7.91 46.238 0.236 7.08 12.14 11.04
4/2/2021 4:00:00 AM 7.83 46.094 0.237 7.07 12.02 11
4/2/2021 4:15:00 AM 7.74 45.932 0.237 7.07 12.3 10.96
4/2/2021 4:30:00 AM 7.66 45.788 0.237 7.06 11.53 10.94
4/2/2021 4:45:00 AM 7.61 45.698 0.237 7.06 10.89 10.95
4/2/2021 5:00:00 AM 7.55 45.59 0.236 7.05 10.87 10.97
4/2/2021 5:15:00 AM 7.51 45.518 0.236 7.04 11.88 10.99
4/2/2021 5:30:00 AM 7.48 45.464 0.236 7.06 10.75 11.02
4/2/2021 5:45:00 AM 7.49 45.482 0.237 7.04 11.59 11.05
4/2/2021 6:00:00 AM 7.48 45.464 0.237 7.04 11.88 11.09
4/2/2021 6:15:00 AM 7.44 45.392 0.237 7.04 10.8 11.11
4/2/2021 6:30:00 AM 7.4 45.32 0.236 7.04 11.81 11.11
4/2/2021 6:45:00 AM 7.34 45.212 0.236 7.03 10.8 11.16
4/2/2021 7:00:00 AM 7.33 45.194 0.236 7.02 11.44 11.18
4/2/2021 7:15:00 AM 7.29 45.122 0.237 7.03 10.81 11.22
4/2/2021 7:30:00 AM 7.21 44.978 0.236 7.01 15 11.27
4/2/2021 7:45:00 AM 7.2 44.96 0.236 7.03 10.43 11.35
4/2/2021 8:00:00 AM 7.15 44.87 0.235 7.03 9.26 11.46
4/2/2021 8:15:00 AM 7.17 44.906 0.236 7.04 10.33 11.59
4/2/2021 8:30:00 AM 7.23 45.014 0.237 7.05 8.63 11.69
4/2/2021 8:45:00 AM 7.22 44.996 0.237 7.05 9.02 11.79
4/2/2021 9:00:00 AM 7.23 45.014 0.237 7.07 9.08 11.89
4/2/2021 9:15:00 AM 7.24 45.032 0.237 7.07 9.04 11.97
4/2/2021 9:30:00 AM 7.27 45.086 0.237 7.07 8.84 12.01
4/2/2021 9:45:00 AM 7.32 45.176 0.237 7.09 8.58 12.08
4/2/2021 10:00:00 AM 7.4 45.32 0.237 7.11 8.09 12.13
4/2/2021 10:15:00 AM 7.48 45.464 0.237 7.12 8.18 12.2
4/2/2021 10:30:00 AM 7.62 45.716 0.237 7.13 8.22 12.24
4/2/2021 10:45:00 AM 7.65 45.77 0.237 7.15 8.09 12.26
4/2/2021 11:00:00 AM 7.73 45.914 0.237 7.15 7.91 12.31
4/2/2021 11:15:00 AM 7.86 46.148 0.238 7.16 8.54 12.34
4/2/2021 11:30:00 AM 7.89 46.202 0.237 7.18 7.49 12.34
4/2/2021 11:45:00 AM 8.03 46.454 0.238 7.19 8.05 12.33
4/2/2021 12:00:00 PM 8.2 46.76 0.238 7.2 7.57 12.34
4/2/2021 12:15:00 PM 8.29 46.922 0.238 7.21 7.74 12.33
4/2/2021 12:30:00 PM 8.42 47.156 0.238 7.21 7.74 12.33
4/2/2021 12:45:00 PM 8.52 47.336 0.238 7.22 8.27 12.32
4/2/2021 1:00:00 PM 8.67 47.606 0.239 7.22 8 12.32
4/2/2021 1:15:00 PM 8.76 47.768 0.239 7.22 7.53 12.35
4/2/2021 1:30:00 PM 8.9 48.02 0.239 7.24 7.92 12.39
4/2/2021 1:45:00 PM 8.95 48.11 0.239 7.26 7.41 12.44
4/2/2021 2:00:00 PM 9.08 48.344 0.239 7.29 7.38 12.45
4/2/2021 2:15:00 PM 9.17 48.506 0.239 7.3 7.49 12.47
4/2/2021 2:30:00 PM 9.25 48.65 0.238 7.31 8.07 12.5
4/2/2021 2:45:00 PM 9.37 48.866 0.239 7.32 7.25 12.53
4/2/2021 3:00:00 PM 9.43 48.974 0.238 7.34 7.73 12.54
4/2/2021 3:15:00 PM 9.5 49.1 0.239 7.36 7.49 12.56
4/2/2021 3:30:00 PM 9.54 49.172 0.239 7.38 6.45 12.55
4/2/2021 3:45:00 PM 9.58 49.244 0.239 7.4 7.16 12.54
4/2/2021 4:00:00 PM 9.56 49.208 0.239 7.42 7.05 12.53
4/2/2021 4:15:00 PM 9.53 49.154 0.239 7.43 6.64 12.5
4/2/2021 4:30:00 PM 9.48 49.064 0.24 7.44 6.52 12.43
4/2/2021 4:45:00 PM 9.43 48.974 0.24 7.45 6.78 12.4
4/2/2021 5:00:00 PM 9.37 48.866 0.24 7.46 6.9 12.39
4/2/2021 5:15:00 PM 9.31 48.758 0.239 7.47 6.92 12.37
4/2/2021 5:30:00 PM 9.26 48.668 0.239 7.46 6.47 12.32
4/2/2021 5:45:00 PM 9.21 48.578 0.239 7.46 6.79 12.27
4/2/2021 6:00:00 PM 9.14 48.452 0.24 7.46 6.24 12.19
4/2/2021 6:15:00 PM 9.04 48.272 0.24 7.45 6.6 12.11
4/2/2021 6:30:00 PM 8.95 48.11 0.24 7.43 6.65 12.05
4/2/2021 6:45:00 PM 8.89 48.002 0.241 7.43 6.44 11.96
4/2/2021 7:00:00 PM 8.83 47.894 0.24 7.42 6.96 11.92
4/2/2021 7:15:00 PM 8.76 47.768 0.24 7.41 6.93 11.85
4/2/2021 7:30:00 PM 8.7 47.66 0.24 7.4 7.55 11.77
4/2/2021 7:45:00 PM 8.66 47.588 0.239 7.38 6.48 11.69
4/2/2021 8:00:00 PM 8.63 47.534 0.24 7.37 6.31 11.6
4/2/2021 8:15:00 PM 8.59 47.462 0.24 7.34 7.59 11.54
4/2/2021 8:30:00 PM 8.56 47.408 0.24 7.33 6.52 11.46
4/2/2021 8:45:00 PM 8.53 47.354 0.24 7.32 7.16 11.41
4/2/2021 9:00:00 PM 8.51 47.318 0.241 7.3 7.41 11.36
4/2/2021 9:15:00 PM 8.48 47.264 0.241 7.28 7.73 11.27
4/2/2021 9:30:00 PM 8.45 47.21 0.241 7.25 7.68 11.25
4/2/2021 9:45:00 PM 8.41 47.138 0.24 7.25 9.13 11.19
4/2/2021 10:00:00 PM 8.4 47.12 0.24 7.22 8.75 11.16
4/2/2021 10:15:00 PM 8.38 47.084 0.24 7.21 7.53 11.13
4/2/2021 10:30:00 PM 8.37 47.066 0.24 7.2 8.64 11.12
4/2/2021 10:45:00 PM 8.36 47.048 0.24 7.18 9.28 11.12
4/2/2021 11:00:00 PM 8.35 47.03 0.241 7.18 9.69 11.12
4/2/2021 11:15:00 PM 8.32 46.976 0.24 7.18 7.9 11.11
4/2/2021 11:30:00 PM 8.31 46.958 0.241 7.15 8.47 11.12
4/2/2021 11:45:00 PM 8.3 46.94 0.241 7.16 9.97 11.13
4/3/2021 12:00:00 AM 8.27 46.886 0.24 7.16 9.09 11.14
4/3/2021 12:15:00 AM 8.26 46.868 0.24 7.15 9.67 11.13
4/3/2021 12:30:00 AM 8.22 46.796 0.24 7.14 10.93 11.1
4/3/2021 12:45:00 AM 8.16 46.688 0.24 7.11 9.16 11.06
4/3/2021 1:00:00 AM 8.07 46.526 0.24 7.12 9.97 11.04
4/3/2021 1:15:00 AM 8 46.4 0.241 7.09 9.99 10.98
4/3/2021 1:30:00 AM 7.93 46.274 0.242 7.09 9.83 10.95
4/3/2021 1:45:00 AM 7.83 46.094 0.241 7.07 11.51 10.91
4/3/2021 2:00:00 AM 7.75 45.95 0.241 7.07 10.4 10.9
4/3/2021 2:15:00 AM 7.67 45.806 0.242 7.05 9.59 10.91
4/3/2021 2:30:00 AM 7.59 45.662 0.241 7.02 9.29 10.9
4/3/2021 2:45:00 AM 7.52 45.536 0.241 7.02 10.49 10.9
4/3/2021 3:00:00 AM 7.45 45.41 0.24 7.01 11.16 10.91
4/3/2021 3:15:00 AM 7.41 45.338 0.241 7.01 11.24 10.88
4/3/2021 3:30:00 AM 7.35 45.23 0.241 7.01 11.08 10.91
4/3/2021 3:45:00 AM 7.27 45.086 0.241 6.99 11.39 10.95
4/3/2021 4:00:00 AM 7.21 44.978 0.241 6.97 11.29 10.95
4/3/2021 4:15:00 AM 7.16 44.888 0.241 6.97 12.42 10.99
4/3/2021 4:30:00 AM 7.14 44.852 0.241 6.97 11.49 11.03
4/3/2021 4:45:00 AM 7.11 44.798 0.241 6.98 9.68 11.05
4/3/2021 5:00:00 AM 7.08 44.744 0.24 6.98 11.62 11.1
4/3/2021 5:15:00 AM 7.08 44.744 0.24 6.96 12.7 11.12
4/3/2021 5:30:00 AM 7.07 44.726 0.24 6.96 10.71 11.12
4/3/2021 5:45:00 AM 7.04 44.672 0.24 6.97 12.06 11.17
4/3/2021 6:00:00 AM 7 44.6 0.24 6.97 10.56 11.19
4/3/2021 6:15:00 AM 6.96 44.528 0.24 6.96 10.98 11.23
4/3/2021 6:30:00 AM 6.9 44.42 0.24 6.95 10.17 11.26
4/3/2021 6:45:00 AM 6.88 44.384 0.24 6.94 9.8 11.29
4/3/2021 7:00:00 AM 6.87 44.366 0.24 6.94 9.17 11.31
4/3/2021 7:15:00 AM 6.88 44.384 0.24 6.94 9.22 11.36
4/3/2021 7:30:00 AM 6.85 44.33 0.24 6.96 9.44 11.42
4/3/2021 7:45:00 AM 6.86 44.348 0.239 6.96 9.59 11.5
4/3/2021 8:00:00 AM 6.92 44.456 0.239 6.96 8.88 11.58
4/3/2021 8:15:00 AM 6.93 44.474 0.239 6.98 9.82 11.69
4/3/2021 8:30:00 AM 6.92 44.456 0.239 6.98 9.52 11.82
4/3/2021 8:45:00 AM 6.97 44.546 0.239 6.98 9.1 11.91
4/3/2021 9:00:00 AM 7.07 44.726 0.239 7 9.36 12
4/3/2021 9:15:00 AM 7.09 44.762 0.238 7.02 10.48 12.09
4/3/2021 9:30:00 AM 7.19 44.942 0.238 7.02 9.19 12.18
4/3/2021 9:45:00 AM 7.35 45.23 0.239 7.04 12.83 12.23
4/3/2021 10:00:00 AM 7.4 45.32 0.238 7.06 9.48 12.32
4/3/2021 10:15:00 AM 7.57 45.626 0.238 7.09 9.58 12.36
4/3/2021 10:30:00 AM 7.73 45.914 0.238 7.08 8.35 12.38
4/3/2021 10:45:00 AM 7.79 46.022 0.238 7.11 8.17 12.45
4/3/2021 11:00:00 AM 7.96 46.328 0.238 7.13 9.97 12.48
4/3/2021 11:15:00 AM 8.17 46.706 0.239 7.14 8.51 12.49
4/3/2021 11:30:00 AM 8.29 46.922 0.239 7.15 8.97 12.52
4/3/2021 11:45:00 AM 8.44 47.192 0.238 7.17 8.72 12.5
4/3/2021 12:00:00 PM 8.61 47.498 0.238 7.18 9.21 12.53
4/3/2021 12:15:00 PM 8.75 47.75 0.238 7.2 8.35 12.54
4/3/2021 12:30:00 PM 8.95 48.11 0.238 7.22 8.25 12.56
4/3/2021 12:45:00 PM 9.1 48.38 0.238 7.22 8.47 12.57
4/3/2021 1:00:00 PM 9.25 48.65 0.238 7.25 8.01 12.57
4/3/2021 1:15:00 PM 9.39 48.902 0.239 7.26 8.37 12.59
4/3/2021 1:30:00 PM 9.54 49.172 0.239 7.28 10.87 12.59
4/3/2021 1:45:00 PM 9.63 49.334 0.239 7.3 9.14 12.61
4/3/2021 2:00:00 PM 9.7 49.46 0.239 7.31 7.63 12.59
4/3/2021 2:15:00 PM 9.77 49.586 0.239 7.33 7.68 12.6
4/3/2021 2:30:00 PM 9.83 49.694 0.239 7.32 7.79 12.6
4/3/2021 2:45:00 PM 9.95 49.91 0.239 7.36 8.16 12.58
4/3/2021 3:00:00 PM 10.02 50.036 0.239 7.36 7.54 12.56
4/3/2021 3:15:00 PM 10.04 50.072 0.239 7.38 9.52 12.54
4/3/2021 3:30:00 PM 10.07 50.126 0.239 7.39 7.89 12.5
4/3/2021 3:45:00 PM 10.12 50.216 0.239 7.4 8.02 12.52
4/3/2021 4:00:00 PM 10.13 50.234 0.24 7.41 8.28 12.49
4/3/2021 4:15:00 PM 10.14 50.252 0.24 7.43 8.62 12.46
4/3/2021 4:30:00 PM 10.13 50.234 0.24 7.44 7.8 12.44
4/3/2021 4:45:00 PM 10.1 50.18 0.24 7.44 7.07 12.4
4/3/2021 5:00:00 PM 10.07 50.126 0.24 7.46 7.37 12.39
4/3/2021 5:15:00 PM 10.05 50.09 0.24 7.47 7.37 12.35
4/3/2021 5:30:00 PM 10 50 0.238 7.48 6.73 12.31
4/3/2021 5:45:00 PM 9.98 49.964 0.239 7.49 7.43 12.26
4/3/2021 6:00:00 PM 9.97 49.946 0.24 7.49 7.76 12.21
4/3/2021 6:15:00 PM 9.93 49.874 0.24 7.5 7.22 12.15
4/3/2021 6:30:00 PM 9.88 49.784 0.24 7.49 7.71 12.06
4/3/2021 6:45:00 PM 9.83 49.694 0.24 7.49 7.59 11.98
4/3/2021 7:00:00 PM 9.79 49.622 0.241 7.48 7.39 11.88
4/3/2021 7:15:00 PM 9.74 49.532 0.24 7.49 7.22 11.82
4/3/2021 7:30:00 PM 9.7 49.46 0.24 7.47 7.78 11.73
4/3/2021 7:45:00 PM 9.64 49.352 0.239 7.46 8.23 11.63
4/3/2021 8:00:00 PM 9.59 49.262 0.24 7.45 6.86 11.53
4/3/2021 8:15:00 PM 9.48 49.064 0.24 7.41 8.97 11.35
4/3/2021 8:30:00 PM 9.36 48.848 0.241 7.37 9.9 11.19
4/3/2021 8:45:00 PM 9.23 48.614 0.241 7.32 11.33 11
4/3/2021 9:00:00 PM 9.11 48.398 0.242 7.27 11.67 10.84
4/3/2021 9:15:00 PM 9 48.2 0.242 7.24 12.36 10.68
4/3/2021 9:30:00 PM 8.92 48.056 0.242 7.2 12.25 10.61
4/3/2021 9:45:00 PM 8.87 47.966 0.242 7.19 12.33 10.57
4/3/2021 10:00:00 PM 8.86 47.948 0.24 7.16 11.54 10.56
4/3/2021 10:15:00 PM 8.85 47.93 0.24 7.14 10.95 10.55
4/3/2021 10:30:00 PM 8.86 47.948 0.241 7.12 14.62 10.54
4/3/2021 10:45:00 PM 8.86 47.948 0.241 7.12 11.95 10.59
4/3/2021 11:00:00 PM 8.88 47.984 0.241 7.1 14 10.6
4/3/2021 11:15:00 PM 8.88 47.984 0.241 7.09 11.38 10.62
4/3/2021 11:30:00 PM 8.89 48.002 0.241 7.09 11.68 10.65
4/3/2021 11:45:00 PM 8.89 48.002 0.241 7.07 13.04 10.64
4/4/2021 12:00:00 AM 8.91 48.038 0.241 7.06 10.66 10.68
4/4/2021 12:15:00 AM 8.92 48.056 0.241 7.06 11.16 10.67
4/4/2021 12:30:00 AM 8.94 48.092 0.24 7.05 10.76 10.69
4/4/2021 12:45:00 AM 8.96 48.128 0.24 7.06 10.34 10.69
4/4/2021 1:00:00 AM 8.97 48.146 0.24 7.05 13.75 10.69
4/4/2021 1:15:00 AM 8.98 48.164 0.241 7.04 11.91 10.7
4/4/2021 1:30:00 AM 8.97 48.146 0.241 7.03 10.82 10.72
4/4/2021 1:45:00 AM 8.95 48.11 0.24 7.03 11.62 10.72
4/4/2021 2:00:00 AM 8.94 48.092 0.241 7.02 11.24 10.69
4/4/2021 2:15:00 AM 8.93 48.074 0.241 7.02 11 10.7
4/4/2021 2:30:00 AM 8.91 48.038 0.241 7.02 10.3 10.7
4/4/2021 2:45:00 AM 8.9 48.02 0.241 7.01 12.86 10.7
4/4/2021 3:00:00 AM 8.87 47.966 0.239 7.01 13.55 10.7
4/4/2021 3:15:00 AM 8.88 47.984 0.24 7 10.54 10.68
4/4/2021 3:30:00 AM 8.88 47.984 0.24 7 10.29 10.68
4/4/2021 3:45:00 AM 8.88 47.984 0.24 6.99 11.41 10.69
4/4/2021 4:00:00 AM 8.87 47.966 0.241 6.98 15.74 10.69
4/4/2021 4:15:00 AM 8.87 47.966 0.241 7 10.52 10.69
4/4/2021 4:30:00 AM 8.85 47.93 0.241 6.98 10.44 10.7
4/4/2021 4:45:00 AM 8.86 47.948 0.241 7 10.07 10.71
4/4/2021 5:00:00 AM 8.83 47.894 0.24 7.01 10.38 10.69
4/4/2021 5:15:00 AM 8.84 47.912 0.24 6.99 10.09 10.69
4/4/2021 5:30:00 AM 8.82 47.876 0.239 6.99 10.93 10.71
4/4/2021 5:45:00 AM 8.81 47.858 0.239 7 9.48 10.72
4/4/2021 6:00:00 AM 8.79 47.822 0.24 6.98 9.93 10.73
4/4/2021 6:15:00 AM 8.76 47.768 0.24 6.98 9.97 10.74
4/4/2021 6:30:00 AM 8.74 47.732 0.24 6.98 9.98 10.74
4/4/2021 6:45:00 AM 8.72 47.696 0.24 6.99 9.67 10.74
4/4/2021 7:00:00 AM 8.71 47.678 0.24 6.96 9.29 10.77
4/4/2021 7:15:00 AM 8.68 47.624 0.239 6.98 10 10.79
4/4/2021 7:30:00 AM 8.68 47.624 0.239 6.98 10.1 10.85
4/4/2021 7:45:00 AM 8.67 47.606 0.239 6.98 10.53 10.93
4/4/2021 8:00:00 AM 8.69 47.642 0.238 6.99 9.75 10.98
4/4/2021 8:15:00 AM 8.7 47.66 0.238 7.01 10.7 11.04
4/4/2021 8:30:00 AM 8.74 47.732 0.239 6.99 9.42 11.1
4/4/2021 8:45:00 AM 8.77 47.786 0.239 7.01 9.69 11.25
4/4/2021 9:00:00 AM 8.74 47.732 0.237 7.03 8.84 11.37
4/4/2021 9:15:00 AM 8.88 47.984 0.238 7.03 9.59 11.5
4/4/2021 9:30:00 AM 8.99 48.182 0.238 7.05 11.61 11.64
4/4/2021 9:45:00 AM 9.09 48.362 0.237 7.09 10.56 11.75
4/4/2021 10:00:00 AM 9.23 48.614 0.238 7.13 11.49 11.8
4/4/2021 10:15:00 AM 9.33 48.794 0.237 7.13 8.85 11.88
4/4/2021 10:30:00 AM 9.48 49.064 0.237 7.14 8.36 11.92
4/4/2021 10:45:00 AM 9.62 49.316 0.237 7.17 9.25 11.98
4/4/2021 11:00:00 AM 9.74 49.532 0.237 7.19 9.18 12.05
4/4/2021 11:15:00 AM 9.95 49.91 0.237 7.21 9.49 12.09
4/4/2021 11:30:00 AM 10.12 50.216 0.237 7.23 8.66 12.13
4/4/2021 11:45:00 AM 10.31 50.558 0.237 7.25 8.65 12.17
4/4/2021 12:00:00 PM 10.53 50.954 0.237 7.28 7.77 12.18
4/4/2021 12:15:00 PM 10.7 51.26 0.237 7.31 9.39 12.18
4/4/2021 12:30:00 PM 10.88 51.584 0.237 7.34 9.18 12.2
4/4/2021 12:45:00 PM 11.05 51.89 0.237 7.35 9.27 12.22
4/4/2021 1:00:00 PM 11.2 52.16 0.237 7.37 9.18 12.22
4/4/2021 1:15:00 PM 11.37 52.466 0.237 7.4 9.34 12.2
4/4/2021 1:30:00 PM 11.5 52.7 0.237 7.43 8.94 12.19
4/4/2021 1:45:00 PM 11.64 52.952 0.238 7.44 8.72 12.19
4/4/2021 2:00:00 PM 11.77 53.186 0.237 7.47 8.76 12.19
4/4/2021 2:15:00 PM 11.85 53.33 0.237 7.49 9.86 12.17
4/4/2021 2:30:00 PM 11.94 53.492 0.237 7.51 8.42 12.15
4/4/2021 2:45:00 PM 12.01 53.618 0.237 7.53 9.47 12.13
4/4/2021 3:00:00 PM 12.05 53.69 0.237 7.55 10.39 12.1
4/4/2021 3:15:00 PM 12.07 53.726 0.238 7.55 10.47 12.07
4/4/2021 3:30:00 PM 12.09 53.762 0.238 7.58 9.11 12.01
4/4/2021 3:45:00 PM 12.11 53.798 0.238 7.59 11.97 11.99
4/4/2021 4:00:00 PM 12.09 53.762 0.239 7.59 8.67 11.95
4/4/2021 4:15:00 PM 12.09 53.762 0.239 7.59 8.61 11.91
4/4/2021 4:30:00 PM 12.06 53.708 0.239 7.59 9.66 11.82
4/4/2021 4:45:00 PM 12.03 53.654 0.239 7.6 9.19 11.81
4/4/2021 5:00:00 PM 12 53.6 0.239 7.6 13.1 11.77
4/4/2021 5:15:00 PM 11.93 53.474 0.239 7.6 9.39 11.69
4/4/2021 5:30:00 PM 11.87 53.366 0.239 7.61 11.09 11.66
4/4/2021 5:45:00 PM 11.8 53.24 0.239 7.61 9.38 11.58
4/4/2021 6:00:00 PM 11.75 53.15 0.239 7.6 9.9 11.51
4/4/2021 6:15:00 PM 11.73 53.114 0.239 7.6 9.07 11.44
4/4/2021 6:30:00 PM 11.69 53.042 0.239 7.6 8.38 11.36
4/4/2021 6:45:00 PM 11.62 52.916 0.24 7.59 8.69 11.27
4/4/2021 7:00:00 PM 11.57 52.826 0.24 7.57 8.91 11.2
4/4/2021 7:15:00 PM 11.53 52.754 0.24 7.56 10.16 11.1
4/4/2021 7:30:00 PM 11.48 52.664 0.24 7.54 9.21 10.96
4/4/2021 7:45:00 PM 11.36 52.448 0.24 7.51 9.04 10.84
4/4/2021 8:00:00 PM 11.29 52.322 0.239 7.48 12.27 10.71
4/4/2021 8:15:00 PM 11.18 52.124 0.239 7.45 10.18 10.6
4/4/2021 8:30:00 PM 11.15 52.07 0.24 7.43 10.55 10.48
4/4/2021 8:45:00 PM 11.08 51.944 0.24 7.39 10.53 10.37
4/4/2021 9:00:00 PM 11.01 51.818 0.241 7.35 11.46 10.31
4/4/2021 9:15:00 PM 10.93 51.674 0.241 7.33 11.39 10.21
4/4/2021 9:30:00 PM 10.92 51.656 0.241 7.31 11.46 10.16
4/4/2021 9:45:00 PM 10.88 51.584 0.24 7.27 12.18 10.09
4/4/2021 10:00:00 PM 10.84 51.512 0.24 7.28 11.73 10.05
4/4/2021 10:15:00 PM 10.84 51.512 0.239 7.23 12.18 10
4/4/2021 10:30:00 PM 10.79 51.422 0.239 7.23 11.08 10.03
4/4/2021 10:45:00 PM 10.81 51.458 0.239 7.21 15.43 10.03
4/4/2021 11:00:00 PM 10.78 51.404 0.24 7.19 12.25 10.05
4/4/2021 11:15:00 PM 10.82 51.476 0.239 7.19 13.44 10.05
4/4/2021 11:30:00 PM 10.79 51.422 0.24 7.17 10.7 10.08
4/4/2021 11:45:00 PM 10.77 51.386 0.239 7.17 12.19 10.09
4/5/2021 12:00:00 AM 10.81 51.458 0.238 7.16 13.32 10.09
4/5/2021 12:15:00 AM 10.76 51.368 0.239 7.14 10.47 10.1
4/5/2021 12:30:00 AM 10.72 51.296 0.238 7.14 10.73 10.07
4/5/2021 12:45:00 AM 10.69 51.242 0.237 7.13 11.48 10.05
4/5/2021 1:00:00 AM 10.62 51.116 0.238 7.1 12.28 10
4/5/2021 1:15:00 AM 10.51 50.918 0.238 7.1 12.86 9.98
4/5/2021 1:30:00 AM 10.47 50.846 0.239 7.09 12.68 9.94
4/5/2021 1:45:00 AM 10.43 50.774 0.239 7.07 12.99 9.96
4/5/2021 2:00:00 AM 10.4 50.72 0.239 7.07 12.4 9.98
4/5/2021 2:15:00 AM 10.32 50.576 0.24 7.06 11.15 10
4/5/2021 2:30:00 AM 10.32 50.576 0.238 7.06 11.33 10.03
4/5/2021 2:45:00 AM 10.26 50.468 0.239 7.05 14.94 10.07
4/5/2021 3:00:00 AM 10.27 50.486 0.238 7.05 11.6 10.08
4/5/2021 3:15:00 AM 10.2 50.36 0.238 7.04 11.3 10.14
4/5/2021 3:30:00 AM 10.16 50.288 0.238 7.04 12.2 10.15
4/5/2021 3:45:00 AM 10.12 50.216 0.238 7.04 11.33 10.17
4/5/2021 4:00:00 AM 10.08 50.144 0.238 7.04 12.89 10.19
4/5/2021 4:15:00 AM 10.03 50.054 0.239 7.03 11.66 10.23
4/5/2021 4:30:00 AM 10 50 0.238 7.03 11.39 10.23
4/5/2021 4:45:00 AM 9.93 49.874 0.24 7.03 16.05 10.25
4/5/2021 5:00:00 AM 9.92 49.856 0.238 7.03 11.94 10.25
4/5/2021 5:15:00 AM 9.86 49.748 0.238 7.03 11.65 10.29
4/5/2021 5:30:00 AM 9.83 49.694 0.237 7.03 11.61 10.29
4/5/2021 5:45:00 AM 9.78 49.604 0.239 7.02 11.51 10.33
4/5/2021 6:00:00 AM 9.74 49.532 0.238 7.02 11.19 10.33
4/5/2021 6:15:00 AM 9.7 49.46 0.238 7.01 10.54 10.36
4/5/2021 6:30:00 AM 9.64 49.352 0.238 7.02 10.39 10.38
4/5/2021 6:45:00 AM 9.6 49.28 0.238 7.01 10.7 10.39
4/5/2021 7:00:00 AM 9.56 49.208 0.238 7 10.85 10.43
4/5/2021 7:15:00 AM 9.52 49.136 0.239 7.01 12.81 10.44
4/5/2021 7:30:00 AM 9.49 49.082 0.238 7 9.73 10.52
4/5/2021 7:45:00 AM 9.48 49.064 0.237 7 9.94 10.6
4/5/2021 8:00:00 AM 9.48 49.064 0.237 7.01 9.89 10.71
4/5/2021 8:15:00 AM 9.49 49.082 0.237 7.03 10.84 10.82
4/5/2021 8:30:00 AM 9.51 49.118 0.237 7.04 10.19 10.96
4/5/2021 8:45:00 AM 9.54 49.172 0.238 7.04 11.64 11.08
4/5/2021 9:00:00 AM 9.61 49.298 0.237 7.06 9.79 11.17
4/5/2021 9:15:00 AM 9.7 49.46 0.237 7.08 12.11 11.27
4/5/2021 9:30:00 AM 9.77 49.586 0.236 7.08 9.86 11.35
4/5/2021 9:45:00 AM 9.87 49.766 0.237 7.1 9.12 11.39
4/5/2021 10:00:00 AM 9.97 49.946 0.236 7.1 9.84 11.46
4/5/2021 10:15:00 AM 10.09 50.162 0.236 7.12 9.88 11.51
4/5/2021 10:30:00 AM 10.24 50.432 0.236 7.15 10.77 11.56
4/5/2021 10:45:00 AM 10.39 50.702 0.236 7.16 10 11.62
4/5/2021 11:00:00 AM 10.54 50.972 0.237 7.19 10.15 11.68
4/5/2021 11:15:00 AM 10.69 51.242 0.236 7.2 9.53 11.72
4/5/2021 11:30:00 AM 10.87 51.566 0.236 7.23 11.59 11.78
4/5/2021 11:45:00 AM 11.05 51.89 0.236 7.26 9.75 11.81
4/5/2021 12:00:00 PM 11.23 52.214 0.235 7.27 9.46 11.85
4/5/2021 12:15:00 PM 11.4 52.52 0.236 7.3 10.8 11.87
4/5/2021 12:30:00 PM 11.57 52.826 0.235 7.33 10.03 11.9
4/5/2021 12:45:00 PM 11.74 53.132 0.236 7.36 9.55 11.93
4/5/2021 1:00:00 PM 11.9 53.42 0.236 7.37 9.79 11.95
4/5/2021 1:15:00 PM 12.05 53.69 0.236 7.4 9.83 11.96
4/5/2021 1:30:00 PM 12.21 53.978 0.236 7.43 9.31 11.98
4/5/2021 1:45:00 PM 12.34 54.212 0.236 7.45 9.18 11.99
4/5/2021 2:00:00 PM 12.45 54.41 0.237 7.49 9.4 11.98
4/5/2021 2:15:00 PM 12.54 54.572 0.237 7.51 10.38 11.98
4/5/2021 2:30:00 PM 12.61 54.698 0.236 7.54 10.1 11.97
4/5/2021 2:45:00 PM 12.68 54.824 0.236 7.56 10.4 11.97
4/5/2021 3:00:00 PM 12.76 54.968 0.236 7.58 10.59 11.95
4/5/2021 3:15:00 PM 12.76 54.968 0.237 7.6 9.73 11.96
4/5/2021 3:30:00 PM 12.81 55.058 0.237 7.62 9.44 11.94
4/5/2021 3:45:00 PM 12.82 55.076 0.237 7.65 19.39 11.94
4/5/2021 4:00:00 PM 12.83 55.094 0.238 7.67 9.96 11.89
4/5/2021 4:15:00 PM 12.81 55.058 0.238 7.71 8.63 11.87
4/5/2021 4:30:00 PM 12.83 55.094 0.238 7.71 8.68 11.83
4/5/2021 4:45:00 PM 12.76 54.968 0.238 7.74 9.2 11.79
4/5/2021 5:00:00 PM 12.69 54.842 0.239 7.75 9.21 11.71
4/5/2021 5:15:00 PM 12.65 54.77 0.238 7.75 9.23 11.65
4/5/2021 5:30:00 PM 12.58 54.644 0.237 7.74 8.9 11.58
4/5/2021 5:45:00 PM 12.47 54.446 0.238 7.74 18.99 11.52
4/5/2021 6:00:00 PM 12.38 54.284 0.239 7.74 8.45 11.43
4/5/2021 6:15:00 PM 12.33 54.194 0.239 7.72 8.35 11.32
4/5/2021 6:30:00 PM 12.25 54.05 0.24 7.71 9.26 11.22
4/5/2021 6:45:00 PM 12.17 53.906 0.239 7.68 9.86 11.04
4/5/2021 7:00:00 PM 12.09 53.762 0.239 7.66 10.63 10.86
4/5/2021 7:15:00 PM 11.92 53.456 0.24 7.61 10.5 10.67
4/5/2021 7:30:00 PM 11.83 53.294 0.24 7.54 11.09 10.48
4/5/2021 7:45:00 PM 11.77 53.186 0.239 7.49 12.23 10.34
4/5/2021 8:00:00 PM 11.71 53.078 0.239 7.47 11.95 10.25
4/5/2021 8:15:00 PM 11.67 53.006 0.239 7.43 12.36 10.18
4/5/2021 8:30:00 PM 11.78 53.204 0.237 7.39 11.37 10.13
4/5/2021 8:45:00 PM 11.72 53.096 0.239 7.38 10.84 10.12
4/5/2021 9:00:00 PM 11.73 53.114 0.239 7.36 10.84 10.08
4/5/2021 9:15:00 PM 11.75 53.15 0.239 7.34 12.47 10.03
4/5/2021 9:30:00 PM 11.67 53.006 0.239 7.31 9.74 10.01
4/5/2021 9:45:00 PM 11.69 53.042 0.238 7.3 10.47 9.96
4/5/2021 10:00:00 PM 11.69 53.042 0.238 7.27 14.95 9.95
4/5/2021 10:15:00 PM 11.68 53.024 0.238 7.25 13.27 9.89
4/5/2021 10:30:00 PM 11.71 53.078 0.238 7.23 11.58 9.9
4/5/2021 10:45:00 PM 11.67 53.006 0.238 7.22 16.52 9.88
4/5/2021 11:00:00 PM 11.71 53.078 0.238 7.21 12.93 9.87
4/5/2021 11:15:00 PM 11.72 53.096 0.239 7.21 9.84 9.86
4/5/2021 11:30:00 PM 11.75 53.15 0.238 7.19 10.15 9.83
4/5/2021 11:45:00 PM 11.74 53.132 0.237 7.18 11.04 9.82
4/6/2021 12:00:00 AM 11.76 53.168 0.238 7.18 10.52 9.82
4/6/2021 12:15:00 AM 11.69 53.042 0.238 7.17 12.4 9.8
4/6/2021 12:30:00 AM 11.72 53.096 0.237 7.16 10.48 9.77
4/6/2021 12:45:00 AM 11.71 53.078 0.237 7.14 9.7 9.77
4/6/2021 1:00:00 AM 11.64 52.952 0.238 7.13 9.79 9.78
4/6/2021 1:15:00 AM 11.63 52.934 0.237 7.11 10.95 9.77
4/6/2021 1:30:00 AM 11.59 52.862 0.238 7.12 11.03 9.74
4/6/2021 1:45:00 AM 11.59 52.862 0.237 7.1 12.03 9.73
4/6/2021 2:00:00 AM 11.56 52.808 0.238 7.09 10.66 9.71
4/6/2021 2:15:00 AM 11.54 52.772 0.238 7.08 14.28 9.71
4/6/2021 2:30:00 AM 11.49 52.682 0.238 7.07 11.17 9.73
4/6/2021 2:45:00 AM 11.49 52.682 0.238 7.08 10.93 9.73
4/6/2021 3:00:00 AM 11.46 52.628 0.238 7.06 11.11 9.76
4/6/2021 3:15:00 AM 11.44 52.592 0.237 7.06 15.04 9.75
4/6/2021 3:30:00 AM 11.38 52.484 0.238 7.06 11.89 9.79
4/6/2021 3:45:00 AM 11.39 52.502 0.238 7.06 9.88 9.78
4/6/2021 4:00:00 AM 11.37 52.466 0.238 7.05 9.93 9.82
4/6/2021 4:15:00 AM 11.39 52.502 0.238 7.05 10.3 9.83
4/6/2021 4:30:00 AM 11.34 52.412 0.238 7.05 11.62 9.82
4/6/2021 4:45:00 AM 11.28 52.304 0.238 7.05 13.4 9.81
4/6/2021 5:00:00 AM 11.25 52.25 0.238 7.04 10.38 9.83
4/6/2021 5:15:00 AM 11.23 52.214 0.238 7.04 10.33 9.85
4/6/2021 5:30:00 AM 11.14 52.052 0.238 7.04 11.75 9.85
4/6/2021 5:45:00 AM 11.15 52.07 0.237 7.03 10.43 9.86
4/6/2021 6:00:00 AM 11.06 51.908 0.237 7.02 16.43 9.88
4/6/2021 6:15:00 AM 11 51.8 0.238 7.02 10.53 9.89
4/6/2021 6:30:00 AM 10.96 51.728 0.238 7.02 10.73 9.87
4/6/2021 6:45:00 AM 10.89 51.602 0.238 7.03 12.38 9.88
4/6/2021 7:00:00 AM 10.85 51.53 0.238 7.02 10.71 9.89
4/6/2021 7:15:00 AM 10.77 51.386 0.237 7 10.6 9.92
4/6/2021 7:30:00 AM 10.74 51.332 0.236 7 10.21 9.96
4/6/2021 7:45:00 AM 10.77 51.386 0.236 7 9.78 10.04
4/6/2021 8:00:00 AM 10.71 51.278 0.236 7 9.63 10.14
4/6/2021 8:15:00 AM 10.77 51.386 0.235 7.01 10.31 10.25
4/6/2021 8:30:00 AM 10.77 51.386 0.236 7.02 9.85 10.4
4/6/2021 8:45:00 AM 10.9 51.62 0.236 7.04 10.13 10.57
4/6/2021 9:00:00 AM 10.95 51.71 0.235 7.06 11.28 10.68
4/6/2021 9:15:00 AM 11 51.8 0.235 7.07 10.13 10.78
4/6/2021 9:30:00 AM 11.06 51.908 0.235 7.08 9.79 10.82
4/6/2021 9:45:00 AM 11.1 51.98 0.235 7.1 10.19 10.96
4/6/2021 10:00:00 AM 11.19 52.142 0.234 7.13 10.71 11.05
4/6/2021 10:15:00 AM 11.35 52.43 0.234 7.15 8.82 11.18
4/6/2021 10:30:00 AM 11.52 52.736 0.234 7.18 9.24 11.29
4/6/2021 10:45:00 AM 11.66 52.988 0.234 7.2 8.1 11.37
4/6/2021 11:00:00 AM 11.84 53.312 0.234 7.23 9.31 11.44
4/6/2021 11:15:00 AM 11.9 53.42 0.235 7.27 9.19 11.48
4/6/2021 11:30:00 AM 11.94 53.492 0.235 7.28 11.35 11.49
4/6/2021 11:45:00 AM 11.99 53.582 0.235 7.32 8.9 11.5
4/6/2021 12:00:00 PM 12.16 53.888 0.235 7.34 8.61 11.6
4/6/2021 12:15:00 PM 12.35 54.23 0.234 7.37 10.1 11.66
4/6/2021 12:30:00 PM 12.56 54.608 0.235 7.41 10.01 11.68
4/6/2021 12:45:00 PM 12.75 54.95 0.235 7.45 8.85 11.75
4/6/2021 1:00:00 PM 12.98 55.364 0.233 7.46 9.12 11.75
4/6/2021 1:15:00 PM 13.12 55.616 0.234 7.51 9.36 11.78
4/6/2021 1:30:00 PM 13.3 55.94 0.236 7.53 9.4 11.76
4/6/2021 1:45:00 PM 13.46 56.228 0.236 7.56 9.47 11.76
4/6/2021 2:00:00 PM 13.62 56.516 0.235 7.59 9.24 11.74
4/6/2021 2:15:00 PM 13.73 56.714 0.235 7.62 8.92 11.73
4/6/2021 2:30:00 PM 13.82 56.876 0.236 7.64 8.21 11.74
4/6/2021 2:45:00 PM 13.88 56.984 0.235 7.67 9.12 11.73
4/6/2021 3:00:00 PM 14.03 57.254 0.235 7.7 9.8 11.68
4/6/2021 3:15:00 PM 14.02 57.236 0.236 7.72 8.2 11.68
4/6/2021 3:30:00 PM 13.98 57.164 0.236 7.74 9.24 11.66
4/6/2021 3:45:00 PM 14.07 57.326 0.235 7.77 10.28 11.62
4/6/2021 4:00:00 PM 14.08 57.344 0.237 7.79 9.66 11.58
4/6/2021 4:15:00 PM 14.03 57.254 0.236 7.81 9.42 11.55
4/6/2021 4:30:00 PM 14.09 57.362 0.236 7.83 8.86 11.49
4/6/2021 4:45:00 PM 14.09 57.362 0.236 7.84 7.76 11.44
4/6/2021 5:00:00 PM 13.9 57.02 0.238 7.84 9.13 11.37
4/6/2021 5:15:00 PM 13.93 57.074 0.237 7.84 10.14 11.26
4/6/2021 5:30:00 PM 13.85 56.93 0.237 7.83 7.53 11.18
4/6/2021 5:45:00 PM 13.62 56.516 0.238 7.81 8.04 11.04
4/6/2021 6:00:00 PM 13.55 56.39 0.238 7.78 10.32 10.86
4/6/2021 6:15:00 PM 13.51 56.318 0.238 7.75 12.5 10.73
4/6/2021 6:30:00 PM 13.46 56.228 0.238 7.72 9.24 10.62
4/6/2021 6:45:00 PM 13.4 56.12 0.238 7.69 10.48 10.54
4/6/2021 7:00:00 PM 13.41 56.138 0.238 7.67 8.62 10.45
4/6/2021 7:15:00 PM 13.29 55.922 0.238 7.64 8.86 10.38
4/6/2021 7:30:00 PM 13.22 55.796 0.238 7.61 9.65 10.26
4/6/2021 7:45:00 PM 13.2 55.76 0.237 7.57 10.31 10.11
4/6/2021 8:00:00 PM 13.01 55.418 0.238 7.54 10.42 9.98
4/6/2021 8:15:00 PM 12.82 55.076 0.239 7.49 9.57 9.9
4/6/2021 8:30:00 PM 12.97 55.346 0.238 7.46 9.43 9.79
4/6/2021 8:45:00 PM 12.87 55.166 0.238 7.44 9.64 9.73
4/6/2021 9:00:00 PM 12.78 55.004 0.239 7.39 9.69 9.66
4/6/2021 9:15:00 PM 12.72 54.896 0.238 7.37 11.8 9.59
4/6/2021 9:30:00 PM 12.77 54.986 0.238 7.35 13.3 9.54
4/6/2021 9:45:00 PM 12.71 54.878 0.238 7.33 11.7 9.53
4/6/2021 10:00:00 PM 12.71 54.878 0.238 7.31 12.17 9.51
4/6/2021 10:15:00 PM 12.69 54.842 0.238 7.27 10.3 9.5
4/6/2021 10:30:00 PM 12.7 54.86 0.237 7.27 9.81 9.5
4/6/2021 10:45:00 PM 12.68 54.824 0.237 7.24 10.87 9.49
4/6/2021 11:00:00 PM 12.62 54.716 0.238 7.24 9.98 9.5
4/6/2021 11:15:00 PM 12.65 54.77 0.237 7.24 10.09 9.49
4/6/2021 11:30:00 PM 12.58 54.644 0.237 7.23 11.43 9.49
4/6/2021 11:45:00 PM 12.68 54.824 0.238 7.22 11.41 9.49
4/7/2021 12:00:00 AM 12.62 54.716 0.237 7.21 10.98 9.49
4/7/2021 12:15:00 AM 12.59 54.662 0.237 7.21 9.89 9.53
4/7/2021 12:30:00 AM 12.61 54.698 0.237 7.21 10.49 9.54
4/7/2021 12:45:00 AM 12.65 54.77 0.236 7.2 12.06 9.55
4/7/2021 1:00:00 AM 12.53 54.554 0.237 7.21 10.21 9.58
4/7/2021 1:15:00 AM 12.5 54.5 0.237 7.21 9.16 9.6
4/7/2021 1:30:00 AM 12.46 54.428 0.238 7.21 8.71 9.6
4/7/2021 1:45:00 AM 12.45 54.41 0.237 7.2 9.08 9.62
4/7/2021 2:00:00 AM 12.43 54.374 0.237 7.2 10.39 9.62
4/7/2021 2:15:00 AM 12.47 54.446 0.237 7.2 8.28 9.63
4/7/2021 2:30:00 AM 12.42 54.356 0.237 7.18 11.16 9.62
4/7/2021 2:45:00 AM 12.34 54.212 0.237 7.17 11.46 9.61
4/7/2021 3:00:00 AM 12.3 54.14 0.236 7.18 10.41 9.57
4/7/2021 3:15:00 AM 12.12 53.816 0.237 7.14 10.24 9.53
4/7/2021 3:30:00 AM 12.06 53.708 0.236 7.15 11.77 9.47
4/7/2021 3:45:00 AM 12 53.6 0.237 7.12 11.04 9.4
4/7/2021 4:00:00 AM 11.86 53.348 0.238 7.1 12.21 9.34
4/7/2021 4:15:00 AM 11.82 53.276 0.238 7.09 11.3 9.31
4/7/2021 4:30:00 AM 11.81 53.258 0.238 7.09 12.23 9.31
4/7/2021 4:45:00 AM 11.75 53.15 0.239 7.08 18.91 9.33
4/7/2021 5:00:00 AM 11.75 53.15 0.238 7.06 13.14 9.37
4/7/2021 5:15:00 AM 11.77 53.186 0.237 7.06 12.71 9.42
4/7/2021 5:30:00 AM 11.79 53.222 0.236 7.06 13.53 9.44
4/7/2021 5:45:00 AM 11.69 53.042 0.237 7.06 12.55 9.48
4/7/2021 6:00:00 AM 11.67 53.006 0.237 7.05 12.31 9.49
4/7/2021 6:15:00 AM 11.62 52.916 0.237 7.04 11.08 9.5
4/7/2021 6:30:00 AM 11.56 52.808 0.238 7.03 10.91 9.51
4/7/2021 6:45:00 AM 11.54 52.772 0.236 7.02 13.82 9.52
4/7/2021 7:00:00 AM 11.53 52.754 0.237 7.03 11.51 9.53
4/7/2021 7:15:00 AM 11.49 52.682 0.237 7.02 10.21 9.59
4/7/2021 7:30:00 AM 11.47 52.646 0.236 7.03 10.56 9.65
4/7/2021 7:45:00 AM 11.46 52.628 0.237 7.02 10.11 9.73
4/7/2021 8:00:00 AM 11.51 52.718 0.235 7.02 9.28 9.82
4/7/2021 8:15:00 AM 11.47 52.646 0.236 7.03 10.2 9.97
4/7/2021 8:30:00 AM 11.51 52.718 0.236 7.04 11.56 10.09
4/7/2021 8:45:00 AM 11.59 52.862 0.236 7.05 8.69 10.24
4/7/2021 9:00:00 AM 11.68 53.024 0.234 7.06 10.52 10.41
4/7/2021 9:15:00 AM 11.73 53.114 0.235 7.09 9.17 10.57
4/7/2021 9:30:00 AM 11.73 53.114 0.235 7.11 9.37 10.68
4/7/2021 9:45:00 AM 11.81 53.258 0.235 7.12 8.82 10.78
4/7/2021 10:00:00 AM 11.93 53.474 0.234 7.15 10.23 10.86
4/7/2021 10:15:00 AM 12.05 53.69 0.233 7.16 10.17 10.95
4/7/2021 10:30:00 AM 12.17 53.906 0.233 7.18 11.82 11
4/7/2021 10:45:00 AM 12.25 54.05 0.233 7.22 9.28 11.08
4/7/2021 11:00:00 AM 12.33 54.194 0.234 7.25 9.96 11.16
4/7/2021 11:15:00 AM 12.52 54.536 0.233 7.27 9.31 11.23
4/7/2021 11:30:00 AM 12.67 54.806 0.234 7.29 9.6 11.3
4/7/2021 11:45:00 AM 12.88 55.184 0.234 7.33 11.28 11.38
4/7/2021 12:00:00 PM 13.04 55.472 0.234 7.36 9.24 11.46
4/7/2021 12:15:00 PM 13.27 55.886 0.233 7.4 9.81 11.53
4/7/2021 12:30:00 PM 13.29 55.922 0.235 7.43 9.32 11.55
4/7/2021 12:45:00 PM 13.47 56.246 0.233 7.46 8.72 11.57
4/7/2021 1:00:00 PM 13.57 56.426 0.234 7.49 16.76 11.6
4/7/2021 1:15:00 PM 13.69 56.642 0.234 7.54 8.07 11.63
4/7/2021 1:30:00 PM 13.86 56.948 0.234 7.57 8.53 11.63
4/7/2021 1:45:00 PM 13.95 57.11 0.234 7.61 8.73 11.64
4/7/2021 2:00:00 PM 14.12 57.416 0.235 7.64 9.26 11.66
4/7/2021 2:15:00 PM 14.27 57.686 0.235 7.67 7.69 11.65
4/7/2021 2:30:00 PM 14.32 57.776 0.236 7.7 7.89 11.64
4/7/2021 2:45:00 PM 14.35 57.83 0.236 7.72 8.32 11.62
4/7/2021 3:00:00 PM 14.47 58.046 0.235 7.75 7.87 11.61
4/7/2021 3:15:00 PM 14.5 58.1 0.236 7.77 8.02 11.58
4/7/2021 3:30:00 PM 14.56 58.208 0.236 7.8 7.97 11.58
4/7/2021 3:45:00 PM 14.56 58.208 0.236 7.82 7.81 11.54
4/7/2021 4:00:00 PM 14.61 58.298 0.237 7.84 8.13 11.49
4/7/2021 4:15:00 PM 14.65 58.37 0.237 7.87 8.11 11.45
4/7/2021 4:30:00 PM 14.59 58.262 0.237 7.88 7.83 11.38
4/7/2021 4:45:00 PM 14.5 58.1 0.238 7.88 7.76 11.33
4/7/2021 5:00:00 PM 14.53 58.154 0.237 7.88 8.31 11.22
4/7/2021 5:15:00 PM 14.45 58.01 0.237 7.88 7.92 11.16
4/7/2021 5:30:00 PM 14.5 58.1 0.237 7.88 8.39 11.06
4/7/2021 5:45:00 PM 14.24 57.632 0.236 7.87 8.11 11.03
4/7/2021 6:00:00 PM 14.24 57.632 0.237 7.85 7.73 10.89
4/7/2021 6:15:00 PM 14.29 57.722 0.237 7.83 8.2 10.75
4/7/2021 6:30:00 PM 14.14 57.452 0.237 7.81 8.55 10.64
4/7/2021 6:45:00 PM 14.09 57.362 0.238 7.79 8.2 10.54
4/7/2021 7:00:00 PM 14.07 57.326 0.238 7.76 8.48 10.39
4/7/2021 7:15:00 PM 13.93 57.074 0.238 7.73 8.86 10.25
4/7/2021 7:30:00 PM 13.87 56.966 0.238 7.68 9.29 10.12
4/7/2021 7:45:00 PM 13.77 56.786 0.238 7.65 13.78 9.98
4/7/2021 8:00:00 PM 13.68 56.624 0.238 7.6 8.89 9.86
4/7/2021 8:15:00 PM 13.59 56.462 0.237 7.56 8.58 9.72
4/7/2021 8:30:00 PM 13.51 56.318 0.238 7.51 10.25 9.6
4/7/2021 8:45:00 PM 13.54 56.372 0.238 7.47 9.9 9.45
4/7/2021 9:00:00 PM 13.46 56.228 0.239 7.43 11.27 9.34
4/7/2021 9:15:00 PM 13.45 56.21 0.239 7.4 11.17 9.28
4/7/2021 9:30:00 PM 13.38 56.084 0.238 7.37 11.42 9.25
4/7/2021 9:45:00 PM 13.47 56.246 0.237 7.34 10.8 9.22
4/7/2021 10:00:00 PM 13.39 56.102 0.238 7.32 10.59 9.22
4/7/2021 10:15:00 PM 13.41 56.138 0.238 7.29 10.32 9.21
4/7/2021 10:30:00 PM 13.34 56.012 0.237 7.27 11.52 9.15
4/7/2021 10:45:00 PM 13.3 55.94 0.237 7.25 11.98 9.14
4/7/2021 11:00:00 PM 13.22 55.796 0.237 7.24 12.45 9.15
4/7/2021 11:15:00 PM 13.23 55.814 0.239 7.22 10.53 9.15
4/7/2021 11:30:00 PM 13.18 55.724 0.239 7.21 12.91 9.17
4/7/2021 11:45:00 PM 13.26 55.868 0.238 7.2 10.56 9.18
4/8/2021 12:00:00 AM 13.24 55.832 0.238 7.2 10.13 9.2
4/8/2021 12:15:00 AM 13.25 55.85 0.238 7.19 10.61 9.22
4/8/2021 12:30:00 AM 13.19 55.742 0.238 7.19 13.77 9.23
4/8/2021 12:45:00 AM 13.12 55.616 0.238 7.18 9.49 9.23
4/8/2021 1:00:00 AM 12.99 55.382 0.238 7.17 11.29 9.23
4/8/2021 1:15:00 AM 12.95 55.31 0.238 7.16 10.89 9.22
4/8/2021 1:30:00 AM 12.97 55.346 0.238 7.15 20.67 9.21
4/8/2021 1:45:00 AM 12.9 55.22 0.238 7.14 11.62 9.23
4/8/2021 2:00:00 AM 12.95 55.31 0.238 7.14 11.07 9.23
4/8/2021 2:15:00 AM 12.86 55.148 0.238 7.13 13.06 9.25
4/8/2021 2:30:00 AM 12.83 55.094 0.238 7.13 9.92 9.24
4/8/2021 2:45:00 AM 12.81 55.058 0.239 7.12 10.13 9.23
4/8/2021 3:00:00 AM 12.74 54.932 0.238 7.12 10.95 9.23
4/8/2021 3:15:00 AM 12.72 54.896 0.237 7.11 10.2 9.24
4/8/2021 3:30:00 AM 12.66 54.788 0.238 7.11 10.88 9.24
4/8/2021 3:45:00 AM 12.63 54.734 0.238 7.1 12.55 9.24
4/8/2021 4:00:00 AM 12.51 54.518 0.239 7.09 10.79 9.24
4/8/2021 4:15:00 AM 12.49 54.482 0.238 7.08 13.83 9.25
4/8/2021 4:30:00 AM 12.43 54.374 0.239 7.08 11.36 9.26
4/8/2021 4:45:00 AM 12.41 54.338 0.239 7.08 10.71 9.26
4/8/2021 5:00:00 AM 12.34 54.212 0.239 7.07 11.65 9.29
4/8/2021 5:15:00 AM 12.38 54.284 0.238 7.06 12.9 9.28
4/8/2021 5:30:00 AM 12.3 54.14 0.238 7.05 10.2 9.28
4/8/2021 5:45:00 AM 12.24 54.032 0.238 7.05 11.31 9.31
4/8/2021 6:00:00 AM 12.17 53.906 0.238 7.05 12.15 9.31
4/8/2021 6:15:00 AM 12.16 53.888 0.238 7.04 12.9 9.3
4/8/2021 6:30:00 AM 12.07 53.726 0.238 7.04 11.07 9.29
4/8/2021 6:45:00 AM 12.09 53.762 0.238 7.03 11.79 9.3
4/8/2021 7:00:00 AM 11.99 53.582 0.238 7.03 12.82 9.32
4/8/2021 7:15:00 AM 11.96 53.528 0.238 7.02 10.8 9.38
4/8/2021 7:30:00 AM 11.96 53.528 0.237 7.03 9.91 9.45
4/8/2021 7:45:00 AM 11.97 53.546 0.237 7.02 11.26 9.58
4/8/2021 8:00:00 AM 11.97 53.546 0.236 7.03 10.87 9.68
4/8/2021 8:15:00 AM 11.96 53.528 0.236 7.04 12.56 9.8
4/8/2021 8:30:00 AM 11.97 53.546 0.236 7.05 12.72 9.94
4/8/2021 8:45:00 AM 11.99 53.582 0.237 7.06 10.91 10.1
4/8/2021 9:00:00 AM 12.08 53.744 0.236 7.08 9.91 10.24
4/8/2021 9:15:00 AM 12.15 53.87 0.236 7.09 11.24 10.38
4/8/2021 9:30:00 AM 12.25 54.05 0.235 7.13 8.59 10.54
4/8/2021 9:45:00 AM 12.34 54.212 0.235 7.15 10.38 10.68
4/8/2021 10:00:00 AM 12.51 54.518 0.234 7.17 9.79 10.8
4/8/2021 10:15:00 AM 12.56 54.608 0.235 7.22 8.78 10.92
4/8/2021 10:30:00 AM 12.73 54.914 0.235 7.24 8.53 11.01
4/8/2021 10:45:00 AM 12.92 55.256 0.234 7.25 9.54 11.09
4/8/2021 11:00:00 AM 13.09 55.562 0.234 7.29 8.87 11.16
4/8/2021 11:15:00 AM 13.19 55.742 0.235 7.32 11.64 11.24
4/8/2021 11:30:00 AM 13.39 56.102 0.234 7.36 9.28 11.29
4/8/2021 11:45:00 AM 13.56 56.408 0.234 7.4 8.65 11.36
4/8/2021 12:00:00 PM 13.7 56.66 0.235 7.44 7.31 11.4
4/8/2021 12:15:00 PM 13.89 57.002 0.235 7.46 8.77 11.41
4/8/2021 12:30:00 PM 14.03 57.254 0.234 7.49 10.14 11.41
4/8/2021 12:45:00 PM 14.18 57.524 0.235 7.53 8.65 11.43
4/8/2021 1:00:00 PM 14.29 57.722 0.235 7.55 9.22 11.43
4/8/2021 1:15:00 PM 14.49 58.082 0.235 7.58 9.1 11.45
4/8/2021 1:30:00 PM 15.04 59.072 0.233 7.64 10.91 11.48
4/8/2021 1:45:00 PM 15.54 59.972 0.231 7.67 8.65 11.52
4/8/2021 2:00:00 PM 15.88 60.584 0.231 7.71 7.53 11.57
4/8/2021 2:15:00 PM 16.14 61.052 0.231 7.74 11.52 11.6
4/8/2021 2:30:00 PM 16.38 61.484 0.232 7.77 7.83 11.59
4/8/2021 2:45:00 PM 16.63 61.934 0.233 7.83 7.58 11.59
4/8/2021 3:00:00 PM 16.79 62.222 0.234 7.88 7.48 11.58
4/8/2021 3:15:00 PM 16.88 62.384 0.237 7.91 8.97 11.54
4/8/2021 3:30:00 PM 16.95 62.51 0.236 7.97 9.7 11.47
4/8/2021 3:45:00 PM 16.91 62.438 0.236 8 8.74 11.4
4/8/2021 4:00:00 PM 16.8 62.24 0.235 8.04 10.72 11.34
4/8/2021 4:15:00 PM 16.68 62.024 0.236 8.06 9.16 11.3
4/8/2021 4:30:00 PM 16.56 61.808 0.237 8.09 9.58 11.23
4/8/2021 4:45:00 PM 16.52 61.736 0.237 8.11 9.5 11.18
4/8/2021 5:00:00 PM 16.49 61.682 0.237 8.12 8.46 11.09
4/8/2021 5:15:00 PM 16.41 61.538 0.237 8.13 8.45 11.01
4/8/2021 5:30:00 PM 16.29 61.322 0.237 8.14 9.24 10.93
4/8/2021 5:45:00 PM 16.16 61.088 0.237 8.12 9.01 10.84
4/8/2021 6:00:00 PM 16.02 60.836 0.236 8.11 7.9 10.71
4/8/2021 6:15:00 PM 15.9 60.62 0.237 8.1 10.15 10.59
4/8/2021 6:30:00 PM 15.83 60.494 0.238 8.09 7.79 10.43
4/8/2021 6:45:00 PM 15.75 60.35 0.238 8.05 9.02 10.26
4/8/2021 7:00:00 PM 15.6 60.08 0.239 8.01 7.53 10.12
4/8/2021 7:15:00 PM 15.51 59.918 0.239 7.98 7.67 9.95
4/8/2021 7:30:00 PM 15.39 59.702 0.239 7.93 8.28 9.79
4/8/2021 7:45:00 PM 15.29 59.522 0.238 7.88 10.17 9.64
4/8/2021 8:00:00 PM 15.2 59.36 0.238 7.82 8.47 9.47
4/8/2021 8:15:00 PM 15.12 59.216 0.238 7.77 12.11 9.34
4/8/2021 8:30:00 PM 14.95 58.91 0.239 7.71 10 9.26
4/8/2021 8:45:00 PM 14.94 58.892 0.239 7.68 12.05 9.19
4/8/2021 9:00:00 PM 14.9 58.82 0.238 7.64 10.19 9.12
4/8/2021 9:15:00 PM 14.83 58.694 0.239 7.6 9.77 9.05
4/8/2021 9:30:00 PM 14.81 58.658 0.239 7.57 11.54 9.01
4/8/2021 9:45:00 PM 14.72 58.496 0.238 7.54 12.72 8.97
4/8/2021 10:00:00 PM 14.72 58.496 0.238 7.5 11.56 8.96
4/8/2021 10:15:00 PM 14.68 58.424 0.238 7.49 10.98 8.93
4/8/2021 10:30:00 PM 14.65 58.37 0.238 7.46 10.97 8.9
4/8/2021 10:45:00 PM 14.62 58.316 0.238 7.44 11.34 8.9
4/8/2021 11:00:00 PM 14.56 58.208 0.237 7.42 10.96 8.91
4/8/2021 11:15:00 PM 14.55 58.19 0.238 7.4 11.38 8.88
4/8/2021 11:30:00 PM 14.53 58.154 0.238 7.39 13.65 8.88
4/8/2021 11:45:00 PM 14.57 58.226 0.238 7.38 14.91 8.87
4/9/2021 12:00:00 AM 14.53 58.154 0.238 7.36 10.69 8.88
4/9/2021 12:15:00 AM 14.43 57.974 0.239 7.35 11.08 8.88
4/9/2021 12:30:00 AM 14.45 58.01 0.238 7.35 10.2 8.85
4/9/2021 12:45:00 AM 14.41 57.938 0.237 7.34 12.69 8.87
4/9/2021 1:00:00 AM 14.33 57.794 0.237 7.32 10.72 8.86
4/9/2021 1:15:00 AM 14.26 57.668 0.237 7.3 10.69 8.85
4/9/2021 1:30:00 AM 14.27 57.686 0.237 7.3 11.37 8.86
4/9/2021 1:45:00 AM 14.18 57.524 0.238 7.29 10.63 8.85
4/9/2021 2:00:00 AM 14.17 57.506 0.238 7.27 13.55 8.85
4/9/2021 2:15:00 AM 14.13 57.434 0.238 7.27 11.66 8.86
4/9/2021 2:30:00 AM 14.07 57.326 0.239 7.26 11.56 8.85
4/9/2021 2:45:00 AM 14.06 57.308 0.238 7.27 9.84 8.86
4/9/2021 3:00:00 AM 14.1 57.38 0.237 7.26 11.76 8.85
4/9/2021 3:15:00 AM 14 57.2 0.238 7.25 11.64 8.85
4/9/2021 3:30:00 AM 14 57.2 0.237 7.23 11.03 8.87
4/9/2021 3:45:00 AM 13.95 57.11 0.237 7.23 11.14 8.89
4/9/2021 4:00:00 AM 13.87 56.966 0.238 7.23 10.78 8.91
4/9/2021 4:15:00 AM 13.85 56.93 0.238 7.22 11.58 8.91
4/9/2021 4:30:00 AM 13.85 56.93 0.238 7.22 13.88 8.92
4/9/2021 4:45:00 AM 13.81 56.858 0.238 7.22 11.1 8.92
4/9/2021 5:00:00 AM 13.74 56.732 0.238 7.2 11.52 8.92
4/9/2021 5:15:00 AM 13.72 56.696 0.238 7.2 12.6 8.94
4/9/2021 5:30:00 AM 13.69 56.642 0.237 7.2 11.48 8.94
4/9/2021 5:45:00 AM 13.65 56.57 0.237 7.2 17.09 8.95
4/9/2021 6:00:00 AM 13.63 56.534 0.236 7.2 11.98 8.97
4/9/2021 6:15:00 AM 13.6 56.48 0.237 7.19 12.26 8.99
4/9/2021 6:30:00 AM 13.55 56.39 0.237 7.2 17.18 9
4/9/2021 6:45:00 AM 13.55 56.39 0.237 7.17 14.41 9.02
4/9/2021 7:00:00 AM 13.55 56.39 0.237 7.17 9.87 9.06
4/9/2021 7:15:00 AM 13.52 56.336 0.237 7.17 10.44 9.11
4/9/2021 7:30:00 AM 13.51 56.318 0.237 7.19 12.29 9.15
4/9/2021 7:45:00 AM 13.5 56.3 0.236 7.18 10.65 9.19
4/9/2021 8:00:00 AM 13.47 56.246 0.236 7.19 10.65 9.25
4/9/2021 8:15:00 AM 13.48 56.264 0.236 7.18 10.78 9.32
4/9/2021 8:30:00 AM 13.45 56.21 0.236 7.19 9.44 9.4
4/9/2021 8:45:00 AM 13.42 56.156 0.236 7.2 9.64 9.46
4/9/2021 9:00:00 AM 13.44 56.192 0.234 7.21 9.35 9.52
4/9/2021 9:15:00 AM 13.41 56.138 0.235 7.2 12.05 9.52
4/9/2021 9:30:00 AM 13.42 56.156 0.235 7.22 10.48 9.52
4/9/2021 9:45:00 AM 13.41 56.138 0.235 7.21 8.99 9.6
4/9/2021 10:00:00 AM 13.42 56.156 0.235 7.22 8.08 9.72
4/9/2021 10:15:00 AM 13.46 56.228 0.234 7.24 8.54 9.85
4/9/2021 10:30:00 AM 13.52 56.336 0.233 7.25 9.44 9.98
4/9/2021 10:45:00 AM 13.56 56.408 0.234 7.27 8.36 10.07
4/9/2021 11:00:00 AM 13.64 56.552 0.239 7.3 12.87 10.17
4/9/2021 11:15:00 AM 13.26 55.868 0.239 7.3 29.07 10.1
4/9/2021 11:30:00 AM 12.68 54.824 0.237 7.24 15.77 10.26
4/9/2021 11:45:00 AM 12.72 54.896 0.235 7.28 12.2 10.35
4/9/2021 12:00:00 PM 12.9 55.22 0.234 7.29 13 10.41
4/9/2021 12:15:00 PM 12.93 55.274 0.235 7.32 11.01 10.51
4/9/2021 12:30:00 PM 13.17 55.706 0.235 7.34 11.04 10.51
4/9/2021 12:45:00 PM 13.14 55.652 0.235 7.37 11.13 10.53
4/9/2021 1:00:00 PM 13.14 55.652 0.235 7.38 9.45 10.59
4/9/2021 1:15:00 PM 13.18 55.724 0.235 7.39 9.64 10.59
4/9/2021 1:30:00 PM 13.17 55.706 0.236 7.42 9.71 10.64
4/9/2021 1:45:00 PM 13.23 55.814 0.236 7.43 9.31 10.72
4/9/2021 2:00:00 PM 13.23 55.814 0.236 7.45 10.23 10.74
4/9/2021 2:15:00 PM 13.22 55.796 0.236 7.45 20.19 10.67
4/9/2021 2:30:00 PM 13.19 55.742 0.236 7.45 12.89 10.6
4/9/2021 2:45:00 PM 13.18 55.724 0.235 7.46 11.21 10.58
4/9/2021 3:00:00 PM 13.14 55.652 0.236 7.46 9.9 10.56
4/9/2021 3:15:00 PM 13.1 55.58 0.236 7.45 10.73 10.57
4/9/2021 3:30:00 PM 13.09 55.562 0.236 7.46 11.97 10.57
4/9/2021 3:45:00 PM 13.06 55.508 0.237 7.46 9.93 10.54
4/9/2021 4:00:00 PM 13.06 55.508 0.237 7.45 11.38 10.47
4/9/2021 4:15:00 PM 13.03 55.454 0.237 7.46 11.88 10.45
4/9/2021 4:30:00 PM 13 55.4 0.238 7.45 9.01 10.39
4/9/2021 4:45:00 PM 12.97 55.346 0.238 7.44 8.83 10.4
4/9/2021 5:00:00 PM 13 55.4 0.237 7.44 10.13 10.39
4/9/2021 5:15:00 PM 12.98 55.364 0.236 7.43 10.74 10.35
4/9/2021 5:30:00 PM 12.92 55.256 0.238 7.42 9.26 10.3
4/9/2021 5:45:00 PM 12.94 55.292 0.237 7.42 8.46 10.33
4/9/2021 6:00:00 PM 12.95 55.31 0.237 7.42 8.28 10.37
4/9/2021 6:15:00 PM 12.94 55.292 0.238 7.41 8.51 10.31
4/9/2021 6:30:00 PM 12.9 55.22 0.238 7.42 8.46 10.29
4/9/2021 6:45:00 PM 12.87 55.166 0.238 7.42 8.19 10.24
4/9/2021 7:00:00 PM 12.85 55.13 0.238 7.39 9.88 10.2
4/9/2021 7:15:00 PM 12.86 55.148 0.238 7.39 8.34 10.12
4/9/2021 7:30:00 PM 12.85 55.13 0.237 7.39 8.76 10.04
4/9/2021 7:45:00 PM 12.8 55.04 0.237 7.37 9.41 9.99
4/9/2021 8:00:00 PM 12.77 54.986 0.236 7.34 10.24 9.92
4/9/2021 8:15:00 PM 12.69 54.842 0.237 7.34 10.51 9.85
4/9/2021 8:30:00 PM 12.65 54.77 0.237 7.31 9.24 9.81
4/9/2021 8:45:00 PM 12.6 54.68 0.238 7.29 9.89 9.73
4/9/2021 9:00:00 PM 12.56 54.608 0.238 7.27 10.79 9.67
4/9/2021 9:15:00 PM 12.57 54.626 0.238 7.26 10.85 9.62
4/9/2021 9:30:00 PM 12.51 54.518 0.238 7.24 12 9.57
4/9/2021 9:45:00 PM 12.51 54.518 0.237 7.23 11.86 9.56
4/9/2021 10:00:00 PM 12.45 54.41 0.237 7.21 12.64 9.54
4/9/2021 10:15:00 PM 12.45 54.41 0.236 7.2 11.43 9.55
4/9/2021 10:30:00 PM 12.42 54.356 0.237 7.18 10.82 9.54
4/9/2021 10:45:00 PM 12.4 54.32 0.237 7.17 10.96 9.54
4/9/2021 11:00:00 PM 12.41 54.338 0.236 7.16 12.56 9.54
4/9/2021 11:15:00 PM 12.37 54.266 0.237 7.16 10.97 9.58
4/9/2021 11:30:00 PM 12.37 54.266 0.237 7.16 13.44 9.58
4/9/2021 11:45:00 PM 12.35 54.23 0.237 7.16 9.95 9.58
4/10/2021 12:00:00 AM 12.34 54.212 0.236 7.15 10.68 9.58
4/10/2021 12:15:00 AM 12.32 54.176 0.237 7.13 10.93 9.58
4/10/2021 12:30:00 AM 12.3 54.14 0.237 7.13 11.6 9.57
4/10/2021 12:45:00 AM 12.29 54.122 0.236 7.13 10.74 9.58
4/10/2021 1:00:00 AM 12.29 54.122 0.236 7.13 9.69 9.58
4/10/2021 1:15:00 AM 12.25 54.05 0.237 7.13 10.83 9.59
4/10/2021 1:30:00 AM 12.28 54.104 0.236 7.13 12.08 9.6
4/10/2021 1:45:00 AM 12.25 54.05 0.237 7.11 13.14 9.59
4/10/2021 2:00:00 AM 12.23 54.014 0.237 7.11 11.63 9.6
4/10/2021 2:15:00 AM 12.25 54.05 0.236 7.11 12.58 9.61
4/10/2021 2:30:00 AM 12.24 54.032 0.236 7.1 11.08 9.62
4/10/2021 2:45:00 AM 12.19 53.942 0.237 7.1 10.19 9.61
4/10/2021 3:00:00 AM 12.2 53.96 0.236 7.09 11.41 9.62
4/10/2021 3:15:00 AM 12.18 53.924 0.236 7.1 11 9.62
4/10/2021 3:30:00 AM 12.14 53.852 0.236 7.1 11.1 9.62
4/10/2021 3:45:00 AM 12.14 53.852 0.236 7.09 12.58 9.61
4/10/2021 4:00:00 AM 12.12 53.816 0.237 7.09 11.75 9.61
4/10/2021 4:15:00 AM 12.09 53.762 0.238 7.08 10.68 9.61
4/10/2021 4:30:00 AM 12.09 53.762 0.237 7.08 15 9.61
4/10/2021 4:45:00 AM 12.07 53.726 0.237 7.09 12.37 9.61
4/10/2021 5:00:00 AM 12.05 53.69 0.237 7.08 16.98 9.61
4/10/2021 5:15:00 AM 12.06 53.708 0.236 7.07 10.54 9.61
4/10/2021 5:30:00 AM 12.04 53.672 0.236 7.08 13.38 9.6
4/10/2021 5:45:00 AM 12.02 53.636 0.236 7.07 10.95 9.61
4/10/2021 6:00:00 AM 12.01 53.618 0.236 7.06 12.93 9.6
4/10/2021 6:15:00 AM 12 53.6 0.237 7.06 11.33 9.61
4/10/2021 6:30:00 AM 12 53.6 0.236 7.06 11.61 9.61
4/10/2021 6:45:00 AM 11.99 53.582 0.236 7.06 10.05 9.62
4/10/2021 7:00:00 AM 11.98 53.564 0.236 7.05 12.29 9.62
4/10/2021 7:15:00 AM 11.99 53.582 0.236 7.06 10.59 9.65
4/10/2021 7:30:00 AM 11.98 53.564 0.236 7.06 10.21 9.7
4/10/2021 7:45:00 AM 11.99 53.582 0.236 7.06 9.59 9.77
4/10/2021 8:00:00 AM 12 53.6 0.236 7.06 9.42 9.88
4/10/2021 8:15:00 AM 12.02 53.636 0.236 7.07 12.07 9.99
4/10/2021 8:30:00 AM 12.04 53.672 0.236 7.08 9.1 10.1
4/10/2021 8:45:00 AM 12.06 53.708 0.236 7.1 10.1 10.17
4/10/2021 9:00:00 AM 12.09 53.762 0.235 7.09 8.35 10.24
4/10/2021 9:15:00 AM 12.11 53.798 0.235 7.13 8.4 10.35
4/10/2021 9:30:00 AM 12.17 53.906 0.234 7.14 8.98 10.45
4/10/2021 9:45:00 AM 12.19 53.942 0.235 7.14 8.18 10.55
4/10/2021 10:00:00 AM 12.24 54.032 0.235 7.17 8.27 10.66
4/10/2021 10:15:00 AM 12.3 54.14 0.234 7.2 8.26 10.75
4/10/2021 10:30:00 AM 12.36 54.248 0.235 7.22 8.42 10.83
4/10/2021 10:45:00 AM 12.41 54.338 0.234 7.25 8.02 10.9
4/10/2021 11:00:00 AM 12.48 54.464 0.234 7.26 8.89 10.98
4/10/2021 11:15:00 AM 12.55 54.59 0.235 7.31 8.23 11.06
4/10/2021 11:30:00 AM 12.62 54.716 0.235 7.34 8.1 11.15
4/10/2021 11:45:00 AM 12.71 54.878 0.234 7.36 6.86 11.18
4/10/2021 12:00:00 PM 12.75 54.95 0.234 7.4 8.83 11.19
4/10/2021 12:15:00 PM 12.8 55.04 0.234 7.42 8.07 11.16
4/10/2021 12:30:00 PM 12.82 55.076 0.234 7.44 8.44 11.16
4/10/2021 12:45:00 PM 12.86 55.148 0.234 7.45 9.27 11.16
4/10/2021 1:00:00 PM 12.89 55.202 0.234 7.45 7.65 11.17
4/10/2021 1:15:00 PM 12.89 55.202 0.234 7.49 8.64 11.12
4/10/2021 1:30:00 PM 12.9 55.22 0.235 7.5 7.91 11.15
4/10/2021 1:45:00 PM 13.01 55.418 0.235 7.53 7.54 11.25
4/10/2021 2:00:00 PM 13.05 55.49 0.235 7.55 10.25 11.27
4/10/2021 2:15:00 PM 13.09 55.562 0.235 7.58 7.39 11.29
4/10/2021 2:30:00 PM 13.13 55.634 0.234 7.59 6.69 11.29
4/10/2021 2:45:00 PM 13.15 55.67 0.235 7.61 7.56 11.27
4/10/2021 3:00:00 PM 13.22 55.796 0.235 7.62 7.68 11.29
4/10/2021 3:15:00 PM 13.33 55.994 0.235 7.64 8.54 11.3
4/10/2021 3:30:00 PM 13.38 56.084 0.235 7.65 7.57 11.28
4/10/2021 3:45:00 PM 13.45 56.21 0.236 7.67 7.89 11.3
4/10/2021 4:00:00 PM 13.59 56.462 0.236 7.7 6.9 11.34
4/10/2021 4:15:00 PM 13.7 56.66 0.236 7.72 7.46 11.35
4/10/2021 4:30:00 PM 13.73 56.714 0.236 7.73 9.14 11.31
4/10/2021 4:45:00 PM 13.72 56.696 0.237 7.75 7.43 11.29
4/10/2021 5:00:00 PM 13.77 56.786 0.236 7.78 10 11.3
4/10/2021 5:15:00 PM 13.77 56.786 0.236 7.79 8.05 11.25
4/10/2021 5:30:00 PM 13.76 56.768 0.235 7.8 8.68 11.18
4/10/2021 5:45:00 PM 13.76 56.768 0.235 7.81 8.21 11.12
4/10/2021 6:00:00 PM 13.75 56.75 0.236 7.82 6.8 11.05
4/10/2021 6:15:00 PM 13.72 56.696 0.236 7.83 8.41 10.97
4/10/2021 6:30:00 PM 13.73 56.714 0.236 7.81 8.58 10.87
4/10/2021 6:45:00 PM 13.71 56.678 0.236 7.8 8.37 10.75
4/10/2021 7:00:00 PM 13.62 56.516 0.237 7.78 7.54 10.62
4/10/2021 7:15:00 PM 13.63 56.534 0.236 7.75 7.99 10.44
4/10/2021 7:30:00 PM 13.52 56.336 0.237 7.7 9.02 10.26
4/10/2021 7:45:00 PM 13.44 56.192 0.236 7.66 10.79 10.06
4/10/2021 8:00:00 PM 13.38 56.084 0.236 7.61 10.36 9.86
4/10/2021 8:15:00 PM 13.3 55.94 0.236 7.56 10.43 9.73
4/10/2021 8:30:00 PM 13.28 55.904 0.236 7.51 9.12 9.62
4/10/2021 8:45:00 PM 13.2 55.76 0.237 7.47 10.76 9.54
4/10/2021 9:00:00 PM 13.17 55.706 0.237 7.43 9.9 9.5
4/10/2021 9:15:00 PM 13.12 55.616 0.237 7.41 11.35 9.46
4/10/2021 9:30:00 PM 13.1 55.58 0.237 7.38 9.99 9.42
4/10/2021 9:45:00 PM 13.06 55.508 0.237 7.34 10.57 9.39
4/10/2021 10:00:00 PM 13 55.4 0.237 7.31 11.22 9.38
4/10/2021 10:15:00 PM 12.98 55.364 0.236 7.29 10.74 9.34
4/10/2021 10:30:00 PM 12.98 55.364 0.236 7.27 11.86 9.33
4/10/2021 10:45:00 PM 12.98 55.364 0.235 7.26 11.14 9.31
4/10/2021 11:00:00 PM 12.93 55.274 0.237 7.24 11.8 9.29
4/10/2021 11:15:00 PM 12.95 55.31 0.236 7.23 10.97 9.28
4/10/2021 11:30:00 PM 12.92 55.256 0.237 7.21 12.98 9.29
4/10/2021 11:45:00 PM 12.94 55.292 0.236 7.2 9.79 9.26
4/11/2021 12:00:00 AM 12.92 55.256 0.237 7.2 10.46 9.27
4/11/2021 12:15:00 AM 12.93 55.274 0.236 7.19 10.89 9.29
4/11/2021 12:30:00 AM 12.92 55.256 0.236 7.18 10.84 9.29
4/11/2021 12:45:00 AM 12.96 55.328 0.235 7.16 10.99 9.3
4/11/2021 1:00:00 AM 12.92 55.256 0.236 7.17 10.75 9.3
4/11/2021 1:15:00 AM 12.95 55.31 0.236 7.16 9.75 9.31
4/11/2021 1:30:00 AM 12.99 55.382 0.236 7.16 11.05 9.3
4/11/2021 1:45:00 AM 13 55.4 0.236 7.15 10.69 9.31
4/11/2021 2:00:00 AM 12.99 55.382 0.236 7.15 10.59 9.31
4/11/2021 2:15:00 AM 13.02 55.436 0.237 7.16 9.31 9.31
4/11/2021 2:30:00 AM 13 55.4 0.236 7.15 9.79 9.31
4/11/2021 2:45:00 AM 13.01 55.418 0.235 7.16 10.26 9.3
4/11/2021 3:00:00 AM 12.97 55.346 0.235 7.15 12.28 9.28
4/11/2021 3:15:00 AM 12.96 55.328 0.234 7.14 11.86 9.23
4/11/2021 3:30:00 AM 12.91 55.238 0.234 7.14 13.96 9.17
4/11/2021 3:45:00 AM 12.93 55.274 0.234 7.11 13.03 9.13
4/11/2021 4:00:00 AM 12.91 55.238 0.235 7.11 12.56 9.08
4/11/2021 4:15:00 AM 12.92 55.256 0.235 7.11 12.6 9.07
4/11/2021 4:30:00 AM 12.96 55.328 0.235 7.1 12.98 9.06
4/11/2021 4:45:00 AM 12.97 55.346 0.235 7.1 12.27 9.07
4/11/2021 5:00:00 AM 12.99 55.382 0.234 7.1 12.61 9.07
4/11/2021 5:15:00 AM 12.98 55.364 0.234 7.11 12.59 9.09
4/11/2021 5:30:00 AM 13.04 55.472 0.232 7.11 14.28 9.11
4/11/2021 5:45:00 AM 12.98 55.364 0.233 7.11 12.2 9.11
4/11/2021 6:00:00 AM 12.99 55.382 0.233 7.11 15.69 9.14
4/11/2021 6:15:00 AM 13.03 55.454 0.232 7.11 15.15 9.17
4/11/2021 6:30:00 AM 13.06 55.508 0.232 7.12 15.84 9.14
4/11/2021 6:45:00 AM 13.06 55.508 0.233 7.12 14.87 9.16
4/11/2021 7:00:00 AM 13.07 55.526 0.233 7.13 15.6 9.16
4/11/2021 7:15:00 AM 13.1 55.58 0.234 7.12 16.15 9.16
4/11/2021 7:30:00 AM 13.12 55.616 0.234 7.13 13.71 9.17
4/11/2021 7:45:00 AM 13.17 55.706 0.235 7.14 12.99 9.17
4/11/2021 8:00:00 AM 13.19 55.742 0.236 7.14 13.56 9.21
4/11/2021 8:15:00 AM 13.22 55.796 0.237 7.15 12.15 9.33
4/11/2021 8:30:00 AM 13.26 55.868 0.236 7.17 13.8 9.43
4/11/2021 8:45:00 AM 13.3 55.94 0.236 7.18 13.86 9.53
4/11/2021 9:00:00 AM 13.35 56.03 0.235 7.2 17.15 9.63
4/11/2021 9:15:00 AM 13.37 56.066 0.235 7.21 13.48 9.69
4/11/2021 9:30:00 AM 13.42 56.156 0.233 7.23 14.6 9.69
4/11/2021 9:45:00 AM 13.43 56.174 0.233 7.26 17.71 9.73
4/11/2021 10:00:00 AM 13.45 56.21 0.232 7.27 14.32 9.76
4/11/2021 10:15:00 AM 13.48 56.264 0.231 7.28 15.09 9.74
4/11/2021 10:30:00 AM 13.54 56.372 0.23 7.29 13.86 9.76
4/11/2021 10:45:00 AM 13.57 56.426 0.23 7.31 12.53 9.84
4/11/2021 11:00:00 AM 13.64 56.552 0.23 7.33 13.32 9.97
4/11/2021 11:15:00 AM 13.74 56.732 0.228 7.35 18.05 10.05
4/11/2021 11:30:00 AM 13.81 56.858 0.229 7.36 15.4 10.1
4/11/2021 11:45:00 AM 13.87 56.966 0.23 7.39 12.99 10.16
4/11/2021 12:00:00 PM 14 57.2 0.229 7.42 13.14 10.23
4/11/2021 12:15:00 PM 14.18 57.524 0.229 7.44 12.34 10.32
4/11/2021 12:30:00 PM 14.33 57.794 0.229 7.48 17.92 10.33
4/11/2021 12:45:00 PM 14.44 57.992 0.229 7.5 15.82 10.32
4/11/2021 1:00:00 PM 14.54 58.172 0.229 7.52 14.78 10.28
4/11/2021 1:15:00 PM 14.69 58.442 0.229 7.54 19.41 10.27
4/11/2021 1:30:00 PM 14.85 58.73 0.229 7.54 20.53 10.25
4/11/2021 1:45:00 PM 15.06 59.108 0.228 7.58 16.7 10.27
4/11/2021 2:00:00 PM 15.34 59.612 0.23 7.6 18.8 10.34
4/11/2021 2:15:00 PM 15.54 59.972 0.23 7.63 19.54 10.37
4/11/2021 2:30:00 PM 15.69 60.242 0.229 7.66 19.52 10.36
4/11/2021 2:45:00 PM 15.79 60.422 0.23 7.67 24.49 10.37
4/11/2021 3:00:00 PM 15.83 60.494 0.23 7.7 15.82 10.37
4/11/2021 3:15:00 PM 15.81 60.458 0.23 7.72 19.79 10.33
4/11/2021 3:30:00 PM 15.78 60.404 0.23 7.74 20.56 10.34
4/11/2021 3:45:00 PM 15.8 60.44 0.23 7.75 20.37 10.32
4/11/2021 4:00:00 PM 15.8 60.44 0.231 7.75 18.09 10.28
4/11/2021 4:15:00 PM 15.78 60.404 0.231 7.76 16.54 10.24
4/11/2021 4:30:00 PM 15.8 60.44 0.231 7.77 18.21 10.21
4/11/2021 4:45:00 PM 15.78 60.404 0.23 7.78 20.02 10.19
4/11/2021 5:00:00 PM 15.69 60.242 0.231 7.78 17.16 10.15
4/11/2021 5:15:00 PM 15.63 60.134 0.231 7.77 16.65 10.11
4/11/2021 5:30:00 PM 15.65 60.17 0.229 7.77 15.33 10.06
4/11/2021 5:45:00 PM 15.57 60.026 0.23 7.77 18.31 10.02
4/11/2021 6:00:00 PM 15.44 59.792 0.231 7.76 15.08 9.95
4/11/2021 6:15:00 PM 15.4 59.72 0.231 7.75 16.66 9.86
4/11/2021 6:30:00 PM 15.35 59.63 0.231 7.74 14.1 9.82
4/11/2021 6:45:00 PM 15.31 59.558 0.231 7.72 15.77 9.72
4/11/2021 7:00:00 PM 15.4 59.72 0.23 7.7 16.16 9.63
4/11/2021 7:15:00 PM 15.34 59.612 0.23 7.69 20.12 9.53
4/11/2021 7:30:00 PM 15.3 59.54 0.23 7.65 17.1 9.44
4/11/2021 7:45:00 PM 15.22 59.396 0.229 7.63 14.09 9.33
4/11/2021 8:00:00 PM 15.17 59.306 0.229 7.6 26.72 9.23
4/11/2021 8:15:00 PM 15.15 59.27 0.229 7.56 15.8 9.12
4/11/2021 8:30:00 PM 15.13 59.234 0.23 7.54 18.66 9.06
4/11/2021 8:45:00 PM 15.05 59.09 0.231 7.51 16.47 9.02
4/11/2021 9:00:00 PM 15.1 59.18 0.231 7.5 14.37 8.98
4/11/2021 9:15:00 PM 15.14 59.252 0.231 7.48 15.34 8.98
4/11/2021 9:30:00 PM 15.14 59.252 0.231 7.46 13.87 8.97
4/11/2021 9:45:00 PM 15.11 59.198 0.225 7.46 25.64 9.04
4/11/2021 10:00:00 PM 15.08 59.144 0.222 7.46 50.83 9.04
4/11/2021 10:15:00 PM 15.02 59.036 0.224 7.44 32.39 9.04
4/11/2021 10:30:00 PM 14.91 58.838 0.226 7.44 41.04 9.02
4/11/2021 10:45:00 PM 15 59 0.231 7.45 52.67 9.01
4/11/2021 11:00:00 PM 14.97 58.946 0.239 7.44 133.7 8.94
4/11/2021 11:15:00 PM 14.91 58.838 0.219 7.43 244.4 8.99
4/11/2021 11:30:00 PM 14.86 58.748 0.22 7.44 188.8 9.03
4/11/2021 11:45:00 PM 14.84 58.712 0.22 7.44 167.5 9.03
4/12/2021 12:00:00 AM 14.96 58.928 0.217 7.43 147.9 9.04
4/12/2021 12:15:00 AM 14.92 58.856 0.216 7.45 131.3 9.05
4/12/2021 12:30:00 AM 14.91 58.838 0.215 7.44 116.7 9
4/12/2021 12:45:00 AM 14.95 58.91 0.215 7.44 128.2 9
4/12/2021 1:00:00 AM 14.84 58.712 0.217 7.45 104.9 9
4/12/2021 1:15:00 AM 14.83 58.694 0.218 7.43 80.84 8.96
4/12/2021 1:30:00 AM 14.95 58.91 0.218 7.43 73.65 8.95
4/12/2021 1:45:00 AM 14.92 58.856 0.219 7.43 69.88 8.93
4/12/2021 2:00:00 AM 14.95 58.91 0.22 7.44 64 8.91
4/12/2021 2:15:00 AM 14.95 58.91 0.22 7.44 50.04 8.91
4/12/2021 2:30:00 AM 14.93 58.874 0.22 7.44 46.26 8.93
4/12/2021 2:45:00 AM 14.88 58.784 0.222 7.43 67.1 8.92
4/12/2021 3:00:00 AM 14.82 58.676 0.222 7.44 42.51 8.91
4/12/2021 3:15:00 AM 14.82 58.676 0.222 7.44 53.4 8.91
4/12/2021 3:30:00 AM 14.78 58.604 0.223 7.44 55.36 8.87
4/12/2021 3:45:00 AM 14.8 58.64 0.221 7.45 65.48 8.89
4/12/2021 4:00:00 AM 14.75 58.55 0.222 7.45 62.27 8.9
4/12/2021 4:15:00 AM 14.66 58.388 0.227 7.47 58.07 8.93
4/12/2021 4:30:00 AM 14.69 58.442 0.225 7.48 52.7 8.92
4/12/2021 4:45:00 AM 14.65 58.37 0.227 7.48 50.78 8.96
4/12/2021 5:00:00 AM 14.61 58.298 0.227 7.49 48.27 8.98
4/12/2021 5:15:00 AM 14.59 58.262 0.226 7.48 50.57 8.95
4/12/2021 5:30:00 AM 14.53 58.154 0.228 7.46 56.43 8.92
4/12/2021 5:45:00 AM 14.48 58.064 0.228 7.45 55.37 8.9
4/12/2021 6:00:00 AM 14.47 58.046 0.227 7.44 55.09 8.88
4/12/2021 6:15:00 AM 14.43 57.974 0.227 7.43 59.72 8.9
4/12/2021 6:30:00 AM 14.38 57.884 0.227 7.43 58.08 8.91
4/12/2021 6:45:00 AM 14.37 57.866 0.226 7.43 56.25 8.95
4/12/2021 7:00:00 AM 14.34 57.812 0.227 7.43 52.79 8.98
4/12/2021 7:15:00 AM 14.31 57.758 0.227 7.43 47.8 9.02
4/12/2021 7:30:00 AM 14.29 57.722 0.226 7.43 54.1 9.07
4/12/2021 7:45:00 AM 14.26 57.668 0.226 7.42 43.76 9.1
4/12/2021 8:00:00 AM 14.23 57.614 0.227 7.42 49.63 9.13
4/12/2021 8:15:00 AM 14.22 57.596 0.226 7.43 43.22 9.16
4/12/2021 8:30:00 AM 14.19 57.542 0.227 7.43 39.21 9.21
4/12/2021 8:45:00 AM 14.18 57.524 0.227 7.42 37.21 9.25
4/12/2021 9:00:00 AM 14.16 57.488 0.228 7.43 33.1 9.31
4/12/2021 9:15:00 AM 14.16 57.488 0.225 7.44 39.66 9.37
4/12/2021 9:30:00 AM 14.14 57.452 0.229 7.46 29.31 9.4
4/12/2021 9:45:00 AM 14.15 57.47 0.227 7.45 31.91 9.47
4/12/2021 10:00:00 AM 14.16 57.488 0.228 7.47 26.61 9.54
4/12/2021 10:15:00 AM 14.17 57.506 0.229 7.49 24.91 9.63
4/12/2021 10:30:00 AM 14.17 57.506 0.229 7.49 27.57 9.68
4/12/2021 10:45:00 AM 14.16 57.488 0.229 7.5 20.99 9.69
4/12/2021 11:00:00 AM 14.16 57.488 0.229 7.51 25.27 9.7
4/12/2021 11:15:00 AM 14.19 57.542 0.228 7.52 25.89 9.8
4/12/2021 11:30:00 AM 14.19 57.542 0.229 7.54 25.62 9.84
4/12/2021 11:45:00 AM 14.18 57.524 0.229 7.56 21.03 9.87
4/12/2021 12:00:00 PM 14.18 57.524 0.229 7.57 21.04 9.9
4/12/2021 12:15:00 PM 14.19 57.542 0.23 7.59 25.3 9.98
4/12/2021 12:30:00 PM 14.15 57.47 0.231 7.6 20.15 9.97
4/12/2021 12:45:00 PM 14.13 57.434 0.231 7.62 18.5 10
4/12/2021 1:00:00 PM 14.12 57.416 0.229 7.62 19.28 10.03
4/12/2021 1:15:00 PM 14.09 57.362 0.232 7.64 15.37 10.01
4/12/2021 1:30:00 PM 14.09 57.362 0.231 7.66 18.1 10.07
4/12/2021 1:45:00 PM 14.12 57.416 0.232 7.68 14.07 10.16
4/12/2021 2:00:00 PM 14.13 57.434 0.232 7.7 17.03 10.21
4/12/2021 2:15:00 PM 14.16 57.488 0.231 7.71 14.48 10.23
4/12/2021 2:30:00 PM 14.17 57.506 0.231 7.74 13.69 10.25
4/12/2021 2:45:00 PM 14.14 57.452 0.232 7.75 14.18 10.2
4/12/2021 3:00:00 PM 14.09 57.362 0.233 7.74 14.3 10.11
4/12/2021 3:15:00 PM 14.04 57.272 0.233 7.73 17.78 10.09
4/12/2021 3:30:00 PM 14.01 57.218 0.232 7.71 15.51 10.05
4/12/2021 3:45:00 PM 13.96 57.128 0.234 7.71 17.61 10.01
4/12/2021 4:00:00 PM 13.92 57.056 0.234 7.7 14.52 9.99
4/12/2021 4:15:00 PM 13.9 57.02 0.233 7.69 17.01 9.98
4/12/2021 4:30:00 PM 13.88 56.984 0.233 7.68 14.86 9.96
4/12/2021 4:45:00 PM 13.84 56.912 0.233 7.65 15.67 9.9
4/12/2021 5:00:00 PM 13.79 56.822 0.234 7.64 13.21 9.83
4/12/2021 5:15:00 PM 13.77 56.786 0.233 7.62 15.46 9.79
4/12/2021 5:30:00 PM 13.73 56.714 0.233 7.6 15.16 9.77
4/12/2021 5:45:00 PM 13.68 56.624 0.233 7.59 14.24 9.75
4/12/2021 6:00:00 PM 13.64 56.552 0.234 7.57 13.19 9.76
4/12/2021 6:15:00 PM 13.6 56.48 0.234 7.56 15.5 9.74
4/12/2021 6:30:00 PM 13.55 56.39 0.235 7.55 16.33 9.71
4/12/2021 6:45:00 PM 13.53 56.354 0.234 7.53 14.49 9.69
4/12/2021 7:00:00 PM 13.49 56.282 0.233 7.52 15.96 9.65
4/12/2021 7:15:00 PM 13.44 56.192 0.233 7.51 13.43 9.64
4/12/2021 7:30:00 PM 13.4 56.12 0.233 7.49 13.52 9.62
4/12/2021 7:45:00 PM 13.36 56.048 0.234 7.48 13.01 9.61
4/12/2021 8:00:00 PM 13.33 55.994 0.232 7.46 15.04 9.59
4/12/2021 8:15:00 PM 13.29 55.922 0.234 7.45 13.43 9.62
4/12/2021 8:30:00 PM 13.26 55.868 0.234 7.45 13.81 9.62
4/12/2021 8:45:00 PM 13.22 55.796 0.235 7.44 13.44 9.63
4/12/2021 9:00:00 PM 13.19 55.742 0.234 7.43 14.31 9.62
4/12/2021 9:15:00 PM 13.15 55.67 0.234 7.42 14.71 9.61
4/12/2021 9:30:00 PM 13.13 55.634 0.234 7.41 14.75 9.61
4/12/2021 9:45:00 PM 13.1 55.58 0.232 7.39 15.39 9.59
4/12/2021 10:00:00 PM 13.06 55.508 0.234 7.38 13.88 9.56
4/12/2021 10:15:00 PM 13.01 55.418 0.235 7.36 14.47 9.55
4/12/2021 10:30:00 PM 12.96 55.328 0.236 7.36 13.61 9.55
4/12/2021 10:45:00 PM 12.93 55.274 0.236 7.34 14.24 9.54
4/12/2021 11:00:00 PM 12.9 55.22 0.236 7.34 14.04 9.53
4/12/2021 11:15:00 PM 12.86 55.148 0.236 7.32 13.25 9.52
4/12/2021 11:30:00 PM 12.84 55.112 0.235 7.32 13.84 9.5
4/12/2021 11:45:00 PM 12.81 55.058 0.233 7.3 12.93 9.5
4/13/2021 12:00:00 AM 12.79 55.022 0.234 7.3 14.33 9.52
4/13/2021 12:15:00 AM 12.77 54.986 0.235 7.29 15.58 9.52
4/13/2021 12:30:00 AM 12.74 54.932 0.234 7.28 21.06 9.56
4/13/2021 12:45:00 AM 12.71 54.878 0.235 7.28 12.86 9.55
4/13/2021 1:00:00 AM 12.69 54.842 0.235 7.28 14.89 9.58
4/13/2021 1:15:00 AM 12.66 54.788 0.236 7.27 15.01 9.59
4/13/2021 1:30:00 AM 12.63 54.734 0.235 7.26 16.31 9.57
4/13/2021 1:45:00 AM 12.61 54.698 0.236 7.26 13.77 9.6
4/13/2021 2:00:00 AM 12.58 54.644 0.235 7.25 13.95 9.59
4/13/2021 2:15:00 AM 12.55 54.59 0.235 7.25 12.97 9.58
4/13/2021 2:30:00 AM 12.52 54.536 0.235 7.25 13.67 9.56
4/13/2021 2:45:00 AM 12.5 54.5 0.233 7.23 14.02 9.55
4/13/2021 3:00:00 AM 12.47 54.446 0.235 7.23 12.65 9.52
4/13/2021 3:15:00 AM 12.43 54.374 0.236 7.22 13.47 9.52
4/13/2021 3:30:00 AM 12.41 54.338 0.236 7.21 13.14 9.53
4/13/2021 3:45:00 AM 12.38 54.284 0.234 7.21 16 9.52
4/13/2021 4:00:00 AM 12.36 54.248 0.236 7.19 14.37 9.54
4/13/2021 4:15:00 AM 12.34 54.212 0.234 7.19 12.24 9.53
4/13/2021 4:30:00 AM 12.33 54.194 0.236 7.18 13.95 9.56
4/13/2021 4:45:00 AM 12.31 54.158 0.234 7.19 13.5 9.58
4/13/2021 5:00:00 AM 12.3 54.14 0.235 7.18 11.99 9.59
4/13/2021 5:15:00 AM 12.28 54.104 0.235 7.17 18.94 9.58
4/13/2021 5:30:00 AM 12.25 54.05 0.235 7.18 12.32 9.61
4/13/2021 5:45:00 AM 12.22 53.996 0.234 7.17 15.07 9.62
4/13/2021 6:00:00 AM 12.19 53.942 0.236 7.17 13.17 9.62
4/13/2021 6:15:00 AM 12.16 53.888 0.237 7.17 12.62 9.65
4/13/2021 6:30:00 AM 12.15 53.87 0.237 7.16 13.27 9.66
4/13/2021 6:45:00 AM 12.13 53.834 0.237 7.17 12.46 9.68
4/13/2021 7:00:00 AM 12.12 53.816 0.235 7.16 12.91 9.71
4/13/2021 7:15:00 AM 12.11 53.798 0.235 7.16 11.72 9.73
4/13/2021 7:30:00 AM 12.09 53.762 0.235 7.16 12.84 9.77
4/13/2021 7:45:00 AM 12.09 53.762 0.237 7.15 11.14 9.79
4/13/2021 8:00:00 AM 12.07 53.726 0.235 7.15 11.86 9.84
4/13/2021 8:15:00 AM 12.06 53.708 0.234 7.16 11.65 9.9
4/13/2021 8:30:00 AM 12.05 53.69 0.238 7.17 10.67 9.95
4/13/2021 8:45:00 AM 12.06 53.708 0.234 7.18 10.15 10.02
4/13/2021 9:00:00 AM 12.07 53.726 0.235 7.19 9.11 10.1
4/13/2021 9:15:00 AM 12.08 53.744 0.234 7.19 10.79 10.2
4/13/2021 9:30:00 AM 12.09 53.762 0.233 7.21 9.53 10.28
4/13/2021 9:45:00 AM 12.12 53.816 0.235 7.22 8.9 10.39
4/13/2021 10:00:00 AM 12.18 53.924 0.235 7.23 8.21 10.51
4/13/2021 10:15:00 AM 12.29 54.122 0.235 7.27 9.05 10.63
4/13/2021 10:30:00 AM 12.35 54.23 0.235 7.28 10.67 10.72
4/13/2021 10:45:00 AM 12.43 54.374 0.236 7.31 8.13 10.76
4/13/2021 11:00:00 AM 12.5 54.5 0.235 7.33 8.15 10.82
4/13/2021 11:15:00 AM 12.54 54.572 0.235 7.35 8.31 10.81
4/13/2021 11:30:00 AM 12.63 54.734 0.235 7.37 8.49 10.87
4/13/2021 11:45:00 AM 12.75 54.95 0.234 7.39 14.34 10.93
4/13/2021 12:00:00 PM 12.83 55.094 0.235 7.42 7.79 10.97
4/13/2021 12:15:00 PM 13 55.4 0.234 7.44 9.43 11.01
4/13/2021 12:30:00 PM 13.2 55.76 0.235 7.47 8.71 11.04
4/13/2021 12:45:00 PM 13.45 56.21 0.235 7.5 7.67 11.05
4/13/2021 1:00:00 PM 13.59 56.462 0.238 7.52 9.33 11.05
4/13/2021 1:15:00 PM 13.72 56.696 0.236 7.53 9.64 11.05
4/13/2021 1:30:00 PM 13.83 56.894 0.236 7.56 7.67 11.06
4/13/2021 1:45:00 PM 13.92 57.056 0.237 7.57 8.33 11.05
4/13/2021 2:00:00 PM 13.94 57.092 0.236 7.59 7.56 11.03
4/13/2021 2:15:00 PM 13.9 57.02 0.236 7.59 8.75 10.98
4/13/2021 2:30:00 PM 13.89 57.002 0.235 7.59 8.09 10.93
4/13/2021 2:45:00 PM 13.84 56.912 0.237 7.59 8.77 10.85
4/13/2021 3:00:00 PM 13.8 56.84 0.236 7.59 11.61 10.8
4/13/2021 3:15:00 PM 13.74 56.732 0.236 7.58 9.43 10.78
4/13/2021 3:30:00 PM 13.69 56.642 0.237 7.58 10.46 10.76
4/13/2021 3:45:00 PM 13.62 56.516 0.237 7.57 9.17 10.72
4/13/2021 4:00:00 PM 13.59 56.462 0.237 7.59 9.35 10.75
4/13/2021 4:15:00 PM 13.59 56.462 0.238 7.6 8.95 10.8
4/13/2021 4:30:00 PM 13.58 56.444 0.237 7.59 9.78 10.81
4/13/2021 4:45:00 PM 13.61 56.498 0.237 7.61 9.46 10.8
4/13/2021 5:00:00 PM 13.63 56.534 0.237 7.61 9.67 10.77
4/13/2021 5:15:00 PM 13.65 56.57 0.236 7.61 8.13 10.75
4/13/2021 5:30:00 PM 13.67 56.606 0.236 7.62 8.1 10.73
4/13/2021 5:45:00 PM 13.64 56.552 0.236 7.61 8.65 10.69
4/13/2021 6:00:00 PM 13.62 56.516 0.236 7.62 8.75 10.62
4/13/2021 6:15:00 PM 13.59 56.462 0.236 7.6 9.32 10.56
4/13/2021 6:30:00 PM 13.55 56.39 0.237 7.59 7.7 10.46
4/13/2021 6:45:00 PM 13.51 56.318 0.236 7.58 7.52 10.38
4/13/2021 7:00:00 PM 13.49 56.282 0.238 7.56 8 10.32
4/13/2021 7:15:00 PM 13.45 56.21 0.235 7.55 8.96 10.25
4/13/2021 7:30:00 PM 13.39 56.102 0.236 7.53 8.19 10.19
4/13/2021 7:45:00 PM 13.37 56.066 0.235 7.52 8.51 10.1
4/13/2021 8:00:00 PM 13.37 56.066 0.235 7.5 17.49 10.03
4/13/2021 8:15:00 PM 13.28 55.904 0.236 7.48 10.83 9.96
4/13/2021 8:30:00 PM 13.25 55.85 0.236 7.45 8.16 9.89
4/13/2021 8:45:00 PM 13.18 55.724 0.237 7.43 10.56 9.83
4/13/2021 9:00:00 PM 13.13 55.634 0.237 7.41 10.11 9.74
4/13/2021 9:15:00 PM 13.08 55.544 0.238 7.38 10.17 9.66
4/13/2021 9:30:00 PM 13.04 55.472 0.236 7.34 11.25 9.59
4/13/2021 9:45:00 PM 12.94 55.292 0.236 7.32 14.41 9.56
4/13/2021 10:00:00 PM 12.94 55.292 0.235 7.3 11.19 9.51
4/13/2021 10:15:00 PM 12.86 55.148 0.236 7.27 11.63 9.46
4/13/2021 10:30:00 PM 12.82 55.076 0.236 7.25 13.86 9.46
4/13/2021 10:45:00 PM 12.83 55.094 0.237 7.24 11.28 9.46
4/13/2021 11:00:00 PM 12.79 55.022 0.238 7.24 12.06 9.46
4/13/2021 11:15:00 PM 12.79 55.022 0.236 7.22 9.99 9.48
4/13/2021 11:30:00 PM 12.78 55.004 0.237 7.21 11.78 9.5
4/13/2021 11:45:00 PM 12.78 55.004 0.236 7.21 10.42 9.51
4/14/2021 12:00:00 AM 12.77 54.986 0.236 7.2 10.2 9.51
4/14/2021 12:15:00 AM 12.76 54.968 0.235 7.19 9.84 9.53
4/14/2021 12:30:00 AM 12.74 54.932 0.236 7.19 11.83 9.53
4/14/2021 12:45:00 AM 12.76 54.968 0.235 7.19 9.82 9.54
4/14/2021 1:00:00 AM 12.7 54.86 0.236 7.18 16.28 9.56
4/14/2021 1:15:00 AM 12.7 54.86 0.237 7.17 9.74 9.58
4/14/2021 1:30:00 AM 12.64 54.752 0.238 7.17 11.56 9.57
4/14/2021 1:45:00 AM 12.66 54.788 0.236 7.17 13.43 9.6
4/14/2021 2:00:00 AM 12.61 54.698 0.236 7.17 10.55 9.61
4/14/2021 2:15:00 AM 12.55 54.59 0.236 7.17 10.46 9.62
4/14/2021 2:30:00 AM 12.5 54.5 0.236 7.15 10.32 9.61
4/14/2021 2:45:00 AM 12.47 54.446 0.236 7.15 11.86 9.59
4/14/2021 3:00:00 AM 12.4 54.32 0.236 7.14 11.28 9.56
4/14/2021 3:15:00 AM 12.34 54.212 0.236 7.12 12 9.53
4/14/2021 3:30:00 AM 12.25 54.05 0.236 7.12 14.19 9.51
4/14/2021 3:45:00 AM 12.21 53.978 0.236 7.11 12.13 9.51
4/14/2021 4:00:00 AM 12.16 53.888 0.236 7.1 11.68 9.5
4/14/2021 4:15:00 AM 12.1 53.78 0.237 7.09 12.46 9.49
4/14/2021 4:30:00 AM 12.11 53.798 0.236 7.09 12.53 9.51
4/14/2021 4:45:00 AM 12.07 53.726 0.238 7.07 13.18 9.51
4/14/2021 5:00:00 AM 12.04 53.672 0.235 7.08 12.62 9.52
4/14/2021 5:15:00 AM 12.04 53.672 0.234 7.07 12.42 9.54
4/14/2021 5:30:00 AM 12.02 53.636 0.236 7.07 12.99 9.56
4/14/2021 5:45:00 AM 12 53.6 0.236 7.07 15.97 9.58
4/14/2021 6:00:00 AM 11.97 53.546 0.236 7.07 16.19 9.6
4/14/2021 6:15:00 AM 11.97 53.546 0.235 7.07 11.9 9.63
4/14/2021 6:30:00 AM 11.94 53.492 0.235 7.07 11.64 9.63
4/14/2021 6:45:00 AM 11.94 53.492 0.234 7.06 11.18 9.66
4/14/2021 7:00:00 AM 11.93 53.474 0.234 7.06 9.62 9.68
4/14/2021 7:15:00 AM 11.91 53.438 0.235 7.06 10.02 9.75
4/14/2021 7:30:00 AM 11.92 53.456 0.235 7.06 9.24 9.81
4/14/2021 7:45:00 AM 11.91 53.438 0.234 7.07 9.72 9.88
4/14/2021 8:00:00 AM 11.92 53.456 0.234 7.07 12.46 9.96
4/14/2021 8:15:00 AM 11.93 53.474 0.234 7.08 11.8 10.06
4/14/2021 8:30:00 AM 11.95 53.51 0.234 7.09 9.36 10.17
4/14/2021 8:45:00 AM 12 53.6 0.234 7.12 8.84 10.25
4/14/2021 9:00:00 AM 12.05 53.69 0.235 7.12 8.85 10.32
4/14/2021 9:15:00 AM 12.1 53.78 0.232 7.14 11.87 10.41
4/14/2021 9:30:00 AM 12.17 53.906 0.234 7.16 9.02 10.46
4/14/2021 9:45:00 AM 12.23 54.014 0.233 7.18 8.61 10.51
4/14/2021 10:00:00 AM 12.3 54.14 0.233 7.19 9.49 10.57
4/14/2021 10:15:00 AM 12.37 54.266 0.233 7.2 9.08 10.59
4/14/2021 10:30:00 AM 12.41 54.338 0.233 7.21 13.09 10.61
4/14/2021 10:45:00 AM 12.42 54.356 0.233 7.23 9.02 10.57
4/14/2021 11:00:00 AM 12.43 54.374 0.233 7.22 9.43 10.53
4/14/2021 11:15:00 AM 12.45 54.41 0.233 7.23 10.41 10.52
4/14/2021 11:30:00 AM 12.48 54.464 0.233 7.23 8.44 10.59
4/14/2021 11:45:00 AM 12.54 54.572 0.234 7.25 10.67 10.66
4/14/2021 12:00:00 PM 12.58 54.644 0.232 7.26 8.35 10.74
4/14/2021 12:15:00 PM 12.61 54.698 0.233 7.29 8.17 10.77
4/14/2021 12:30:00 PM 12.63 54.734 0.233 7.3 7.67 10.79
4/14/2021 12:45:00 PM 12.67 54.806 0.233 7.31 7.19 10.84
4/14/2021 1:00:00 PM 12.71 54.878 0.233 7.33 7.86 10.86
4/14/2021 1:15:00 PM 12.8 55.04 0.233 7.36 7.75 10.95
4/14/2021 1:30:00 PM 12.85 55.13 0.234 7.38 7.58 11.02
4/14/2021 1:45:00 PM 12.84 55.112 0.234 7.4 7.73 10.97
4/14/2021 2:00:00 PM 12.83 55.094 0.233 7.41 7.4 10.96
4/14/2021 2:15:00 PM 12.81 55.058 0.233 7.42 7.57 10.92
4/14/2021 2:30:00 PM 12.79 55.022 0.234 7.43 7.86 10.9
4/14/2021 2:45:00 PM 12.77 54.986 0.236 7.44 9.25 10.85
4/14/2021 3:00:00 PM 12.76 54.968 0.234 7.44 7.36 10.88
4/14/2021 3:15:00 PM 12.75 54.95 0.233 7.45 7.03 10.9
4/14/2021 3:30:00 PM 12.75 54.95 0.234 7.47 8.83 10.89
4/14/2021 3:45:00 PM 12.74 54.932 0.236 7.48 7.32 10.88
4/14/2021 4:00:00 PM 12.75 54.95 0.235 7.48 7.8 10.9
4/14/2021 4:15:00 PM 12.76 54.968 0.235 7.5 8.37 10.9
4/14/2021 4:30:00 PM 12.77 54.986 0.235 7.49 7.41 10.86
4/14/2021 4:45:00 PM 12.77 54.986 0.235 7.5 8.86 10.81
4/14/2021 5:00:00 PM 12.76 54.968 0.236 7.5 7.66 10.77
4/14/2021 5:15:00 PM 12.76 54.968 0.234 7.5 7.6 10.72
4/14/2021 5:30:00 PM 12.74 54.932 0.235 7.51 7.08 10.67
4/14/2021 5:45:00 PM 12.72 54.896 0.237 7.49 7.17 10.58
4/14/2021 6:00:00 PM 12.71 54.878 0.235 7.48 7.59 10.5
4/14/2021 6:15:00 PM 12.69 54.842 0.236 7.46 8.03 10.42
4/14/2021 6:30:00 PM 12.66 54.788 0.236 7.45 7.77 10.36
4/14/2021 6:45:00 PM 12.63 54.734 0.235 7.43 8.72 10.26
4/14/2021 7:00:00 PM 12.6 54.68 0.235 7.42 9.2 10.18
4/14/2021 7:15:00 PM 12.57 54.626 0.236 7.4 9.09 10.1
4/14/2021 7:30:00 PM 12.55 54.59 0.235 7.37 8.83 10.02
4/14/2021 7:45:00 PM 12.52 54.536 0.236 7.35 8.38 9.95
4/14/2021 8:00:00 PM 12.5 54.5 0.235 7.33 9.89 9.9
4/14/2021 8:15:00 PM 12.49 54.482 0.236 7.31 9.07 9.87
4/14/2021 8:30:00 PM 12.47 54.446 0.235 7.3 9.73 9.82
4/14/2021 8:45:00 PM 12.44 54.392 0.235 7.28 9.76 9.8
4/14/2021 9:00:00 PM 12.41 54.338 0.236 7.27 10.2 9.79
4/14/2021 9:15:00 PM 12.38 54.284 0.236 7.27 10.44 9.77
4/14/2021 9:30:00 PM 12.34 54.212 0.235 7.26 9.21 9.77
4/14/2021 9:45:00 PM 12.32 54.176 0.235 7.24 8.26 9.78
4/14/2021 10:00:00 PM 12.28 54.104 0.234 7.22 9.98 9.79
4/14/2021 10:15:00 PM 12.24 54.032 0.234 7.21 9.09 9.78
4/14/2021 10:30:00 PM 12.21 53.978 0.234 7.21 12.48 9.79
4/14/2021 10:45:00 PM 12.17 53.906 0.234 7.2 10.47 9.79
4/14/2021 11:00:00 PM 12.15 53.87 0.234 7.2 10.24 9.78
4/14/2021 11:15:00 PM 12.13 53.834 0.234 7.19 10.85 9.77
4/14/2021 11:30:00 PM 12.1 53.78 0.234 7.19 10.18 9.78
4/14/2021 11:45:00 PM 12.07 53.726 0.234 7.17 9.39 9.78
4/15/2021 12:00:00 AM 12.04 53.672 0.234 7.18 8.68 9.79
4/15/2021 12:15:00 AM 12.02 53.636 0.233 7.17 9.99 9.78
4/15/2021 12:30:00 AM 11.99 53.582 0.235 7.16 8.82 9.75
4/15/2021 12:45:00 AM 11.96 53.528 0.233 7.15 9.94 9.76
4/15/2021 1:00:00 AM 11.93 53.474 0.234 7.15 11.26 9.73
4/15/2021 1:15:00 AM 11.89 53.402 0.234 7.14 10.33 9.68
4/15/2021 1:30:00 AM 11.86 53.348 0.235 7.13 10.8 9.63
4/15/2021 1:45:00 AM 11.82 53.276 0.235 7.12 9.91 9.59
4/15/2021 2:00:00 AM 11.78 53.204 0.236 7.1 10.88 9.54
4/15/2021 2:15:00 AM 11.76 53.168 0.235 7.09 10.74 9.52
4/15/2021 2:30:00 AM 11.74 53.132 0.234 7.09 11.38 9.51
4/15/2021 2:45:00 AM 11.73 53.114 0.234 7.08 11.4 9.5
4/15/2021 3:00:00 AM 11.71 53.078 0.233 7.08 12.77 9.54
4/15/2021 3:15:00 AM 11.7 53.06 0.233 7.05 12.92 9.55
4/15/2021 3:30:00 AM 11.68 53.024 0.235 7.06 12.15 9.58
4/15/2021 3:45:00 AM 11.66 52.988 0.235 7.05 11.14 9.59
4/15/2021 4:00:00 AM 11.66 52.988 0.233 7.05 10.31 9.63
4/15/2021 4:15:00 AM 11.65 52.97 0.235 7.05 10.9 9.65
4/15/2021 4:30:00 AM 11.65 52.97 0.234 7.05 11.92 9.67
4/15/2021 4:45:00 AM 11.65 52.97 0.234 7.06 13.84 9.67
4/15/2021 5:00:00 AM 11.64 52.952 0.234 7.05 10.26 9.68
4/15/2021 5:15:00 AM 11.63 52.934 0.234 7.05 11.06 9.7
4/15/2021 5:30:00 AM 11.63 52.934 0.234 7.05 9.96 9.71
4/15/2021 5:45:00 AM 11.62 52.916 0.229 7.04 12.34 9.71
4/15/2021 6:00:00 AM 11.62 52.916 0.233 7.05 10.83 9.72
4/15/2021 6:15:00 AM 11.61 52.898 0.232 7.04 11.57 9.73
4/15/2021 6:30:00 AM 11.6 52.88 0.23 7.04 10.35 9.72
4/15/2021 6:45:00 AM 11.6 52.88 0.232 7.04 10.31 9.72
4/15/2021 7:00:00 AM 11.6 52.88 0.233 7.04 10.81 9.71
4/15/2021 7:15:00 AM 11.6 52.88 0.23 7.03 9.66 9.74
4/15/2021 7:30:00 AM 11.6 52.88 0.233 7.04 13.81 9.74
4/15/2021 7:45:00 AM 11.59 52.862 0.232 7.03 12.43 9.76
4/15/2021 8:00:00 AM 11.61 52.898 0.235 7.03 10.59 9.78
4/15/2021 8:15:00 AM 11.62 52.916 0.232 7.04 9.61 9.91
4/15/2021 8:30:00 AM 11.67 53.006 0.233 7.05 10.62 10.01
4/15/2021 8:45:00 AM 11.71 53.078 0.233 7.06 13.26 10.08
4/15/2021 9:00:00 AM 11.74 53.132 0.233 7.06 9.84 10.14
4/15/2021 9:15:00 AM 11.79 53.222 0.232 7.09 9.52 10.23
4/15/2021 9:30:00 AM 11.84 53.312 0.233 7.1 9.74 10.34
4/15/2021 9:45:00 AM 11.92 53.456 0.232 7.11 8.89 10.44
4/15/2021 10:00:00 AM 11.98 53.564 0.232 7.13 8.52 10.53
4/15/2021 10:15:00 AM 12.01 53.618 0.233 7.15 8.9 10.55
4/15/2021 10:30:00 AM 12.04 53.672 0.233 7.17 9.69 10.58
4/15/2021 10:45:00 AM 12.09 53.762 0.234 7.19 6.93 10.64
4/15/2021 11:00:00 AM 12.13 53.834 0.231 7.19 8.16 10.71
4/15/2021 11:15:00 AM 12.21 53.978 0.22 7.22 7.1 10.77
4/15/2021 11:30:00 AM 12.32 54.176 0.226 7.24 7.49 10.84
4/15/2021 11:45:00 AM 12.34 54.212 0.224 7.27 7.48 10.87
4/15/2021 12:00:00 PM 12.34 54.212 0.224 7.29 6.6 10.85
4/15/2021 12:15:00 PM 12.44 54.392 0.231 7.3 7.6 10.92
4/15/2021 12:30:00 PM 12.55 54.59 0.231 7.32 6.64 10.97
4/15/2021 12:45:00 PM 12.63 54.734 0.23 7.36 7.39 10.98
4/15/2021 1:00:00 PM 12.73 54.914 0.227 7.37 9.28 11.01
4/15/2021 1:15:00 PM 12.81 55.058 0.227 7.4 8.23 10.99
4/15/2021 1:30:00 PM 12.81 55.058 0.231 7.4 7.34 10.93
4/15/2021 1:45:00 PM 12.81 55.058 0.223 7.41 8.38 10.85
4/15/2021 2:00:00 PM 12.85 55.13 0.22 7.43 7.09 10.9
4/15/2021 2:15:00 PM 12.88 55.184 0.227 7.45 7.97 10.94
4/15/2021 2:30:00 PM 12.98 55.364 0.233 7.46 7.29 10.96
4/15/2021 2:45:00 PM 13.09 55.562 0.234 7.48 8.46 10.96
4/15/2021 3:00:00 PM 13.04 55.472 0.235 7.48 7.07 10.94
4/15/2021 3:15:00 PM 13.08 55.544 0.234 7.49 8.04 10.92
4/15/2021 3:30:00 PM 13.13 55.634 0.235 7.5 8.44 10.91
4/15/2021 3:45:00 PM 13.19 55.742 0.234 7.49 8.14 10.93
4/15/2021 4:00:00 PM 13.19 55.742 0.234 7.51 8 10.88
4/15/2021 4:15:00 PM 13.22 55.796 0.236 7.52 8.87 10.87
4/15/2021 4:30:00 PM 13.23 55.814 0.235 7.51 8.1 10.89
4/15/2021 4:45:00 PM 13.19 55.742 0.235 7.51 10.18 10.85
4/15/2021 5:00:00 PM 13.17 55.706 0.234 7.51 7.99 10.84
4/15/2021 5:15:00 PM 13.11 55.598 0.233 7.52 7.98 10.84
4/15/2021 5:30:00 PM 13.05 55.49 0.234 7.52 7.7 10.81
4/15/2021 5:45:00 PM 12.96 55.328 0.235 7.53 6.37 10.78
4/15/2021 6:00:00 PM 12.89 55.202 0.235 7.51 8.47 10.71
4/15/2021 6:15:00 PM 12.77 54.986 0.235 7.51 8.62 10.65
4/15/2021 6:30:00 PM 12.7 54.86 0.236 7.5 7.41 10.55
4/15/2021 6:45:00 PM 12.62 54.716 0.236 7.49 8.4 10.52
4/15/2021 7:00:00 PM 12.52 54.536 0.235 7.47 8.97 10.47
4/15/2021 7:15:00 PM 12.43 54.374 0.235 7.45 7.85 10.39
4/15/2021 7:30:00 PM 12.34 54.212 0.234 7.43 7.3 10.28
4/15/2021 7:45:00 PM 12.24 54.032 0.234 7.41 6.98 10.21
4/15/2021 8:00:00 PM 12.16 53.888 0.233 7.39 11.4 10.11
4/15/2021 8:15:00 PM 12.08 53.744 0.234 7.36 8.22 10.05
4/15/2021 8:30:00 PM 12.01 53.618 0.236 7.34 9.5 10.01
4/15/2021 8:45:00 PM 11.94 53.492 0.236 7.32 9.8 9.98
4/15/2021 9:00:00 PM 11.91 53.438 0.236 7.29 9.34 9.95
4/15/2021 9:15:00 PM 11.85 53.33 0.235 7.3 10.3 9.95
4/15/2021 9:30:00 PM 11.83 53.294 0.235 7.27 8.62 9.95
4/15/2021 9:45:00 PM 11.82 53.276 0.234 7.26 10.19 9.95
4/15/2021 10:00:00 PM 11.78 53.204 0.234 7.26 10.58 9.91
4/15/2021 10:15:00 PM 11.74 53.132 0.235 7.25 10.26 9.88
4/15/2021 10:30:00 PM 11.72 53.096 0.234 7.24 10.66 9.83
4/15/2021 10:45:00 PM 11.68 53.024 0.234 7.22 11.04 9.81
4/15/2021 11:00:00 PM 11.65 52.97 0.235 7.21 13.39 9.8
4/15/2021 11:15:00 PM 11.63 52.934 0.234 7.2 12.71 9.77
4/15/2021 11:30:00 PM 11.59 52.862 0.235 7.18 11.03 9.72
4/15/2021 11:45:00 PM 11.58 52.844 0.234 7.17 11.96 9.73
4/16/2021 12:00:00 AM 11.55 52.79 0.235 7.16 11.69 9.76
4/16/2021 12:15:00 AM 11.53 52.754 0.233 7.16 12.36 9.77
4/16/2021 12:30:00 AM 11.53 52.754 0.233 7.16 11.59 9.79
4/16/2021 12:45:00 AM 11.49 52.682 0.233 7.15 11.83 9.81
4/16/2021 1:00:00 AM 11.45 52.61 0.233 7.15 10.22 9.83
4/16/2021 1:15:00 AM 11.4 52.52 0.234 7.15 11.29 9.84
4/16/2021 1:30:00 AM 11.36 52.448 0.236 7.14 10.17 9.83
4/16/2021 1:45:00 AM 11.3 52.34 0.235 7.14 11.54 9.79
4/16/2021 2:00:00 AM 11.22 52.196 0.235 7.12 11.66 9.71
4/16/2021 2:15:00 AM 11.17 52.106 0.234 7.11 13.39 9.64
4/16/2021 2:30:00 AM 11.09 51.962 0.236 7.09 15.84 9.6
4/16/2021 2:45:00 AM 11.04 51.872 0.234 7.08 14.35 9.59
4/16/2021 3:00:00 AM 10.98 51.764 0.234 7.07 13.78 9.58
4/16/2021 3:15:00 AM 10.93 51.674 0.234 7.05 12.66 9.59
4/16/2021 3:30:00 AM 10.89 51.602 0.235 7.03 13.22 9.6
4/16/2021 3:45:00 AM 10.87 51.566 0.235 7.04 17.97 9.6
4/16/2021 4:00:00 AM 10.86 51.548 0.236 7.02 13.55 9.64
4/16/2021 4:15:00 AM 10.85 51.53 0.236 7.03 14.74 9.65
4/16/2021 4:30:00 AM 10.83 51.494 0.235 7.02 42.34 9.66
4/16/2021 4:45:00 AM 10.81 51.458 0.236 7.02 15.68 9.7
4/16/2021 5:00:00 AM 10.81 51.458 0.234 7.01 11.29 9.72
4/16/2021 5:15:00 AM 10.81 51.458 0.235 7.01 12.17 9.75
4/16/2021 5:30:00 AM 10.8 51.44 0.233 7.01 10.98 9.77
4/16/2021 5:45:00 AM 10.79 51.422 0.233 7 10.54 9.79
4/16/2021 6:00:00 AM 10.77 51.386 0.234 7 13.54 9.8
4/16/2021 6:15:00 AM 10.75 51.35 0.234 7.01 9.74 9.83
4/16/2021 6:30:00 AM 10.71 51.278 0.235 7 11.98 9.86
4/16/2021 6:45:00 AM 10.67 51.206 0.234 6.99 13.65 9.89
4/16/2021 7:00:00 AM 10.64 51.152 0.234 7 11.43 9.94
4/16/2021 7:15:00 AM 10.61 51.098 0.234 7 9.55 10
4/16/2021 7:30:00 AM 10.58 51.044 0.233 7 9.6 10.06
4/16/2021 7:45:00 AM 10.57 51.026 0.234 7.02 19.77 10.1
4/16/2021 8:00:00 AM 10.56 51.008 0.233 7.02 10.47 10.12
4/16/2021 8:15:00 AM 10.55 50.99 0.233 7.01 10.69 10.2
4/16/2021 8:30:00 AM 10.57 51.026 0.234 7.03 10.4 10.27
4/16/2021 8:45:00 AM 10.62 51.116 0.233 7.03 10.3 10.36
4/16/2021 9:00:00 AM 10.7 51.26 0.232 7.05 9.68 10.44
4/16/2021 9:15:00 AM 10.78 51.404 0.233 7.06 10.94 10.54
4/16/2021 9:30:00 AM 10.9 51.62 0.233 7.08 9.28 10.61
4/16/2021 9:45:00 AM 10.94 51.692 0.233 7.09